<?xml version='1.0' encoding='UTF-8'?>
<gpx version="1.1" creator="https://www.komoot.de" xmlns="http://www.topografix.com/GPX/1/1" xmlns:xsi="http://www.w3.org/2001/XMLSchema-instance" xsi:schemaLocation="http://www.topografix.com/GPX/1/1 http://www.topografix.com/GPX/1/1/gpx.xsd">
  <metadata>
    <name>GVA-MAR - Day 8</name>
    <author>
      <link href="https://www.komoot.de">
        <text>komoot</text>
        <type>text/html</type>
      </link>
    </author>
  </metadata>
  <trk>
    <name>GVA-MAR - Day 8</name>
    <trkseg>
      <trkpt lat="43.917478" lon="5.054998">
        <ele>60.195579</ele>
        <time>2017-06-12T20:34:09.934Z</time>
      </trkpt>
      <trkpt lat="43.917469" lon="5.055243">
        <ele>60.195579</ele>
        <time>2017-06-12T20:34:13.813Z</time>
      </trkpt>
      <trkpt lat="43.917450" lon="5.055386">
        <ele>60.195579</ele>
        <time>2017-06-12T20:34:16.187Z</time>
      </trkpt>
      <trkpt lat="43.917413" lon="5.055497">
        <ele>60.195579</ele>
        <time>2017-06-12T20:34:18.083Z</time>
      </trkpt>
      <trkpt lat="43.917386" lon="5.055580">
        <ele>60.195579</ele>
        <time>2017-06-12T20:34:19.546Z</time>
      </trkpt>
      <trkpt lat="43.917349" lon="5.055651">
        <ele>60.195579</ele>
        <time>2017-06-12T20:34:20.929Z</time>
      </trkpt>
      <trkpt lat="43.917329" lon="5.055669">
        <ele>60.195579</ele>
        <time>2017-06-12T20:34:21.457Z</time>
      </trkpt>
      <trkpt lat="43.917247" lon="5.055714">
        <ele>60.195579</ele>
        <time>2017-06-12T20:34:23.438Z</time>
      </trkpt>
      <trkpt lat="43.917157" lon="5.055732">
        <ele>60.195579</ele>
        <time>2017-06-12T20:34:25.466Z</time>
      </trkpt>
      <trkpt lat="43.916862" lon="5.055724">
        <ele>60.214904</ele>
        <time>2017-06-12T20:34:32.134Z</time>
      </trkpt>
      <trkpt lat="43.916754" lon="5.055707">
        <ele>60.236566</ele>
        <time>2017-06-12T20:34:34.552Z</time>
      </trkpt>
      <trkpt lat="43.916238" lon="5.055662">
        <ele>60.339605</ele>
        <time>2017-06-12T20:34:46.645Z</time>
      </trkpt>
      <trkpt lat="43.916100" lon="5.055650">
        <ele>60.367162</ele>
        <time>2017-06-12T20:34:50.015Z</time>
      </trkpt>
      <trkpt lat="43.915838" lon="5.055652">
        <ele>60.419378</ele>
        <time>2017-06-12T20:34:56.204Z</time>
      </trkpt>
      <trkpt lat="43.915564" lon="5.055673">
        <ele>60.474068</ele>
        <time>2017-06-12T20:35:02.895Z</time>
      </trkpt>
      <trkpt lat="43.915260" lon="5.055710">
        <ele>60.534886</ele>
        <time>2017-06-12T20:35:10.581Z</time>
      </trkpt>
      <trkpt lat="43.914966" lon="5.055772">
        <ele>60.652051</ele>
        <time>2017-06-12T20:35:18.152Z</time>
      </trkpt>
      <trkpt lat="43.914755" lon="5.055811">
        <ele>60.755711</ele>
        <time>2017-06-12T20:35:23.690Z</time>
      </trkpt>
      <trkpt lat="43.914254" lon="5.055871">
        <ele>61.000594</ele>
        <time>2017-06-12T20:35:36.627Z</time>
      </trkpt>
      <trkpt lat="43.914182" lon="5.055877">
        <ele>61.035720</ele>
        <time>2017-06-12T20:35:38.566Z</time>
      </trkpt>
      <trkpt lat="43.913512" lon="5.055956">
        <ele>61.363172</ele>
        <time>2017-06-12T20:35:55.332Z</time>
      </trkpt>
      <trkpt lat="43.913180" lon="5.055990">
        <ele>61.423674</ele>
        <time>2017-06-12T20:36:03.288Z</time>
      </trkpt>
      <trkpt lat="43.912794" lon="5.056031">
        <ele>61.411272</ele>
        <time>2017-06-12T20:36:12.283Z</time>
      </trkpt>
      <trkpt lat="43.912600" lon="5.056054">
        <ele>61.405035</ele>
        <time>2017-06-12T20:36:16.786Z</time>
      </trkpt>
      <trkpt lat="43.912310" lon="5.056090">
        <ele>61.395708</ele>
        <time>2017-06-12T20:36:23.332Z</time>
      </trkpt>
      <trkpt lat="43.911496" lon="5.056210">
        <ele>61.369544</ele>
        <time>2017-06-12T20:36:41.778Z</time>
      </trkpt>
      <trkpt lat="43.911291" lon="5.056231">
        <ele>61.363097</ele>
        <time>2017-06-12T20:36:46.405Z</time>
      </trkpt>
      <trkpt lat="43.911186" lon="5.056199">
        <ele>61.359726</ele>
        <time>2017-06-12T20:36:48.845Z</time>
      </trkpt>
      <trkpt lat="43.911142" lon="5.056163">
        <ele>61.358124</ele>
        <time>2017-06-12T20:36:49.980Z</time>
      </trkpt>
      <trkpt lat="43.911130" lon="5.056140">
        <ele>61.357482</ele>
        <time>2017-06-12T20:36:50.458Z</time>
      </trkpt>
      <trkpt lat="43.911119" lon="5.056124">
        <ele>61.356983</ele>
        <time>2017-06-12T20:36:50.821Z</time>
      </trkpt>
      <trkpt lat="43.911105" lon="5.056109">
        <ele>61.356428</ele>
        <time>2017-06-12T20:36:51.248Z</time>
      </trkpt>
      <trkpt lat="43.911086" lon="5.056095">
        <ele>61.355753</ele>
        <time>2017-06-12T20:36:51.723Z</time>
      </trkpt>
      <trkpt lat="43.910977" lon="5.056121">
        <ele>61.352284</ele>
        <time>2017-06-12T20:36:54.172Z</time>
      </trkpt>
      <trkpt lat="43.910963" lon="5.056142">
        <ele>61.351638</ele>
        <time>2017-06-12T20:36:54.639Z</time>
      </trkpt>
      <trkpt lat="43.910952" lon="5.056167">
        <ele>61.350976</ele>
        <time>2017-06-12T20:36:55.118Z</time>
      </trkpt>
      <trkpt lat="43.910943" lon="5.056269">
        <ele>61.348654</ele>
        <time>2017-06-12T20:36:56.799Z</time>
      </trkpt>
      <trkpt lat="43.910950" lon="5.056298">
        <ele>61.347963</ele>
        <time>2017-06-12T20:36:57.291Z</time>
      </trkpt>
      <trkpt lat="43.910958" lon="5.056446">
        <ele>61.344610</ele>
        <time>2017-06-12T20:36:59.781Z</time>
      </trkpt>
      <trkpt lat="43.910923" lon="5.056593">
        <ele>61.341112</ele>
        <time>2017-06-12T20:37:02.307Z</time>
      </trkpt>
      <trkpt lat="43.910879" lon="5.056673">
        <ele>61.338838</ele>
        <time>2017-06-12T20:37:04.024Z</time>
      </trkpt>
      <trkpt lat="43.910786" lon="5.056722">
        <ele>61.335718</ele>
        <time>2017-06-12T20:37:06.236Z</time>
      </trkpt>
      <trkpt lat="43.909782" lon="5.057044">
        <ele>61.522314</ele>
        <time>2017-06-12T20:37:30.521Z</time>
      </trkpt>
      <trkpt lat="43.908374" lon="5.057239">
        <ele>62.261436</ele>
        <time>2017-06-12T20:38:06.450Z</time>
      </trkpt>
      <trkpt lat="43.908202" lon="5.057266">
        <ele>62.432640</ele>
        <time>2017-06-12T20:38:11.230Z</time>
      </trkpt>
      <trkpt lat="43.907973" lon="5.057301">
        <ele>62.660505</ele>
        <time>2017-06-12T20:38:17.744Z</time>
      </trkpt>
      <trkpt lat="43.907182" lon="5.057424">
        <ele>63.447750</ele>
        <time>2017-06-12T20:38:40.056Z</time>
      </trkpt>
      <trkpt lat="43.906755" lon="5.057510">
        <ele>63.874504</ele>
        <time>2017-06-12T20:38:51.699Z</time>
      </trkpt>
      <trkpt lat="43.906675" lon="5.057536">
        <ele>63.955770</ele>
        <time>2017-06-12T20:38:54.164Z</time>
      </trkpt>
      <trkpt lat="43.906378" lon="5.057631">
        <ele>64.066034</ele>
        <time>2017-06-12T20:39:01.810Z</time>
      </trkpt>
      <trkpt lat="43.905759" lon="5.057814">
        <ele>64.176263</ele>
        <time>2017-06-12T20:39:17.432Z</time>
      </trkpt>
      <trkpt lat="43.904638" lon="5.058480">
        <ele>64.290897</ele>
        <time>2017-06-12T20:39:44.903Z</time>
      </trkpt>
      <trkpt lat="43.904270" lon="5.058698">
        <ele>64.224904</ele>
        <time>2017-06-12T20:39:53.593Z</time>
      </trkpt>
      <trkpt lat="43.903447" lon="5.059213">
        <ele>64.076005</ele>
        <time>2017-06-12T20:40:13.872Z</time>
      </trkpt>
      <trkpt lat="43.903051" lon="5.059404">
        <ele>64.071757</ele>
        <time>2017-06-12T20:40:23.727Z</time>
      </trkpt>
      <trkpt lat="43.901526" lon="5.059855">
        <ele>64.292517</ele>
        <time>2017-06-12T20:41:00.684Z</time>
      </trkpt>
      <trkpt lat="43.901403" lon="5.059842">
        <ele>64.354622</ele>
        <time>2017-06-12T20:41:03.707Z</time>
      </trkpt>
      <trkpt lat="43.901294" lon="5.059793">
        <ele>64.424301</ele>
        <time>2017-06-12T20:41:06.483Z</time>
      </trkpt>
      <trkpt lat="43.901119" lon="5.059658">
        <ele>64.546064</ele>
        <time>2017-06-12T20:41:11.475Z</time>
      </trkpt>
      <trkpt lat="43.900958" lon="5.059578">
        <ele>64.650062</ele>
        <time>2017-06-12T20:41:15.701Z</time>
      </trkpt>
      <trkpt lat="43.900597" lon="5.059341">
        <ele>64.892929</ele>
        <time>2017-06-12T20:41:25.826Z</time>
      </trkpt>
      <trkpt lat="43.899516" lon="5.058565">
        <ele>65.806629</ele>
        <time>2017-06-12T20:41:58.109Z</time>
      </trkpt>
      <trkpt lat="43.898461" lon="5.058121">
        <ele>66.956321</ele>
        <time>2017-06-12T20:42:28.789Z</time>
      </trkpt>
      <trkpt lat="43.897690" lon="5.057526">
        <ele>67.715989</ele>
        <time>2017-06-12T20:42:52.732Z</time>
      </trkpt>
      <trkpt lat="43.897564" lon="5.057418">
        <ele>67.829859</ele>
        <time>2017-06-12T20:42:56.817Z</time>
      </trkpt>
      <trkpt lat="43.896569" lon="5.056605">
        <ele>68.638471</ele>
        <time>2017-06-12T20:43:26.750Z</time>
      </trkpt>
      <trkpt lat="43.896565" lon="5.056462">
        <ele>68.626343</ele>
        <time>2017-06-12T20:43:29.177Z</time>
      </trkpt>
      <trkpt lat="43.896647" lon="5.056290">
        <ele>68.608865</ele>
        <time>2017-06-12T20:43:32.676Z</time>
      </trkpt>
      <trkpt lat="43.896685" lon="5.056211">
        <ele>68.600815</ele>
        <time>2017-06-12T20:43:34.444Z</time>
      </trkpt>
      <trkpt lat="43.896661" lon="5.056138">
        <ele>68.594015</ele>
        <time>2017-06-12T20:43:35.736Z</time>
      </trkpt>
      <trkpt lat="43.896631" lon="5.056079">
        <ele>68.587896</ele>
        <time>2017-06-12T20:43:36.918Z</time>
      </trkpt>
      <trkpt lat="43.896466" lon="5.056240">
        <ele>68.564174</ele>
        <time>2017-06-12T20:43:41.303Z</time>
      </trkpt>
      <trkpt lat="43.896342" lon="5.056426">
        <ele>68.542699</ele>
        <time>2017-06-12T20:43:45.297Z</time>
      </trkpt>
      <trkpt lat="43.895988" lon="5.056350">
        <ele>68.500571</ele>
        <time>2017-06-12T20:43:53.239Z</time>
      </trkpt>
      <trkpt lat="43.895601" lon="5.056178">
        <ele>68.452779</ele>
        <time>2017-06-12T20:44:02.045Z</time>
      </trkpt>
      <trkpt lat="43.894213" lon="5.055738">
        <ele>67.852586</ele>
        <time>2017-06-12T20:44:32.143Z</time>
      </trkpt>
      <trkpt lat="43.891271" lon="5.056094">
        <ele>67.422396</ele>
        <time>2017-06-12T20:45:38.695Z</time>
      </trkpt>
      <trkpt lat="43.886241" lon="5.056725">
        <ele>68.270239</ele>
        <time>2017-06-12T20:47:40.193Z</time>
      </trkpt>
      <trkpt lat="43.885469" lon="5.056820">
        <ele>68.285240</ele>
        <time>2017-06-12T20:47:58.083Z</time>
      </trkpt>
      <trkpt lat="43.884201" lon="5.056989">
        <ele>68.374692</ele>
        <time>2017-06-12T20:48:27.247Z</time>
      </trkpt>
      <trkpt lat="43.883969" lon="5.057110">
        <ele>68.408476</ele>
        <time>2017-06-12T20:48:33.015Z</time>
      </trkpt>
      <trkpt lat="43.883720" lon="5.057395">
        <ele>68.452476</ele>
        <time>2017-06-12T20:48:40.630Z</time>
      </trkpt>
      <trkpt lat="43.882847" lon="5.058747">
        <ele>68.871896</ele>
        <time>2017-06-12T20:49:12.804Z</time>
      </trkpt>
      <trkpt lat="43.881915" lon="5.059911">
        <ele>69.526422</ele>
        <time>2017-06-12T20:49:44.983Z</time>
      </trkpt>
      <trkpt lat="43.880262" lon="5.061797">
        <ele>70.754627</ele>
        <time>2017-06-12T20:50:39.666Z</time>
      </trkpt>
      <trkpt lat="43.879653" lon="5.062191">
        <ele>71.085029</ele>
        <time>2017-06-12T20:50:56.566Z</time>
      </trkpt>
      <trkpt lat="43.879486" lon="5.062395">
        <ele>71.194436</ele>
        <time>2017-06-12T20:51:02.103Z</time>
      </trkpt>
      <trkpt lat="43.879073" lon="5.063103">
        <ele>71.499729</ele>
        <time>2017-06-12T20:51:18.451Z</time>
      </trkpt>
      <trkpt lat="43.878744" lon="5.063511">
        <ele>71.674615</ele>
        <time>2017-06-12T20:51:29.368Z</time>
      </trkpt>
      <trkpt lat="43.877615" lon="5.064664">
        <ele>72.222489</ele>
        <time>2017-06-12T20:52:04.086Z</time>
      </trkpt>
      <trkpt lat="43.876522" lon="5.066168">
        <ele>72.780484</ele>
        <time>2017-06-12T20:52:41.790Z</time>
      </trkpt>
      <trkpt lat="43.875028" lon="5.067502">
        <ele>73.673339</ele>
        <time>2017-06-12T20:53:26.507Z</time>
      </trkpt>
      <trkpt lat="43.874632" lon="5.067810">
        <ele>73.888996</ele>
        <time>2017-06-12T20:53:38.223Z</time>
      </trkpt>
      <trkpt lat="43.874568" lon="5.067757">
        <ele>73.924107</ele>
        <time>2017-06-12T20:53:40.273Z</time>
      </trkpt>
      <trkpt lat="43.874040" lon="5.067329">
        <ele>74.212176</ele>
        <time>2017-06-12T20:53:55.066Z</time>
      </trkpt>
      <trkpt lat="43.873744" lon="5.066957">
        <ele>74.400321</ele>
        <time>2017-06-12T20:54:04.637Z</time>
      </trkpt>
      <trkpt lat="43.873624" lon="5.066911">
        <ele>74.458966</ele>
        <time>2017-06-12T20:54:07.830Z</time>
      </trkpt>
      <trkpt lat="43.872846" lon="5.066455">
        <ele>74.510728</ele>
        <time>2017-06-12T20:54:26.908Z</time>
      </trkpt>
      <trkpt lat="43.872148" lon="5.066064">
        <ele>74.468758</ele>
        <time>2017-06-12T20:54:43.218Z</time>
      </trkpt>
      <trkpt lat="43.870660" lon="5.065350">
        <ele>74.184034</ele>
        <time>2017-06-12T20:55:16.640Z</time>
      </trkpt>
      <trkpt lat="43.869589" lon="5.064752">
        <ele>73.988234</ele>
        <time>2017-06-12T20:55:41.691Z</time>
      </trkpt>
      <trkpt lat="43.869210" lon="5.064540">
        <ele>73.943112</ele>
        <time>2017-06-12T20:55:50.647Z</time>
      </trkpt>
      <trkpt lat="43.866848" lon="5.063489">
        <ele>73.672740</ele>
        <time>2017-06-12T20:56:44.830Z</time>
      </trkpt>
      <trkpt lat="43.866220" lon="5.063210">
        <ele>73.579603</ele>
        <time>2017-06-12T20:56:59.139Z</time>
      </trkpt>
      <trkpt lat="43.864760" lon="5.062470">
        <ele>73.397009</ele>
        <time>2017-06-12T20:57:32.624Z</time>
      </trkpt>
      <trkpt lat="43.864050" lon="5.062044">
        <ele>73.448054</ele>
        <time>2017-06-12T20:57:49.960Z</time>
      </trkpt>
      <trkpt lat="43.863510" lon="5.061720">
        <ele>73.486878</ele>
        <time>2017-06-12T20:58:03.491Z</time>
      </trkpt>
      <trkpt lat="43.862320" lon="5.060910">
        <ele>73.549321</ele>
        <time>2017-06-12T20:58:34.111Z</time>
      </trkpt>
      <trkpt lat="43.861333" lon="5.060077">
        <ele>73.319892</ele>
        <time>2017-06-12T20:58:58.949Z</time>
      </trkpt>
      <trkpt lat="43.860459" lon="5.059219">
        <ele>72.759777</ele>
        <time>2017-06-12T20:59:20.309Z</time>
      </trkpt>
      <trkpt lat="43.860215" lon="5.058901">
        <ele>72.626878</ele>
        <time>2017-06-12T20:59:27.098Z</time>
      </trkpt>
      <trkpt lat="43.859746" lon="5.058292">
        <ele>72.559056</ele>
        <time>2017-06-12T20:59:40.408Z</time>
      </trkpt>
      <trkpt lat="43.858402" lon="5.056401">
        <ele>72.696825</ele>
        <time>2017-06-12T21:00:24.511Z</time>
      </trkpt>
      <trkpt lat="43.857370" lon="5.054950">
        <ele>73.115615</ele>
        <time>2017-06-12T21:00:59.482Z</time>
      </trkpt>
      <trkpt lat="43.856670" lon="5.054210">
        <ele>73.358850</ele>
        <time>2017-06-12T21:01:19.927Z</time>
      </trkpt>
      <trkpt lat="43.855570" lon="5.053340">
        <ele>73.494505</ele>
        <time>2017-06-12T21:01:49.087Z</time>
      </trkpt>
      <trkpt lat="43.854716" lon="5.052800">
        <ele>73.519760</ele>
        <time>2017-06-12T21:02:09.665Z</time>
      </trkpt>
      <trkpt lat="43.853316" lon="5.051770">
        <ele>73.125988</ele>
        <time>2017-06-12T21:02:43.205Z</time>
      </trkpt>
      <trkpt lat="43.852950" lon="5.051500">
        <ele>73.103258</ele>
        <time>2017-06-12T21:02:51.965Z</time>
      </trkpt>
      <trkpt lat="43.851696" lon="5.050514">
        <ele>73.273395</ele>
        <time>2017-06-12T21:03:24.202Z</time>
      </trkpt>
      <trkpt lat="43.851293" lon="5.050146">
        <ele>73.620207</ele>
        <time>2017-06-12T21:03:36.546Z</time>
      </trkpt>
      <trkpt lat="43.851153" lon="5.050022">
        <ele>73.779595</ele>
        <time>2017-06-12T21:03:41.016Z</time>
      </trkpt>
      <trkpt lat="43.850712" lon="5.049632">
        <ele>74.281445</ele>
        <time>2017-06-12T21:03:55.362Z</time>
      </trkpt>
      <trkpt lat="43.850497" lon="5.049447">
        <ele>74.524219</ele>
        <time>2017-06-12T21:04:02.231Z</time>
      </trkpt>
      <trkpt lat="43.850245" lon="5.049231">
        <ele>74.808469</ele>
        <time>2017-06-12T21:04:10.093Z</time>
      </trkpt>
      <trkpt lat="43.849857" lon="5.048928">
        <ele>75.066488</ele>
        <time>2017-06-12T21:04:21.452Z</time>
      </trkpt>
      <trkpt lat="43.849373" lon="5.048615">
        <ele>75.185246</ele>
        <time>2017-06-12T21:04:34.538Z</time>
      </trkpt>
      <trkpt lat="43.848795" lon="5.048267">
        <ele>75.325370</ele>
        <time>2017-06-12T21:04:48.900Z</time>
      </trkpt>
      <trkpt lat="43.848297" lon="5.047923">
        <ele>75.349528</ele>
        <time>2017-06-12T21:05:00.450Z</time>
      </trkpt>
      <trkpt lat="43.848210" lon="5.047864">
        <ele>75.307417</ele>
        <time>2017-06-12T21:05:02.409Z</time>
      </trkpt>
      <trkpt lat="43.848165" lon="5.047843">
        <ele>75.286772</ele>
        <time>2017-06-12T21:05:03.346Z</time>
      </trkpt>
      <trkpt lat="43.847705" lon="5.047627">
        <ele>75.075598</ele>
        <time>2017-06-12T21:05:13.036Z</time>
      </trkpt>
      <trkpt lat="43.847315" lon="5.047505">
        <ele>74.901758</ele>
        <time>2017-06-12T21:05:21.146Z</time>
      </trkpt>
      <trkpt lat="43.846710" lon="5.047160">
        <ele>74.623292</ele>
        <time>2017-06-12T21:05:35.171Z</time>
      </trkpt>
      <trkpt lat="43.846459" lon="5.046944">
        <ele>74.542805</ele>
        <time>2017-06-12T21:05:41.570Z</time>
      </trkpt>
      <trkpt lat="43.845990" lon="5.046540">
        <ele>74.392371</ele>
        <time>2017-06-12T21:05:53.378Z</time>
      </trkpt>
      <trkpt lat="43.845479" lon="5.046182">
        <ele>74.236382</ele>
        <time>2017-06-12T21:06:05.651Z</time>
      </trkpt>
      <trkpt lat="43.845371" lon="5.046106">
        <ele>74.203384</ele>
        <time>2017-06-12T21:06:08.127Z</time>
      </trkpt>
      <trkpt lat="43.845220" lon="5.046000">
        <ele>74.157270</ele>
        <time>2017-06-12T21:06:11.619Z</time>
      </trkpt>
      <trkpt lat="43.845082" lon="5.045903">
        <ele>74.137553</ele>
        <time>2017-06-12T21:06:14.818Z</time>
      </trkpt>
      <trkpt lat="43.845020" lon="5.045860">
        <ele>74.133720</ele>
        <time>2017-06-12T21:06:16.224Z</time>
      </trkpt>
      <trkpt lat="43.844787" lon="5.045634">
        <ele>74.117997</ele>
        <time>2017-06-12T21:06:22.157Z</time>
      </trkpt>
      <trkpt lat="43.844700" lon="5.045550">
        <ele>74.112134</ele>
        <time>2017-06-12T21:06:24.338Z</time>
      </trkpt>
      <trkpt lat="43.844604" lon="5.045409">
        <ele>74.104401</ele>
        <time>2017-06-12T21:06:27.422Z</time>
      </trkpt>
      <trkpt lat="43.844473" lon="5.045216">
        <ele>74.093832</ele>
        <time>2017-06-12T21:06:31.645Z</time>
      </trkpt>
      <trkpt lat="43.844384" lon="5.045218">
        <ele>74.088910</ele>
        <time>2017-06-12T21:06:33.680Z</time>
      </trkpt>
      <trkpt lat="43.844239" lon="5.045102">
        <ele>74.079653</ele>
        <time>2017-06-12T21:06:37.557Z</time>
      </trkpt>
      <trkpt lat="43.844138" lon="5.045084">
        <ele>74.074022</ele>
        <time>2017-06-12T21:06:39.972Z</time>
      </trkpt>
      <trkpt lat="43.844094" lon="5.045092">
        <ele>74.071568</ele>
        <time>2017-06-12T21:06:40.988Z</time>
      </trkpt>
      <trkpt lat="43.844005" lon="5.045127">
        <ele>74.066453</ele>
        <time>2017-06-12T21:06:43.164Z</time>
      </trkpt>
      <trkpt lat="43.843937" lon="5.045162">
        <ele>74.062442</ele>
        <time>2017-06-12T21:06:44.857Z</time>
      </trkpt>
      <trkpt lat="43.843705" lon="5.045130">
        <ele>74.049550</ele>
        <time>2017-06-12T21:06:50.554Z</time>
      </trkpt>
      <trkpt lat="43.843672" lon="5.045047">
        <ele>74.045770</ele>
        <time>2017-06-12T21:06:52.262Z</time>
      </trkpt>
      <trkpt lat="43.843656" lon="5.044942">
        <ele>74.063463</ele>
        <time>2017-06-12T21:06:54.117Z</time>
      </trkpt>
      <trkpt lat="43.843610" lon="5.044977">
        <ele>74.088056</ele>
        <time>2017-06-12T21:06:55.403Z</time>
      </trkpt>
      <trkpt lat="43.843546" lon="5.045002">
        <ele>74.119219</ele>
        <time>2017-06-12T21:06:56.987Z</time>
      </trkpt>
      <trkpt lat="43.843467" lon="5.045012">
        <ele>74.156400</ele>
        <time>2017-06-12T21:06:58.884Z</time>
      </trkpt>
      <trkpt lat="43.843368" lon="5.044993">
        <ele>74.203242</ele>
        <time>2017-06-12T21:07:01.223Z</time>
      </trkpt>
      <trkpt lat="43.843291" lon="5.044974">
        <ele>74.239898</ele>
        <time>2017-06-12T21:07:03.017Z</time>
      </trkpt>
      <trkpt lat="43.843202" lon="5.044977">
        <ele>74.281623</ele>
        <time>2017-06-12T21:07:05.147Z</time>
      </trkpt>
      <trkpt lat="43.843134" lon="5.045018">
        <ele>74.316377</ele>
        <time>2017-06-12T21:07:06.917Z</time>
      </trkpt>
      <trkpt lat="43.842560" lon="5.045526">
        <ele>74.635538</ele>
        <time>2017-06-12T21:07:23.511Z</time>
      </trkpt>
      <trkpt lat="43.842406" lon="5.045613">
        <ele>74.713477</ele>
        <time>2017-06-12T21:07:27.752Z</time>
      </trkpt>
      <trkpt lat="43.842354" lon="5.045642">
        <ele>74.739747</ele>
        <time>2017-06-12T21:07:29.123Z</time>
      </trkpt>
      <trkpt lat="43.842258" lon="5.045702">
        <ele>74.789101</ele>
        <time>2017-06-12T21:07:31.743Z</time>
      </trkpt>
      <trkpt lat="43.842118" lon="5.045790">
        <ele>74.861145</ele>
        <time>2017-06-12T21:07:35.731Z</time>
      </trkpt>
      <trkpt lat="43.842079" lon="5.045814">
        <ele>74.881143</ele>
        <time>2017-06-12T21:07:36.789Z</time>
      </trkpt>
      <trkpt lat="43.841569" lon="5.046211">
        <ele>74.867733</ele>
        <time>2017-06-12T21:07:50.524Z</time>
      </trkpt>
      <trkpt lat="43.841425" lon="5.046322">
        <ele>74.862246</ele>
        <time>2017-06-12T21:07:54.272Z</time>
      </trkpt>
      <trkpt lat="43.841214" lon="5.046526">
        <ele>74.853680</ele>
        <time>2017-06-12T21:07:59.855Z</time>
      </trkpt>
      <trkpt lat="43.840906" lon="5.046857">
        <ele>74.840702</ele>
        <time>2017-06-12T21:08:08.110Z</time>
      </trkpt>
      <trkpt lat="43.840678" lon="5.047104">
        <ele>74.831066</ele>
        <time>2017-06-12T21:08:14.134Z</time>
      </trkpt>
      <trkpt lat="43.840661" lon="5.047121">
        <ele>74.830368</ele>
        <time>2017-06-12T21:08:14.538Z</time>
      </trkpt>
      <trkpt lat="43.840658" lon="5.047125">
        <ele>74.830229</ele>
        <time>2017-06-12T21:08:14.626Z</time>
      </trkpt>
      <trkpt lat="43.840529" lon="5.047263">
        <ele>74.795275</ele>
        <time>2017-06-12T21:08:18.046Z</time>
      </trkpt>
      <trkpt lat="43.840488" lon="5.047307">
        <ele>74.769343</ele>
        <time>2017-06-12T21:08:19.111Z</time>
      </trkpt>
      <trkpt lat="43.840411" lon="5.047389">
        <ele>74.720781</ele>
        <time>2017-06-12T21:08:21.113Z</time>
      </trkpt>
      <trkpt lat="43.840363" lon="5.047441">
        <ele>74.690313</ele>
        <time>2017-06-12T21:08:22.362Z</time>
      </trkpt>
      <trkpt lat="43.840131" lon="5.047693">
        <ele>74.542904</ele>
        <time>2017-06-12T21:08:28.367Z</time>
      </trkpt>
      <trkpt lat="43.840032" lon="5.047764">
        <ele>74.487156</ele>
        <time>2017-06-12T21:08:30.577Z</time>
      </trkpt>
      <trkpt lat="43.839766" lon="5.047954">
        <ele>74.337494</ele>
        <time>2017-06-12T21:08:36.615Z</time>
      </trkpt>
      <trkpt lat="43.839282" lon="5.048301">
        <ele>74.064964</ele>
        <time>2017-06-12T21:08:47.763Z</time>
      </trkpt>
      <trkpt lat="43.838996" lon="5.048497">
        <ele>73.925546</ele>
        <time>2017-06-12T21:08:54.409Z</time>
      </trkpt>
      <trkpt lat="43.838976" lon="5.048509">
        <ele>73.924675</ele>
        <time>2017-06-12T21:08:54.838Z</time>
      </trkpt>
      <trkpt lat="43.838822" lon="5.048580">
        <ele>73.918186</ele>
        <time>2017-06-12T21:08:58.238Z</time>
      </trkpt>
      <trkpt lat="43.838790" lon="5.048594">
        <ele>73.916844</ele>
        <time>2017-06-12T21:08:58.925Z</time>
      </trkpt>
      <trkpt lat="43.838767" lon="5.048606">
        <ele>73.915862</ele>
        <time>2017-06-12T21:08:59.433Z</time>
      </trkpt>
      <trkpt lat="43.838636" lon="5.048672">
        <ele>73.910289</ele>
        <time>2017-06-12T21:09:02.442Z</time>
      </trkpt>
      <trkpt lat="43.838449" lon="5.048794">
        <ele>73.902026</ele>
        <time>2017-06-12T21:09:06.867Z</time>
      </trkpt>
      <trkpt lat="43.838329" lon="5.048912">
        <ele>73.896144</ele>
        <time>2017-06-12T21:09:10.133Z</time>
      </trkpt>
      <trkpt lat="43.838166" lon="5.049054">
        <ele>73.888447</ele>
        <time>2017-06-12T21:09:14.329Z</time>
      </trkpt>
      <trkpt lat="43.837638" lon="5.049509">
        <ele>73.863592</ele>
        <time>2017-06-12T21:09:28.438Z</time>
      </trkpt>
      <trkpt lat="43.837161" lon="5.049828">
        <ele>73.953791</ele>
        <time>2017-06-12T21:09:41.013Z</time>
      </trkpt>
      <trkpt lat="43.836895" lon="5.049969">
        <ele>74.040200</ele>
        <time>2017-06-12T21:09:47.756Z</time>
      </trkpt>
      <trkpt lat="43.836707" lon="5.050043">
        <ele>74.099497</ele>
        <time>2017-06-12T21:09:52.304Z</time>
      </trkpt>
      <trkpt lat="43.836691" lon="5.050049">
        <ele>74.104526</ele>
        <time>2017-06-12T21:09:52.686Z</time>
      </trkpt>
      <trkpt lat="43.836593" lon="5.050090">
        <ele>74.135586</ele>
        <time>2017-06-12T21:09:55.100Z</time>
      </trkpt>
      <trkpt lat="43.836569" lon="5.050102">
        <ele>74.143327</ele>
        <time>2017-06-12T21:09:55.708Z</time>
      </trkpt>
      <trkpt lat="43.836538" lon="5.050116">
        <ele>74.153220</ele>
        <time>2017-06-12T21:09:56.464Z</time>
      </trkpt>
      <trkpt lat="43.836446" lon="5.050154">
        <ele>74.182347</ele>
        <time>2017-06-12T21:09:58.689Z</time>
      </trkpt>
      <trkpt lat="43.836395" lon="5.050175">
        <ele>74.198490</ele>
        <time>2017-06-12T21:09:59.898Z</time>
      </trkpt>
      <trkpt lat="43.836034" lon="5.050323">
        <ele>74.312714</ele>
        <time>2017-06-12T21:10:08.662Z</time>
      </trkpt>
      <trkpt lat="43.835671" lon="5.050476">
        <ele>74.440591</ele>
        <time>2017-06-12T21:10:17.599Z</time>
      </trkpt>
      <trkpt lat="43.835452" lon="5.050567">
        <ele>74.543104</ele>
        <time>2017-06-12T21:10:23.042Z</time>
      </trkpt>
      <trkpt lat="43.835045" lon="5.050744">
        <ele>74.734366</ele>
        <time>2017-06-12T21:10:33.228Z</time>
      </trkpt>
      <trkpt lat="43.834818" lon="5.050870">
        <ele>74.844005</ele>
        <time>2017-06-12T21:10:39.122Z</time>
      </trkpt>
      <trkpt lat="43.834622" lon="5.050960">
        <ele>74.936584</ele>
        <time>2017-06-12T21:10:44.208Z</time>
      </trkpt>
      <trkpt lat="43.833328" lon="5.051471">
        <ele>75.473260</ele>
        <time>2017-06-12T21:11:16.759Z</time>
      </trkpt>
      <trkpt lat="43.832812" lon="5.051622">
        <ele>75.662315</ele>
        <time>2017-06-12T21:11:29.323Z</time>
      </trkpt>
      <trkpt lat="43.832571" lon="5.051628">
        <ele>75.748724</ele>
        <time>2017-06-12T21:11:34.852Z</time>
      </trkpt>
      <trkpt lat="43.832373" lon="5.051697">
        <ele>75.821913</ele>
        <time>2017-06-12T21:11:39.561Z</time>
      </trkpt>
      <trkpt lat="43.832346" lon="5.051689">
        <ele>75.831811</ele>
        <time>2017-06-12T21:11:40.193Z</time>
      </trkpt>
      <trkpt lat="43.832284" lon="5.051688">
        <ele>75.851750</ele>
        <time>2017-06-12T21:11:41.586Z</time>
      </trkpt>
      <trkpt lat="43.832206" lon="5.051720">
        <ele>75.840061</ele>
        <time>2017-06-12T21:11:43.469Z</time>
      </trkpt>
      <trkpt lat="43.832138" lon="5.051791">
        <ele>75.827828</ele>
        <time>2017-06-12T21:11:45.425Z</time>
      </trkpt>
      <trkpt lat="43.832086" lon="5.051917">
        <ele>75.812781</ele>
        <time>2017-06-12T21:11:47.798Z</time>
      </trkpt>
      <trkpt lat="43.832078" lon="5.052060">
        <ele>75.797914</ele>
        <time>2017-06-12T21:11:50.104Z</time>
      </trkpt>
      <trkpt lat="43.832094" lon="5.052139">
        <ele>75.789408</ele>
        <time>2017-06-12T21:11:51.475Z</time>
      </trkpt>
      <trkpt lat="43.832126" lon="5.052214">
        <ele>75.780376</ele>
        <time>2017-06-12T21:11:52.893Z</time>
      </trkpt>
      <trkpt lat="43.832197" lon="5.052299">
        <ele>75.766895</ele>
        <time>2017-06-12T21:11:54.988Z</time>
      </trkpt>
      <trkpt lat="43.832273" lon="5.052336">
        <ele>75.755321</ele>
        <time>2017-06-12T21:11:56.732Z</time>
      </trkpt>
      <trkpt lat="43.832309" lon="5.052439">
        <ele>75.743457</ele>
        <time>2017-06-12T21:11:58.522Z</time>
      </trkpt>
      <trkpt lat="43.832329" lon="5.052538">
        <ele>75.732800</ele>
        <time>2017-06-12T21:12:00.099Z</time>
      </trkpt>
      <trkpt lat="43.832349" lon="5.052694">
        <ele>75.716376</ele>
        <time>2017-06-12T21:12:02.509Z</time>
      </trkpt>
      <trkpt lat="43.832330" lon="5.053097">
        <ele>75.674513</ele>
        <time>2017-06-12T21:12:08.477Z</time>
      </trkpt>
      <trkpt lat="43.832246" lon="5.053356">
        <ele>75.645078</ele>
        <time>2017-06-12T21:12:12.770Z</time>
      </trkpt>
      <trkpt lat="43.832148" lon="5.053546">
        <ele>75.620866</ele>
        <time>2017-06-12T21:12:16.287Z</time>
      </trkpt>
      <trkpt lat="43.831908" lon="5.053812">
        <ele>75.599387</ele>
        <time>2017-06-12T21:12:23.071Z</time>
      </trkpt>
      <trkpt lat="43.831687" lon="5.054019">
        <ele>75.611478</ele>
        <time>2017-06-12T21:12:28.917Z</time>
      </trkpt>
      <trkpt lat="43.831562" lon="5.054127">
        <ele>75.618155</ele>
        <time>2017-06-12T21:12:32.061Z</time>
      </trkpt>
      <trkpt lat="43.831213" lon="5.054427">
        <ele>75.636770</ele>
        <time>2017-06-12T21:12:41.285Z</time>
      </trkpt>
      <trkpt lat="43.830843" lon="5.054746">
        <ele>75.656522</ele>
        <time>2017-06-12T21:12:51.185Z</time>
      </trkpt>
      <trkpt lat="43.830771" lon="5.054807">
        <ele>75.660348</ele>
        <time>2017-06-12T21:12:53.226Z</time>
      </trkpt>
      <trkpt lat="43.830156" lon="5.055350">
        <ele>75.719268</ele>
        <time>2017-06-12T21:13:10.200Z</time>
      </trkpt>
      <trkpt lat="43.830019" lon="5.055480">
        <ele>75.737659</ele>
        <time>2017-06-12T21:13:13.937Z</time>
      </trkpt>
      <trkpt lat="43.829119" lon="5.056539">
        <ele>75.868433</ele>
        <time>2017-06-12T21:13:40.506Z</time>
      </trkpt>
      <trkpt lat="43.829050" lon="5.056618">
        <ele>75.878097</ele>
        <time>2017-06-12T21:13:42.568Z</time>
      </trkpt>
      <trkpt lat="43.828662" lon="5.057060">
        <ele>75.929888</ele>
        <time>2017-06-12T21:13:53.721Z</time>
      </trkpt>
      <trkpt lat="43.828571" lon="5.057168">
        <ele>75.942243</ele>
        <time>2017-06-12T21:13:56.552Z</time>
      </trkpt>
      <trkpt lat="43.828555" lon="5.057163">
        <ele>75.943934</ele>
        <time>2017-06-12T21:13:56.934Z</time>
      </trkpt>
      <trkpt lat="43.828503" lon="5.057177">
        <ele>75.949397</ele>
        <time>2017-06-12T21:13:58.161Z</time>
      </trkpt>
      <trkpt lat="43.828477" lon="5.057200">
        <ele>75.952578</ele>
        <time>2017-06-12T21:13:58.873Z</time>
      </trkpt>
      <trkpt lat="43.828459" lon="5.057217">
        <ele>75.954824</ele>
        <time>2017-06-12T21:13:59.342Z</time>
      </trkpt>
      <trkpt lat="43.828424" lon="5.057286">
        <ele>75.961099</ele>
        <time>2017-06-12T21:14:00.635Z</time>
      </trkpt>
      <trkpt lat="43.828414" lon="5.057367">
        <ele>75.967213</ele>
        <time>2017-06-12T21:14:01.884Z</time>
      </trkpt>
      <trkpt lat="43.828424" lon="5.057432">
        <ele>75.972157</ele>
        <time>2017-06-12T21:14:03.012Z</time>
      </trkpt>
      <trkpt lat="43.828436" lon="5.057455">
        <ele>75.974269</ele>
        <time>2017-06-12T21:14:03.500Z</time>
      </trkpt>
      <trkpt lat="43.828480" lon="5.057527">
        <ele>75.981289</ele>
        <time>2017-06-12T21:14:05.120Z</time>
      </trkpt>
      <trkpt lat="43.828503" lon="5.057676">
        <ele>75.992625</ele>
        <time>2017-06-12T21:14:07.598Z</time>
      </trkpt>
      <trkpt lat="43.828497" lon="5.057853">
        <ele>76.005808</ele>
        <time>2017-06-12T21:14:10.329Z</time>
      </trkpt>
      <trkpt lat="43.828425" lon="5.058010">
        <ele>76.019648</ele>
        <time>2017-06-12T21:14:13.518Z</time>
      </trkpt>
      <trkpt lat="43.828229" lon="5.058477">
        <ele>76.059843</ele>
        <time>2017-06-12T21:14:22.218Z</time>
      </trkpt>
      <trkpt lat="43.828095" lon="5.058852">
        <ele>76.174933</ele>
        <time>2017-06-12T21:14:29.304Z</time>
      </trkpt>
      <trkpt lat="43.827136" lon="5.061444">
        <ele>77.109883</ele>
        <time>2017-06-12T21:15:19.895Z</time>
      </trkpt>
      <trkpt lat="43.827053" lon="5.061481">
        <ele>77.161793</ele>
        <time>2017-06-12T21:15:22.024Z</time>
      </trkpt>
      <trkpt lat="43.826944" lon="5.061526">
        <ele>77.229507</ele>
        <time>2017-06-12T21:15:24.782Z</time>
      </trkpt>
      <trkpt lat="43.826905" lon="5.061526">
        <ele>77.252727</ele>
        <time>2017-06-12T21:15:25.722Z</time>
      </trkpt>
      <trkpt lat="43.826846" lon="5.061550">
        <ele>77.289335</ele>
        <time>2017-06-12T21:15:27.245Z</time>
      </trkpt>
      <trkpt lat="43.826782" lon="5.061624">
        <ele>77.338956</ele>
        <time>2017-06-12T21:15:29.281Z</time>
      </trkpt>
      <trkpt lat="43.826749" lon="5.061742">
        <ele>77.393316</ele>
        <time>2017-06-12T21:15:31.552Z</time>
      </trkpt>
      <trkpt lat="43.826752" lon="5.061823">
        <ele>77.428154</ele>
        <time>2017-06-12T21:15:32.993Z</time>
      </trkpt>
      <trkpt lat="43.826774" lon="5.061899">
        <ele>77.463328</ele>
        <time>2017-06-12T21:15:34.462Z</time>
      </trkpt>
      <trkpt lat="43.826461" lon="5.062183">
        <ele>77.686058</ele>
        <time>2017-06-12T21:15:44.137Z</time>
      </trkpt>
      <trkpt lat="43.823608" lon="5.064361">
        <ele>80.319526</ele>
        <time>2017-06-12T21:17:10.612Z</time>
      </trkpt>
      <trkpt lat="43.821913" lon="5.065828">
        <ele>82.016134</ele>
        <time>2017-06-12T21:18:02.865Z</time>
      </trkpt>
      <trkpt lat="43.820557" lon="5.067170">
        <ele>84.085977</ele>
        <time>2017-06-12T21:18:49.585Z</time>
      </trkpt>
      <trkpt lat="43.820006" lon="5.067782">
        <ele>85.081650</ele>
        <time>2017-06-12T21:19:10.806Z</time>
      </trkpt>
      <trkpt lat="43.819682" lon="5.068272">
        <ele>85.828576</ele>
        <time>2017-06-12T21:19:25.307Z</time>
      </trkpt>
      <trkpt lat="43.819544" lon="5.068701">
        <ele>86.356434</ele>
        <time>2017-06-12T21:19:35.522Z</time>
      </trkpt>
      <trkpt lat="43.819434" lon="5.069003">
        <ele>86.736619</ele>
        <time>2017-06-12T21:19:42.839Z</time>
      </trkpt>
      <trkpt lat="43.819197" lon="5.069457">
        <ele>87.366365</ele>
        <time>2017-06-12T21:19:54.753Z</time>
      </trkpt>
      <trkpt lat="43.817090" lon="5.073290">
        <ele>90.627046</ele>
        <time>2017-06-12T21:21:27.954Z</time>
      </trkpt>
      <trkpt lat="43.816062" lon="5.075107">
        <ele>91.823831</ele>
        <time>2017-06-12T21:22:11.107Z</time>
      </trkpt>
      <trkpt lat="43.815630" lon="5.075860">
        <ele>92.310754</ele>
        <time>2017-06-12T21:22:29.110Z</time>
      </trkpt>
      <trkpt lat="43.814111" lon="5.078738">
        <ele>94.106654</ele>
        <time>2017-06-12T21:23:36.195Z</time>
      </trkpt>
      <trkpt lat="43.812978" lon="5.081118">
        <ele>95.323320</ele>
        <time>2017-06-12T21:24:29.103Z</time>
      </trkpt>
      <trkpt lat="43.812648" lon="5.081811">
        <ele>95.573039</ele>
        <time>2017-06-12T21:24:44.009Z</time>
      </trkpt>
      <trkpt lat="43.812400" lon="5.082311">
        <ele>95.583574</ele>
        <time>2017-06-12T21:24:54.499Z</time>
      </trkpt>
      <trkpt lat="43.812064" lon="5.082961">
        <ele>95.597457</ele>
        <time>2017-06-12T21:25:07.575Z</time>
      </trkpt>
      <trkpt lat="43.811977" lon="5.083039">
        <ele>95.599951</ele>
        <time>2017-06-12T21:25:09.914Z</time>
      </trkpt>
      <trkpt lat="43.810500" lon="5.083140">
        <ele>95.624637</ele>
        <time>2017-06-12T21:25:43.472Z</time>
      </trkpt>
      <trkpt lat="43.808380" lon="5.083190">
        <ele>96.041798</ele>
        <time>2017-06-12T21:26:33.914Z</time>
      </trkpt>
      <trkpt lat="43.807320" lon="5.083260">
        <ele>96.651057</ele>
        <time>2017-06-12T21:27:01.271Z</time>
      </trkpt>
      <trkpt lat="43.806430" lon="5.083250">
        <ele>97.388651</ele>
        <time>2017-06-12T21:27:24.702Z</time>
      </trkpt>
      <trkpt lat="43.805314" lon="5.082841">
        <ele>99.224794</ele>
        <time>2017-06-12T21:27:56.650Z</time>
      </trkpt>
      <trkpt lat="43.804110" lon="5.083710">
        <ele>102.598264</ele>
        <time>2017-06-12T21:28:41.709Z</time>
      </trkpt>
      <trkpt lat="43.803998" lon="5.083788">
        <ele>103.110157</ele>
        <time>2017-06-12T21:28:46.509Z</time>
      </trkpt>
      <trkpt lat="43.803875" lon="5.083832">
        <ele>103.628918</ele>
        <time>2017-06-12T21:28:51.340Z</time>
      </trkpt>
      <trkpt lat="43.803726" lon="5.084097">
        <ele>104.618981</ele>
        <time>2017-06-12T21:29:00.967Z</time>
      </trkpt>
      <trkpt lat="43.803717" lon="5.084114">
        <ele>104.681118</ele>
        <time>2017-06-12T21:29:01.577Z</time>
      </trkpt>
      <trkpt lat="43.803660" lon="5.084254">
        <ele>105.154861</ele>
        <time>2017-06-12T21:29:06.179Z</time>
      </trkpt>
      <trkpt lat="43.803638" lon="5.084284">
        <ele>105.280913</ele>
        <time>2017-06-12T21:29:07.432Z</time>
      </trkpt>
      <trkpt lat="43.802982" lon="5.084799">
        <ele>108.359920</ele>
        <time>2017-06-12T21:29:39.343Z</time>
      </trkpt>
      <trkpt lat="43.802120" lon="5.085519">
        <ele>113.542163</ele>
        <time>2017-06-12T21:30:24.225Z</time>
      </trkpt>
      <trkpt lat="43.801964" lon="5.085771">
        <ele>114.790317</ele>
        <time>2017-06-12T21:30:34.804Z</time>
      </trkpt>
      <trkpt lat="43.801884" lon="5.086571">
        <ele>117.826670</ele>
        <time>2017-06-12T21:31:01.258Z</time>
      </trkpt>
      <trkpt lat="43.801819" lon="5.087776">
        <ele>121.580423</ele>
        <time>2017-06-12T21:31:37.455Z</time>
      </trkpt>
      <trkpt lat="43.801785" lon="5.087884">
        <ele>121.944316</ele>
        <time>2017-06-12T21:31:41.727Z</time>
      </trkpt>
      <trkpt lat="43.801693" lon="5.088071">
        <ele>122.643254</ele>
        <time>2017-06-12T21:31:47.516Z</time>
      </trkpt>
      <trkpt lat="43.801559" lon="5.088375">
        <ele>123.743368</ele>
        <time>2017-06-12T21:31:57.693Z</time>
      </trkpt>
      <trkpt lat="43.801199" lon="5.088917">
        <ele>125.868332</ele>
        <time>2017-06-12T21:32:16.816Z</time>
      </trkpt>
      <trkpt lat="43.800486" lon="5.089523">
        <ele>128.006907</ele>
        <time>2017-06-12T21:32:45.501Z</time>
      </trkpt>
      <trkpt lat="43.800129" lon="5.089961">
        <ele>129.226066</ele>
        <time>2017-06-12T21:33:00.542Z</time>
      </trkpt>
      <trkpt lat="43.799110" lon="5.091613">
        <ele>131.529130</ele>
        <time>2017-06-12T21:33:45.115Z</time>
      </trkpt>
      <trkpt lat="43.798871" lon="5.091937">
        <ele>131.896248</ele>
        <time>2017-06-12T21:33:53.793Z</time>
      </trkpt>
      <trkpt lat="43.798675" lon="5.092079">
        <ele>132.139084</ele>
        <time>2017-06-12T21:33:58.516Z</time>
      </trkpt>
      <trkpt lat="43.798401" lon="5.092203">
        <ele>132.183188</ele>
        <time>2017-06-12T21:34:04.888Z</time>
      </trkpt>
      <trkpt lat="43.797903" lon="5.092295">
        <ele>132.099282</ele>
        <time>2017-06-12T21:34:15.452Z</time>
      </trkpt>
      <trkpt lat="43.797600" lon="5.092276">
        <ele>132.048628</ele>
        <time>2017-06-12T21:34:21.653Z</time>
      </trkpt>
      <trkpt lat="43.797530" lon="5.092263">
        <ele>132.036833</ele>
        <time>2017-06-12T21:34:23.830Z</time>
      </trkpt>
      <trkpt lat="43.797315" lon="5.092223">
        <ele>132.000604</ele>
        <time>2017-06-12T21:34:27.931Z</time>
      </trkpt>
      <trkpt lat="43.796824" lon="5.091983">
        <ele>131.922377</ele>
        <time>2017-06-12T21:34:39.900Z</time>
      </trkpt>
      <trkpt lat="43.796738" lon="5.091957">
        <ele>131.932767</ele>
        <time>2017-06-12T21:34:41.372Z</time>
      </trkpt>
      <trkpt lat="43.796654" lon="5.091952">
        <ele>131.942690</ele>
        <time>2017-06-12T21:34:43.360Z</time>
      </trkpt>
      <trkpt lat="43.796508" lon="5.091995">
        <ele>131.960308</ele>
        <time>2017-06-12T21:34:47.217Z</time>
      </trkpt>
      <trkpt lat="43.796393" lon="5.092055">
        <ele>131.974813</ele>
        <time>2017-06-12T21:34:49.425Z</time>
      </trkpt>
      <trkpt lat="43.796166" lon="5.092188">
        <ele>132.003903</ele>
        <time>2017-06-12T21:34:55.667Z</time>
      </trkpt>
      <trkpt lat="43.795643" lon="5.092483">
        <ele>132.070555</ele>
        <time>2017-06-12T21:35:07.527Z</time>
      </trkpt>
      <trkpt lat="43.795212" lon="5.092983">
        <ele>132.214427</ele>
        <time>2017-06-12T21:35:21.471Z</time>
      </trkpt>
      <trkpt lat="43.794731" lon="5.093320">
        <ele>133.121733</ele>
        <time>2017-06-12T21:35:35.385Z</time>
      </trkpt>
      <trkpt lat="43.794383" lon="5.093622">
        <ele>133.812953</ele>
        <time>2017-06-12T21:35:46.441Z</time>
      </trkpt>
      <trkpt lat="43.794147" lon="5.093982">
        <ele>134.403835</ele>
        <time>2017-06-12T21:35:56.862Z</time>
      </trkpt>
      <trkpt lat="43.793718" lon="5.094463">
        <ele>135.584932</ele>
        <time>2017-06-12T21:36:15.136Z</time>
      </trkpt>
      <trkpt lat="43.793479" lon="5.094707">
        <ele>136.808098</ele>
        <time>2017-06-12T21:36:25.968Z</time>
      </trkpt>
      <trkpt lat="43.792883" lon="5.095149">
        <ele>139.593304</ele>
        <time>2017-06-12T21:36:53.269Z</time>
      </trkpt>
      <trkpt lat="43.792286" lon="5.095711">
        <ele>142.567065</ele>
        <time>2017-06-12T21:37:23.914Z</time>
      </trkpt>
      <trkpt lat="43.791855" lon="5.096288">
        <ele>143.295158</ele>
        <time>2017-06-12T21:37:45.687Z</time>
      </trkpt>
      <trkpt lat="43.791600" lon="5.096521">
        <ele>143.665532</ele>
        <time>2017-06-12T21:37:55.408Z</time>
      </trkpt>
      <trkpt lat="43.791470" lon="5.096640">
        <ele>143.854454</ele>
        <time>2017-06-12T21:37:59.039Z</time>
      </trkpt>
      <trkpt lat="43.790745" lon="5.097127">
        <ele>144.482245</ele>
        <time>2017-06-12T21:38:15.432Z</time>
      </trkpt>
      <trkpt lat="43.790554" lon="5.097306">
        <ele>143.565136</ele>
        <time>2017-06-12T21:38:19.255Z</time>
      </trkpt>
      <trkpt lat="43.789703" lon="5.098307">
        <ele>139.125198</ele>
        <time>2017-06-12T21:38:36.267Z</time>
      </trkpt>
      <trkpt lat="43.789592" lon="5.098478">
        <ele>138.464979</ele>
        <time>2017-06-12T21:38:38.717Z</time>
      </trkpt>
      <trkpt lat="43.789238" lon="5.099029">
        <ele>136.424295</ele>
        <time>2017-06-12T21:38:47.009Z</time>
      </trkpt>
      <trkpt lat="43.789009" lon="5.099296">
        <ele>135.307246</ele>
        <time>2017-06-12T21:38:51.646Z</time>
      </trkpt>
      <trkpt lat="43.788406" lon="5.099820">
        <ele>132.650721</ele>
        <time>2017-06-12T21:39:02.862Z</time>
      </trkpt>
      <trkpt lat="43.788334" lon="5.099967">
        <ele>132.172135</ele>
        <time>2017-06-12T21:39:05.011Z</time>
      </trkpt>
      <trkpt lat="43.788227" lon="5.100427">
        <ele>130.872130</ele>
        <time>2017-06-12T21:39:10.904Z</time>
      </trkpt>
      <trkpt lat="43.788067" lon="5.100779">
        <ele>129.914243</ele>
        <time>2017-06-12T21:39:16.006Z</time>
      </trkpt>
      <trkpt lat="43.787922" lon="5.100989">
        <ele>129.245063</ele>
        <time>2017-06-12T21:39:19.543Z</time>
      </trkpt>
      <trkpt lat="43.787575" lon="5.101289">
        <ele>127.940265</ele>
        <time>2017-06-12T21:39:26.388Z</time>
      </trkpt>
      <trkpt lat="43.787338" lon="5.101410">
        <ele>127.134540</ele>
        <time>2017-06-12T21:39:30.572Z</time>
      </trkpt>
      <trkpt lat="43.787094" lon="5.101464">
        <ele>126.346330</ele>
        <time>2017-06-12T21:39:34.594Z</time>
      </trkpt>
      <trkpt lat="43.786339" lon="5.101410">
        <ele>123.610880</ele>
        <time>2017-06-12T21:39:46.298Z</time>
      </trkpt>
      <trkpt lat="43.785709" lon="5.101493">
        <ele>121.052679</ele>
        <time>2017-06-12T21:39:56.158Z</time>
      </trkpt>
      <trkpt lat="43.785458" lon="5.101662">
        <ele>119.924520</ele>
        <time>2017-06-12T21:40:00.569Z</time>
      </trkpt>
      <trkpt lat="43.785401" lon="5.101632">
        <ele>119.678031</ele>
        <time>2017-06-12T21:40:01.478Z</time>
      </trkpt>
      <trkpt lat="43.785029" lon="5.101414">
        <ele>118.045218</ele>
        <time>2017-06-12T21:40:07.893Z</time>
      </trkpt>
      <trkpt lat="43.784559" lon="5.101280">
        <ele>116.062216</ele>
        <time>2017-06-12T21:40:15.463Z</time>
      </trkpt>
      <trkpt lat="43.783882" lon="5.101000">
        <ele>113.136350</ele>
        <time>2017-06-12T21:40:26.385Z</time>
      </trkpt>
      <trkpt lat="43.783554" lon="5.100562">
        <ele>111.249617</ele>
        <time>2017-06-12T21:40:33.734Z</time>
      </trkpt>
      <trkpt lat="43.783432" lon="5.100484">
        <ele>110.693174</ele>
        <time>2017-06-12T21:40:35.918Z</time>
      </trkpt>
      <trkpt lat="43.783321" lon="5.100461">
        <ele>110.171866</ele>
        <time>2017-06-12T21:40:37.547Z</time>
      </trkpt>
      <trkpt lat="43.782764" lon="5.100594">
        <ele>107.166131</ele>
        <time>2017-06-12T21:40:46.087Z</time>
      </trkpt>
      <trkpt lat="43.782570" lon="5.100681">
        <ele>106.081742</ele>
        <time>2017-06-12T21:40:49.077Z</time>
      </trkpt>
      <trkpt lat="43.782261" lon="5.100919">
        <ele>104.201549</ele>
        <time>2017-06-12T21:40:54.287Z</time>
      </trkpt>
      <trkpt lat="43.782112" lon="5.101137">
        <ele>103.049000</ele>
        <time>2017-06-12T21:40:57.568Z</time>
      </trkpt>
      <trkpt lat="43.782047" lon="5.101215">
        <ele>102.591655</ele>
        <time>2017-06-12T21:40:58.762Z</time>
      </trkpt>
      <trkpt lat="43.781924" lon="5.101248">
        <ele>101.925402</ele>
        <time>2017-06-12T21:41:00.626Z</time>
      </trkpt>
      <trkpt lat="43.781882" lon="5.101273">
        <ele>101.682300</ele>
        <time>2017-06-12T21:41:01.251Z</time>
      </trkpt>
      <trkpt lat="43.781628" lon="5.101632">
        <ele>100.078394</ele>
        <time>2017-06-12T21:41:06.674Z</time>
      </trkpt>
      <trkpt lat="43.781513" lon="5.101737">
        <ele>99.561015</ele>
        <time>2017-06-12T21:41:08.894Z</time>
      </trkpt>
      <trkpt lat="43.781427" lon="5.101775">
        <ele>99.221938</ele>
        <time>2017-06-12T21:41:10.201Z</time>
      </trkpt>
      <trkpt lat="43.780730" lon="5.101439">
        <ele>96.449794</ele>
        <time>2017-06-12T21:41:26.052Z</time>
      </trkpt>
      <trkpt lat="43.780709" lon="5.101411">
        <ele>96.340302</ele>
        <time>2017-06-12T21:41:26.943Z</time>
      </trkpt>
      <trkpt lat="43.780676" lon="5.101355">
        <ele>96.144267</ele>
        <time>2017-06-12T21:41:28.447Z</time>
      </trkpt>
      <trkpt lat="43.780645" lon="5.101344">
        <ele>96.024062</ele>
        <time>2017-06-12T21:41:29.292Z</time>
      </trkpt>
      <trkpt lat="43.780629" lon="5.101437">
        <ele>95.764786</ele>
        <time>2017-06-12T21:41:30.572Z</time>
      </trkpt>
      <trkpt lat="43.780231" lon="5.101282">
        <ele>94.211827</ele>
        <time>2017-06-12T21:41:38.219Z</time>
      </trkpt>
      <trkpt lat="43.780000" lon="5.101103">
        <ele>93.932514</ele>
        <time>2017-06-12T21:41:43.070Z</time>
      </trkpt>
      <trkpt lat="43.779695" lon="5.100948">
        <ele>93.693934</ele>
        <time>2017-06-12T21:41:49.538Z</time>
      </trkpt>
      <trkpt lat="43.778238" lon="5.100142">
        <ele>92.790719</ele>
        <time>2017-06-12T21:42:24.518Z</time>
      </trkpt>
      <trkpt lat="43.777001" lon="5.102458">
        <ele>92.959866</ele>
        <time>2017-06-12T21:43:13.522Z</time>
      </trkpt>
      <trkpt lat="43.776663" lon="5.103077">
        <ele>93.092998</ele>
        <time>2017-06-12T21:43:27.125Z</time>
      </trkpt>
      <trkpt lat="43.776589" lon="5.103427">
        <ele>93.155560</ele>
        <time>2017-06-12T21:43:33.562Z</time>
      </trkpt>
      <trkpt lat="43.775589" lon="5.105316">
        <ele>93.707282</ele>
        <time>2017-06-12T21:44:15.362Z</time>
      </trkpt>
      <trkpt lat="43.773256" lon="5.109687">
        <ele>94.892065</ele>
        <time>2017-06-12T21:45:50.991Z</time>
      </trkpt>
      <trkpt lat="43.773189" lon="5.109844">
        <ele>94.931102</ele>
        <time>2017-06-12T21:45:54.257Z</time>
      </trkpt>
      <trkpt lat="43.773118" lon="5.110039">
        <ele>94.981653</ele>
        <time>2017-06-12T21:45:58.081Z</time>
      </trkpt>
      <trkpt lat="43.773077" lon="5.109998">
        <ele>94.997947</ele>
        <time>2017-06-12T21:45:59.296Z</time>
      </trkpt>
      <trkpt lat="43.773000" lon="5.109920">
        <ele>95.028685</ele>
        <time>2017-06-12T21:46:01.636Z</time>
      </trkpt>
      <trkpt lat="43.772967" lon="5.109882">
        <ele>95.042514</ele>
        <time>2017-06-12T21:46:02.717Z</time>
      </trkpt>
      <trkpt lat="43.772834" lon="5.109768">
        <ele>95.092910</ele>
        <time>2017-06-12T21:46:06.495Z</time>
      </trkpt>
      <trkpt lat="43.772343" lon="5.110809">
        <ele>95.382196</ele>
        <time>2017-06-12T21:46:28.490Z</time>
      </trkpt>
      <trkpt lat="43.771089" lon="5.113204">
        <ele>96.091458</ele>
        <time>2017-06-12T21:47:20.960Z</time>
      </trkpt>
      <trkpt lat="43.767278" lon="5.120412">
        <ele>98.086643</ele>
        <time>2017-06-12T21:49:58.415Z</time>
      </trkpt>
      <trkpt lat="43.763396" lon="5.127661">
        <ele>100.562983</ele>
        <time>2017-06-12T21:52:39.836Z</time>
      </trkpt>
      <trkpt lat="43.761770" lon="5.130712">
        <ele>101.412564</ele>
        <time>2017-06-12T21:53:46.434Z</time>
      </trkpt>
      <trkpt lat="43.761030" lon="5.132223">
        <ele>101.880490</ele>
        <time>2017-06-12T21:54:19.080Z</time>
      </trkpt>
      <trkpt lat="43.760218" lon="5.134321">
        <ele>102.382537</ele>
        <time>2017-06-12T21:55:01.648Z</time>
      </trkpt>
      <trkpt lat="43.758224" lon="5.140675">
        <ele>103.241354</ele>
        <time>2017-06-12T21:56:59.787Z</time>
      </trkpt>
      <trkpt lat="43.755319" lon="5.149932">
        <ele>107.558829</ele>
        <time>2017-06-12T22:00:07.330Z</time>
      </trkpt>
      <trkpt lat="43.754950" lon="5.151403">
        <ele>108.152779</ele>
        <time>2017-06-12T22:00:35.050Z</time>
      </trkpt>
      <trkpt lat="43.754272" lon="5.153505">
        <ele>109.524058</ele>
        <time>2017-06-12T22:01:19.197Z</time>
      </trkpt>
      <trkpt lat="43.753112" lon="5.157030">
        <ele>111.644741</ele>
        <time>2017-06-12T22:02:36.835Z</time>
      </trkpt>
      <trkpt lat="43.753106" lon="5.157095">
        <ele>111.626584</ele>
        <time>2017-06-12T22:02:37.916Z</time>
      </trkpt>
      <trkpt lat="43.753111" lon="5.157149">
        <ele>111.611498</ele>
        <time>2017-06-12T22:02:38.798Z</time>
      </trkpt>
      <trkpt lat="43.753130" lon="5.157188">
        <ele>111.598463</ele>
        <time>2017-06-12T22:02:39.476Z</time>
      </trkpt>
      <trkpt lat="43.753182" lon="5.157225">
        <ele>111.576035</ele>
        <time>2017-06-12T22:02:40.684Z</time>
      </trkpt>
      <trkpt lat="43.753240" lon="5.157257">
        <ele>111.552084</ele>
        <time>2017-06-12T22:02:41.930Z</time>
      </trkpt>
      <trkpt lat="43.753297" lon="5.157295">
        <ele>111.527815</ele>
        <time>2017-06-12T22:02:43.214Z</time>
      </trkpt>
      <trkpt lat="43.752679" lon="5.159326">
        <ele>110.625863</ele>
        <time>2017-06-12T22:03:14.477Z</time>
      </trkpt>
      <trkpt lat="43.752087" lon="5.161364">
        <ele>109.644164</ele>
        <time>2017-06-12T22:03:48.449Z</time>
      </trkpt>
      <trkpt lat="43.751130" lon="5.164384">
        <ele>109.450580</ele>
        <time>2017-06-12T22:04:43.769Z</time>
      </trkpt>
      <trkpt lat="43.750879" lon="5.165212">
        <ele>109.456999</ele>
        <time>2017-06-12T22:04:58.708Z</time>
      </trkpt>
      <trkpt lat="43.749647" lon="5.169204">
        <ele>109.890705</ele>
        <time>2017-06-12T22:06:13.177Z</time>
      </trkpt>
      <trkpt lat="43.749603" lon="5.169503">
        <ele>109.930889</ele>
        <time>2017-06-12T22:06:18.395Z</time>
      </trkpt>
      <trkpt lat="43.749595" lon="5.169958">
        <ele>109.990826</ele>
        <time>2017-06-12T22:06:26.341Z</time>
      </trkpt>
      <trkpt lat="43.749305" lon="5.171686">
        <ele>110.522115</ele>
        <time>2017-06-12T22:06:58.401Z</time>
      </trkpt>
      <trkpt lat="43.749265" lon="5.171784">
        <ele>110.556003</ele>
        <time>2017-06-12T22:07:00.307Z</time>
      </trkpt>
      <trkpt lat="43.749175" lon="5.171896">
        <ele>110.606441</ele>
        <time>2017-06-12T22:07:03.575Z</time>
      </trkpt>
      <trkpt lat="43.748999" lon="5.172214">
        <ele>110.727049</ele>
        <time>2017-06-12T22:07:10.629Z</time>
      </trkpt>
      <trkpt lat="43.748710" lon="5.172712">
        <ele>110.884638</ele>
        <time>2017-06-12T22:07:22.292Z</time>
      </trkpt>
      <trkpt lat="43.748374" lon="5.173358">
        <ele>111.077203</ele>
        <time>2017-06-12T22:07:36.434Z</time>
      </trkpt>
      <trkpt lat="43.747453" lon="5.176320">
        <ele>111.855738</ele>
        <time>2017-06-12T22:08:32.781Z</time>
      </trkpt>
      <trkpt lat="43.747433" lon="5.176450">
        <ele>111.887794</ele>
        <time>2017-06-12T22:08:35.212Z</time>
      </trkpt>
      <trkpt lat="43.747433" lon="5.176700">
        <ele>111.952615</ele>
        <time>2017-06-12T22:08:39.793Z</time>
      </trkpt>
      <trkpt lat="43.747720" lon="5.177750">
        <ele>112.685297</ele>
        <time>2017-06-12T22:09:01.117Z</time>
      </trkpt>
      <trkpt lat="43.747700" lon="5.178140">
        <ele>112.940465</ele>
        <time>2017-06-12T22:09:08.950Z</time>
      </trkpt>
      <trkpt lat="43.747500" lon="5.179460">
        <ele>113.717702</ele>
        <time>2017-06-12T22:09:36.013Z</time>
      </trkpt>
      <trkpt lat="43.747337" lon="5.180452">
        <ele>114.108462</ele>
        <time>2017-06-12T22:09:55.662Z</time>
      </trkpt>
      <trkpt lat="43.747302" lon="5.180663">
        <ele>114.191617</ele>
        <time>2017-06-12T22:09:59.506Z</time>
      </trkpt>
      <trkpt lat="43.746248" lon="5.179862">
        <ele>114.214537</ele>
        <time>2017-06-12T22:10:25.919Z</time>
      </trkpt>
      <trkpt lat="43.746039" lon="5.179704">
        <ele>114.084584</ele>
        <time>2017-06-12T22:10:30.475Z</time>
      </trkpt>
      <trkpt lat="43.744992" lon="5.178929">
        <ele>113.483490</ele>
        <time>2017-06-12T22:10:54.042Z</time>
      </trkpt>
      <trkpt lat="43.744739" lon="5.178734">
        <ele>113.393634</ele>
        <time>2017-06-12T22:10:59.844Z</time>
      </trkpt>
      <trkpt lat="43.744715" lon="5.178716">
        <ele>113.385163</ele>
        <time>2017-06-12T22:11:00.400Z</time>
      </trkpt>
      <trkpt lat="43.743613" lon="5.177907">
        <ele>112.998092</ele>
        <time>2017-06-12T22:11:27.068Z</time>
      </trkpt>
      <trkpt lat="43.743013" lon="5.177494">
        <ele>113.056757</ele>
        <time>2017-06-12T22:11:42.870Z</time>
      </trkpt>
      <trkpt lat="43.742494" lon="5.177141">
        <ele>113.120247</ele>
        <time>2017-06-12T22:11:56.388Z</time>
      </trkpt>
      <trkpt lat="43.741790" lon="5.176692">
        <ele>113.062479</ele>
        <time>2017-06-12T22:12:13.619Z</time>
      </trkpt>
      <trkpt lat="43.741526" lon="5.176549">
        <ele>112.879728</ele>
        <time>2017-06-12T22:12:19.754Z</time>
      </trkpt>
      <trkpt lat="43.740675" lon="5.176069">
        <ele>112.287341</ele>
        <time>2017-06-12T22:12:37.883Z</time>
      </trkpt>
      <trkpt lat="43.740110" lon="5.175706">
        <ele>111.915932</ele>
        <time>2017-06-12T22:12:49.871Z</time>
      </trkpt>
      <trkpt lat="43.739593" lon="5.175383">
        <ele>111.629387</ele>
        <time>2017-06-12T22:13:00.708Z</time>
      </trkpt>
      <trkpt lat="43.738363" lon="5.174476">
        <ele>111.446184</ele>
        <time>2017-06-12T22:13:30.639Z</time>
      </trkpt>
      <trkpt lat="43.738195" lon="5.174345">
        <ele>111.614229</ele>
        <time>2017-06-12T22:13:35.965Z</time>
      </trkpt>
      <trkpt lat="43.737365" lon="5.173711">
        <ele>112.440408</ele>
        <time>2017-06-12T22:14:02.040Z</time>
      </trkpt>
      <trkpt lat="43.736887" lon="5.173344">
        <ele>112.889996</ele>
        <time>2017-06-12T22:14:16.719Z</time>
      </trkpt>
      <trkpt lat="43.736666" lon="5.173182">
        <ele>113.082867</ele>
        <time>2017-06-12T22:14:22.957Z</time>
      </trkpt>
      <trkpt lat="43.736338" lon="5.172961">
        <ele>113.364213</ele>
        <time>2017-06-12T22:14:32.163Z</time>
      </trkpt>
      <trkpt lat="43.736087" lon="5.172829">
        <ele>113.571295</ele>
        <time>2017-06-12T22:14:38.877Z</time>
      </trkpt>
      <trkpt lat="43.735281" lon="5.172485">
        <ele>114.178619</ele>
        <time>2017-06-12T22:14:59.742Z</time>
      </trkpt>
      <trkpt lat="43.734317" lon="5.171860">
        <ele>114.764377</ele>
        <time>2017-06-12T22:15:25.387Z</time>
      </trkpt>
      <trkpt lat="43.734209" lon="5.171759">
        <ele>114.836099</ele>
        <time>2017-06-12T22:15:28.973Z</time>
      </trkpt>
      <trkpt lat="43.734185" lon="5.171595">
        <ele>114.902626</ele>
        <time>2017-06-12T22:15:31.784Z</time>
      </trkpt>
      <trkpt lat="43.734125" lon="5.171500">
        <ele>114.952792</ele>
        <time>2017-06-12T22:15:33.942Z</time>
      </trkpt>
      <trkpt lat="43.734037" lon="5.171446">
        <ele>115.005760</ele>
        <time>2017-06-12T22:15:36.572Z</time>
      </trkpt>
      <trkpt lat="43.733937" lon="5.171455">
        <ele>115.060867</ele>
        <time>2017-06-12T22:15:39.075Z</time>
      </trkpt>
      <trkpt lat="43.733842" lon="5.171540">
        <ele>115.096080</ele>
        <time>2017-06-12T22:15:41.682Z</time>
      </trkpt>
      <trkpt lat="43.733796" lon="5.171657">
        <ele>115.126039</ele>
        <time>2017-06-12T22:15:44.030Z</time>
      </trkpt>
      <trkpt lat="43.733794" lon="5.171686">
        <ele>115.132592</ele>
        <time>2017-06-12T22:15:44.587Z</time>
      </trkpt>
      <trkpt lat="43.733745" lon="5.171783">
        <ele>115.159212</ele>
        <time>2017-06-12T22:15:46.804Z</time>
      </trkpt>
      <trkpt lat="43.733700" lon="5.171877">
        <ele>115.184574</ele>
        <time>2017-06-12T22:15:48.649Z</time>
      </trkpt>
      <trkpt lat="43.733600" lon="5.172140">
        <ele>115.251418</ele>
        <time>2017-06-12T22:15:53.723Z</time>
      </trkpt>
      <trkpt lat="43.733216" lon="5.173253">
        <ele>115.528828</ele>
        <time>2017-06-12T22:16:14.008Z</time>
      </trkpt>
      <trkpt lat="43.733115" lon="5.173485">
        <ele>115.589749</ele>
        <time>2017-06-12T22:16:18.635Z</time>
      </trkpt>
      <trkpt lat="43.732857" lon="5.174076">
        <ele>116.160199</ele>
        <time>2017-06-12T22:16:30.259Z</time>
      </trkpt>
      <trkpt lat="43.732629" lon="5.174598">
        <ele>116.755422</ele>
        <time>2017-06-12T22:16:41.197Z</time>
      </trkpt>
      <trkpt lat="43.732593" lon="5.174681">
        <ele>116.849889</ele>
        <time>2017-06-12T22:16:42.997Z</time>
      </trkpt>
      <trkpt lat="43.731991" lon="5.176132">
        <ele>118.788373</ele>
        <time>2017-06-12T22:17:20.748Z</time>
      </trkpt>
      <trkpt lat="43.731960" lon="5.176201">
        <ele>118.923661</ele>
        <time>2017-06-12T22:17:22.923Z</time>
      </trkpt>
      <trkpt lat="43.731675" lon="5.176825">
        <ele>120.152832</ele>
        <time>2017-06-12T22:17:39.853Z</time>
      </trkpt>
      <trkpt lat="43.731606" lon="5.176919">
        <ele>120.375945</ele>
        <time>2017-06-12T22:17:43.114Z</time>
      </trkpt>
      <trkpt lat="43.731557" lon="5.176891">
        <ele>120.498105</ele>
        <time>2017-06-12T22:17:44.720Z</time>
      </trkpt>
      <trkpt lat="43.731509" lon="5.176919">
        <ele>120.618138</ele>
        <time>2017-06-12T22:17:46.679Z</time>
      </trkpt>
      <trkpt lat="43.731434" lon="5.177077">
        <ele>120.932913</ele>
        <time>2017-06-12T22:17:50.639Z</time>
      </trkpt>
      <trkpt lat="43.731435" lon="5.177104">
        <ele>120.977930</ele>
        <time>2017-06-12T22:17:51.410Z</time>
      </trkpt>
      <trkpt lat="43.730941" lon="5.177238">
        <ele>122.137942</ele>
        <time>2017-06-12T22:18:07.468Z</time>
      </trkpt>
      <trkpt lat="43.730584" lon="5.177319">
        <ele>122.425370</ele>
        <time>2017-06-12T22:18:18.529Z</time>
      </trkpt>
      <trkpt lat="43.730447" lon="5.177350">
        <ele>122.520407</ele>
        <time>2017-06-12T22:18:22.448Z</time>
      </trkpt>
      <trkpt lat="43.729344" lon="5.177553">
        <ele>123.282181</ele>
        <time>2017-06-12T22:18:48.743Z</time>
      </trkpt>
      <trkpt lat="43.729182" lon="5.177582">
        <ele>123.394012</ele>
        <time>2017-06-12T22:18:52.113Z</time>
      </trkpt>
      <trkpt lat="43.728988" lon="5.177625">
        <ele>123.250935</ele>
        <time>2017-06-12T22:18:56.244Z</time>
      </trkpt>
      <trkpt lat="43.728768" lon="5.177704">
        <ele>122.985733</ele>
        <time>2017-06-12T22:19:00.766Z</time>
      </trkpt>
      <trkpt lat="43.728529" lon="5.177797">
        <ele>122.696047</ele>
        <time>2017-06-12T22:19:05.659Z</time>
      </trkpt>
      <trkpt lat="43.728152" lon="5.177991">
        <ele>122.226727</ele>
        <time>2017-06-12T22:19:13.186Z</time>
      </trkpt>
      <trkpt lat="43.728061" lon="5.178052">
        <ele>122.108744</ele>
        <time>2017-06-12T22:19:15.042Z</time>
      </trkpt>
      <trkpt lat="43.727350" lon="5.178598">
        <ele>121.113316</ele>
        <time>2017-06-12T22:19:29.683Z</time>
      </trkpt>
      <trkpt lat="43.727056" lon="5.178714">
        <ele>120.657111</ele>
        <time>2017-06-12T22:19:35.138Z</time>
      </trkpt>
      <trkpt lat="43.726831" lon="5.178742">
        <ele>120.320000</ele>
        <time>2017-06-12T22:19:39.153Z</time>
      </trkpt>
      <trkpt lat="43.726523" lon="5.178721">
        <ele>119.859831</ele>
        <time>2017-06-12T22:19:44.718Z</time>
      </trkpt>
      <trkpt lat="43.726331" lon="5.178717">
        <ele>119.573287</ele>
        <time>2017-06-12T22:19:48.275Z</time>
      </trkpt>
      <trkpt lat="43.726302" lon="5.178717">
        <ele>119.530012</ele>
        <time>2017-06-12T22:19:48.803Z</time>
      </trkpt>
      <trkpt lat="43.726204" lon="5.178721">
        <ele>119.383708</ele>
        <time>2017-06-12T22:19:50.581Z</time>
      </trkpt>
      <trkpt lat="43.725968" lon="5.178727">
        <ele>119.031478</ele>
        <time>2017-06-12T22:19:55.015Z</time>
      </trkpt>
      <trkpt lat="43.725837" lon="5.178735">
        <ele>118.835804</ele>
        <time>2017-06-12T22:19:57.451Z</time>
      </trkpt>
      <trkpt lat="43.725669" lon="5.178763">
        <ele>118.632917</ele>
        <time>2017-06-12T22:20:00.658Z</time>
      </trkpt>
      <trkpt lat="43.725250" lon="5.178936">
        <ele>118.521280</ele>
        <time>2017-06-12T22:20:09.264Z</time>
      </trkpt>
      <trkpt lat="43.724866" lon="5.179254">
        <ele>118.407022</ele>
        <time>2017-06-12T22:20:18.742Z</time>
      </trkpt>
      <trkpt lat="43.724756" lon="5.179364">
        <ele>118.372372</ele>
        <time>2017-06-12T22:20:21.538Z</time>
      </trkpt>
      <trkpt lat="43.724643" lon="5.179476">
        <ele>118.336883</ele>
        <time>2017-06-12T22:20:24.729Z</time>
      </trkpt>
      <trkpt lat="43.724047" lon="5.180038">
        <ele>118.278833</ele>
        <time>2017-06-12T22:20:41.499Z</time>
      </trkpt>
      <trkpt lat="43.723942" lon="5.180141">
        <ele>118.378798</ele>
        <time>2017-06-12T22:20:44.783Z</time>
      </trkpt>
      <trkpt lat="43.723169" lon="5.180898">
        <ele>119.114312</ele>
        <time>2017-06-12T22:21:08.743Z</time>
      </trkpt>
      <trkpt lat="43.723095" lon="5.180974">
        <ele>119.185887</ele>
        <time>2017-06-12T22:21:11.386Z</time>
      </trkpt>
      <trkpt lat="43.722653" lon="5.181422">
        <ele>119.615510</ele>
        <time>2017-06-12T22:21:25.783Z</time>
      </trkpt>
      <trkpt lat="43.722455" lon="5.181651">
        <ele>119.842771</ele>
        <time>2017-06-12T22:21:32.469Z</time>
      </trkpt>
      <trkpt lat="43.722104" lon="5.181968">
        <ele>120.211899</ele>
        <time>2017-06-12T22:21:43.278Z</time>
      </trkpt>
      <trkpt lat="43.721961" lon="5.182096">
        <ele>120.361887</ele>
        <time>2017-06-12T22:21:47.716Z</time>
      </trkpt>
      <trkpt lat="43.721556" lon="5.182432">
        <ele>120.777752</ele>
        <time>2017-06-12T22:21:59.417Z</time>
      </trkpt>
      <trkpt lat="43.721386" lon="5.182575">
        <ele>120.952959</ele>
        <time>2017-06-12T22:22:04.494Z</time>
      </trkpt>
      <trkpt lat="43.720170" lon="5.183560">
        <ele>122.566552</ele>
        <time>2017-06-12T22:22:41.703Z</time>
      </trkpt>
      <trkpt lat="43.720023" lon="5.183687">
        <ele>122.774453</ele>
        <time>2017-06-12T22:22:46.283Z</time>
      </trkpt>
      <trkpt lat="43.719842" lon="5.183869">
        <ele>123.042870</ele>
        <time>2017-06-12T22:22:52.569Z</time>
      </trkpt>
      <trkpt lat="43.718276" lon="5.185823">
        <ele>126.374653</ele>
        <time>2017-06-12T22:23:54.315Z</time>
      </trkpt>
      <trkpt lat="43.717973" lon="5.186162">
        <ele>126.770449</ele>
        <time>2017-06-12T22:24:04.733Z</time>
      </trkpt>
      <trkpt lat="43.717691" lon="5.186350">
        <ele>127.088402</ele>
        <time>2017-06-12T22:24:13.027Z</time>
      </trkpt>
      <trkpt lat="43.717620" lon="5.187800">
        <ele>128.159033</ele>
        <time>2017-06-12T22:24:40.619Z</time>
      </trkpt>
      <trkpt lat="43.717628" lon="5.189830">
        <ele>129.823085</ele>
        <time>2017-06-12T22:25:19.863Z</time>
      </trkpt>
      <trkpt lat="43.715890" lon="5.191177">
        <ele>133.616671</ele>
        <time>2017-06-12T22:26:22.744Z</time>
      </trkpt>
      <trkpt lat="43.715811" lon="5.191213">
        <ele>133.786423</ele>
        <time>2017-06-12T22:26:25.797Z</time>
      </trkpt>
      <trkpt lat="43.715685" lon="5.191267">
        <ele>134.048038</ele>
        <time>2017-06-12T22:26:29.742Z</time>
      </trkpt>
      <trkpt lat="43.715390" lon="5.191460">
        <ele>134.691174</ele>
        <time>2017-06-12T22:26:40.029Z</time>
      </trkpt>
      <trkpt lat="43.715041" lon="5.191738">
        <ele>135.484868</ele>
        <time>2017-06-12T22:26:52.445Z</time>
      </trkpt>
      <trkpt lat="43.714520" lon="5.192160">
        <ele>136.674726</ele>
        <time>2017-06-12T22:27:11.326Z</time>
      </trkpt>
      <trkpt lat="43.713970" lon="5.192680">
        <ele>138.001261</ele>
        <time>2017-06-12T22:27:31.210Z</time>
      </trkpt>
      <trkpt lat="43.712537" lon="5.194274">
        <ele>141.754229</ele>
        <time>2017-06-12T22:28:29.216Z</time>
      </trkpt>
      <trkpt lat="43.712260" lon="5.194503">
        <ele>142.448782</ele>
        <time>2017-06-12T22:28:39.473Z</time>
      </trkpt>
      <trkpt lat="43.711232" lon="5.194989">
        <ele>144.787073</ele>
        <time>2017-06-12T22:29:14.102Z</time>
      </trkpt>
      <trkpt lat="43.710904" lon="5.195088">
        <ele>145.457103</ele>
        <time>2017-06-12T22:29:24.914Z</time>
      </trkpt>
      <trkpt lat="43.710756" lon="5.195070">
        <ele>145.750408</ele>
        <time>2017-06-12T22:29:29.440Z</time>
      </trkpt>
      <trkpt lat="43.710611" lon="5.195038">
        <ele>146.040283</ele>
        <time>2017-06-12T22:29:34.301Z</time>
      </trkpt>
      <trkpt lat="43.710633" lon="5.194902">
        <ele>146.239156</ele>
        <time>2017-06-12T22:29:37.303Z</time>
      </trkpt>
      <trkpt lat="43.710611" lon="5.194747">
        <ele>146.464567</ele>
        <time>2017-06-12T22:29:40.592Z</time>
      </trkpt>
      <trkpt lat="43.710571" lon="5.194654">
        <ele>146.618996</ele>
        <time>2017-06-12T22:29:43.072Z</time>
      </trkpt>
      <trkpt lat="43.710492" lon="5.194564">
        <ele>146.821030</ele>
        <time>2017-06-12T22:29:46.267Z</time>
      </trkpt>
      <trkpt lat="43.710413" lon="5.194525">
        <ele>146.986622</ele>
        <time>2017-06-12T22:29:48.684Z</time>
      </trkpt>
      <trkpt lat="43.710328" lon="5.194521">
        <ele>147.154524</ele>
        <time>2017-06-12T22:29:51.051Z</time>
      </trkpt>
      <trkpt lat="43.710248" lon="5.194554">
        <ele>147.319329</ele>
        <time>2017-06-12T22:29:53.629Z</time>
      </trkpt>
      <trkpt lat="43.710146" lon="5.194668">
        <ele>147.578198</ele>
        <time>2017-06-12T22:29:57.605Z</time>
      </trkpt>
      <trkpt lat="43.710092" lon="5.194891">
        <ele>147.913806</ele>
        <time>2017-06-12T22:30:02.366Z</time>
      </trkpt>
      <trkpt lat="43.710117" lon="5.195049">
        <ele>148.144614</ele>
        <time>2017-06-12T22:30:05.980Z</time>
      </trkpt>
      <trkpt lat="43.710085" lon="5.195264">
        <ele>148.456757</ele>
        <time>2017-06-12T22:30:10.529Z</time>
      </trkpt>
      <trkpt lat="43.709672" lon="5.196293">
        <ele>150.078742</ele>
        <time>2017-06-12T22:30:35.875Z</time>
      </trkpt>
      <trkpt lat="43.709353" lon="5.197041">
        <ele>151.275591</ele>
        <time>2017-06-12T22:30:54.793Z</time>
      </trkpt>
      <trkpt lat="43.709099" lon="5.197544">
        <ele>152.158606</ele>
        <time>2017-06-12T22:31:07.898Z</time>
      </trkpt>
      <trkpt lat="43.708958" lon="5.197798">
        <ele>152.661977</ele>
        <time>2017-06-12T22:31:15.034Z</time>
      </trkpt>
      <trkpt lat="43.708381" lon="5.198736">
        <ele>154.597886</ele>
        <time>2017-06-12T22:31:42.926Z</time>
      </trkpt>
      <trkpt lat="43.707494" lon="5.200004">
        <ele>157.234749</ele>
        <time>2017-06-12T22:32:22.693Z</time>
      </trkpt>
      <trkpt lat="43.706434" lon="5.201897">
        <ele>160.521768</ele>
        <time>2017-06-12T22:33:13.869Z</time>
      </trkpt>
      <trkpt lat="43.706132" lon="5.202491">
        <ele>161.443616</ele>
        <time>2017-06-12T22:33:29.021Z</time>
      </trkpt>
      <trkpt lat="43.705252" lon="5.204667">
        <ele>164.630778</ele>
        <time>2017-06-12T22:34:21.946Z</time>
      </trkpt>
      <trkpt lat="43.705047" lon="5.205103">
        <ele>165.297927</ele>
        <time>2017-06-12T22:34:33.151Z</time>
      </trkpt>
      <trkpt lat="43.704869" lon="5.205407">
        <ele>165.778607</ele>
        <time>2017-06-12T22:34:41.486Z</time>
      </trkpt>
      <trkpt lat="43.704488" lon="5.205915">
        <ele>166.530114</ele>
        <time>2017-06-12T22:34:56.803Z</time>
      </trkpt>
      <trkpt lat="43.704053" lon="5.206303">
        <ele>167.265171</ele>
        <time>2017-06-12T22:35:11.376Z</time>
      </trkpt>
      <trkpt lat="43.703819" lon="5.206465">
        <ele>167.636783</ele>
        <time>2017-06-12T22:35:18.544Z</time>
      </trkpt>
      <trkpt lat="43.703412" lon="5.206649">
        <ele>168.244871</ele>
        <time>2017-06-12T22:35:30.018Z</time>
      </trkpt>
      <trkpt lat="43.702493" lon="5.206853">
        <ele>169.002962</ele>
        <time>2017-06-12T22:35:53.964Z</time>
      </trkpt>
      <trkpt lat="43.697226" lon="5.207264">
        <ele>172.761264</ele>
        <time>2017-06-12T22:38:05.217Z</time>
      </trkpt>
      <trkpt lat="43.696806" lon="5.207282">
        <ele>173.104584</ele>
        <time>2017-06-12T22:38:16.188Z</time>
      </trkpt>
      <trkpt lat="43.696705" lon="5.207281">
        <ele>173.187106</ele>
        <time>2017-06-12T22:38:18.818Z</time>
      </trkpt>
      <trkpt lat="43.695434" lon="5.207392">
        <ele>174.335119</ele>
        <time>2017-06-12T22:38:51.819Z</time>
      </trkpt>
      <trkpt lat="43.695100" lon="5.207394">
        <ele>174.652671</ele>
        <time>2017-06-12T22:39:00.626Z</time>
      </trkpt>
      <trkpt lat="43.694836" lon="5.207378">
        <ele>174.903908</ele>
        <time>2017-06-12T22:39:07.589Z</time>
      </trkpt>
      <trkpt lat="43.694786" lon="5.207378">
        <ele>174.951445</ele>
        <time>2017-06-12T22:39:08.873Z</time>
      </trkpt>
      <trkpt lat="43.694690" lon="5.207377">
        <ele>175.042720</ele>
        <time>2017-06-12T22:39:11.358Z</time>
      </trkpt>
      <trkpt lat="43.694489" lon="5.207381">
        <ele>175.233839</ele>
        <time>2017-06-12T22:39:16.461Z</time>
      </trkpt>
      <trkpt lat="43.694183" lon="5.207346">
        <ele>175.591984</ele>
        <time>2017-06-12T22:39:24.602Z</time>
      </trkpt>
      <trkpt lat="43.693664" lon="5.207256">
        <ele>176.223753</ele>
        <time>2017-06-12T22:39:37.894Z</time>
      </trkpt>
      <trkpt lat="43.693451" lon="5.207219">
        <ele>176.483041</ele>
        <time>2017-06-12T22:39:43.596Z</time>
      </trkpt>
      <trkpt lat="43.693001" lon="5.207102">
        <ele>177.036082</ele>
        <time>2017-06-12T22:39:55.809Z</time>
      </trkpt>
      <trkpt lat="43.692939" lon="5.207097">
        <ele>177.111095</ele>
        <time>2017-06-12T22:39:57.513Z</time>
      </trkpt>
      <trkpt lat="43.692799" lon="5.207084">
        <ele>177.280571</ele>
        <time>2017-06-12T22:40:01.727Z</time>
      </trkpt>
      <trkpt lat="43.692034" lon="5.207070">
        <ele>178.867787</ele>
        <time>2017-06-12T22:40:24.851Z</time>
      </trkpt>
      <trkpt lat="43.691479" lon="5.207018">
        <ele>180.132678</ele>
        <time>2017-06-12T22:40:42.476Z</time>
      </trkpt>
      <trkpt lat="43.691254" lon="5.206988">
        <ele>180.646672</ele>
        <time>2017-06-12T22:40:50.012Z</time>
      </trkpt>
      <trkpt lat="43.691119" lon="5.206970">
        <ele>180.955067</ele>
        <time>2017-06-12T22:40:54.120Z</time>
      </trkpt>
      <trkpt lat="43.691078" lon="5.206966">
        <ele>181.048528</ele>
        <time>2017-06-12T22:40:55.472Z</time>
      </trkpt>
      <trkpt lat="43.690640" lon="5.206888">
        <ele>182.272126</ele>
        <time>2017-06-12T22:41:09.736Z</time>
      </trkpt>
      <trkpt lat="43.690525" lon="5.206875">
        <ele>182.647476</ele>
        <time>2017-06-12T22:41:13.776Z</time>
      </trkpt>
      <trkpt lat="43.690205" lon="5.206842">
        <ele>183.691347</ele>
        <time>2017-06-12T22:41:24.636Z</time>
      </trkpt>
      <trkpt lat="43.689818" lon="5.206819">
        <ele>184.951445</ele>
        <time>2017-06-12T22:41:37.820Z</time>
      </trkpt>
      <trkpt lat="43.689757" lon="5.206811">
        <ele>185.150772</ele>
        <time>2017-06-12T22:41:40.371Z</time>
      </trkpt>
      <trkpt lat="43.689558" lon="5.206785">
        <ele>185.801014</ele>
        <time>2017-06-12T22:41:47.580Z</time>
      </trkpt>
      <trkpt lat="43.688879" lon="5.206655">
        <ele>188.318048</ele>
        <time>2017-06-12T22:42:13.763Z</time>
      </trkpt>
      <trkpt lat="43.688643" lon="5.206577">
        <ele>189.463401</ele>
        <time>2017-06-12T22:42:24.335Z</time>
      </trkpt>
      <trkpt lat="43.688446" lon="5.206398">
        <ele>190.576048</ele>
        <time>2017-06-12T22:42:33.214Z</time>
      </trkpt>
      <trkpt lat="43.688363" lon="5.206282">
        <ele>191.133057</ele>
        <time>2017-06-12T22:42:39.047Z</time>
      </trkpt>
      <trkpt lat="43.688327" lon="5.206202">
        <ele>191.454675</ele>
        <time>2017-06-12T22:42:41.474Z</time>
      </trkpt>
      <trkpt lat="43.688274" lon="5.206145">
        <ele>191.771596</ele>
        <time>2017-06-12T22:42:43.721Z</time>
      </trkpt>
      <trkpt lat="43.688208" lon="5.206118">
        <ele>192.096478</ele>
        <time>2017-06-12T22:42:46.517Z</time>
      </trkpt>
      <trkpt lat="43.688069" lon="5.205739">
        <ele>193.546983</ele>
        <time>2017-06-12T22:42:59.648Z</time>
      </trkpt>
      <trkpt lat="43.688043" lon="5.205764">
        <ele>193.696460</ele>
        <time>2017-06-12T22:43:00.983Z</time>
      </trkpt>
      <trkpt lat="43.687932" lon="5.205854">
        <ele>194.303824</ele>
        <time>2017-06-12T22:43:07.682Z</time>
      </trkpt>
      <trkpt lat="43.687598" lon="5.206279">
        <ele>196.584044</ele>
        <time>2017-06-12T22:43:27.497Z</time>
      </trkpt>
      <trkpt lat="43.687151" lon="5.206481">
        <ele>199.348194</ele>
        <time>2017-06-12T22:43:48.100Z</time>
      </trkpt>
      <trkpt lat="43.686887" lon="5.206488">
        <ele>200.900246</ele>
        <time>2017-06-12T22:44:00.102Z</time>
      </trkpt>
      <trkpt lat="43.685429" lon="5.206342">
        <ele>209.985747</ele>
        <time>2017-06-12T22:45:11.131Z</time>
      </trkpt>
      <trkpt lat="43.685107" lon="5.206352">
        <ele>212.186370</ele>
        <time>2017-06-12T22:45:27.054Z</time>
      </trkpt>
      <trkpt lat="43.685022" lon="5.206352">
        <ele>212.767134</ele>
        <time>2017-06-12T22:45:32.373Z</time>
      </trkpt>
      <trkpt lat="43.684681" lon="5.206588">
        <ele>215.372525</ele>
        <time>2017-06-12T22:45:52.007Z</time>
      </trkpt>
      <trkpt lat="43.684525" lon="5.206866">
        <ele>217.111150</ele>
        <time>2017-06-12T22:46:04.260Z</time>
      </trkpt>
      <trkpt lat="43.684409" lon="5.207165">
        <ele>218.787642</ele>
        <time>2017-06-12T22:46:17.490Z</time>
      </trkpt>
      <trkpt lat="43.683816" lon="5.209412">
        <ele>230.597944</ele>
        <time>2017-06-12T22:47:45.226Z</time>
      </trkpt>
      <trkpt lat="43.683651" lon="5.209686">
        <ele>232.124388</ele>
        <time>2017-06-12T22:47:57.969Z</time>
      </trkpt>
      <trkpt lat="43.683435" lon="5.210186">
        <ele>234.494746</ele>
        <time>2017-06-12T22:48:18.489Z</time>
      </trkpt>
      <trkpt lat="43.683427" lon="5.210272">
        <ele>234.847636</ele>
        <time>2017-06-12T22:48:21.365Z</time>
      </trkpt>
      <trkpt lat="43.683468" lon="5.210403">
        <ele>235.428575</ele>
        <time>2017-06-12T22:48:26.434Z</time>
      </trkpt>
      <trkpt lat="43.683314" lon="5.210649">
        <ele>236.752775</ele>
        <time>2017-06-12T22:48:37.452Z</time>
      </trkpt>
      <trkpt lat="43.681383" lon="5.213948">
        <ele>250.977504</ele>
        <time>2017-06-12T22:50:42.558Z</time>
      </trkpt>
      <trkpt lat="43.680980" lon="5.214641">
        <ele>253.085580</ele>
        <time>2017-06-12T22:51:03.881Z</time>
      </trkpt>
      <trkpt lat="43.679483" lon="5.217180">
        <ele>259.981715</ele>
        <time>2017-06-12T22:52:22.248Z</time>
      </trkpt>
      <trkpt lat="43.679219" lon="5.217619">
        <ele>260.929168</ele>
        <time>2017-06-12T22:52:36.820Z</time>
      </trkpt>
      <trkpt lat="43.679048" lon="5.217908">
        <ele>261.510382</ele>
        <time>2017-06-12T22:52:46.100Z</time>
      </trkpt>
      <trkpt lat="43.678667" lon="5.218559">
        <ele>262.813927</ele>
        <time>2017-06-12T22:53:06.006Z</time>
      </trkpt>
      <trkpt lat="43.678023" lon="5.219699">
        <ele>263.404480</ele>
        <time>2017-06-12T22:53:33.935Z</time>
      </trkpt>
      <trkpt lat="43.677655" lon="5.220536">
        <ele>262.258536</ele>
        <time>2017-06-12T22:53:47.029Z</time>
      </trkpt>
      <trkpt lat="43.677404" lon="5.221410">
        <ele>261.067073</ele>
        <time>2017-06-12T22:53:57.978Z</time>
      </trkpt>
      <trkpt lat="43.677209" lon="5.222476">
        <ele>257.402592</ele>
        <time>2017-06-12T22:54:10.154Z</time>
      </trkpt>
      <trkpt lat="43.677097" lon="5.223141">
        <ele>255.127075</ele>
        <time>2017-06-12T22:54:17.628Z</time>
      </trkpt>
      <trkpt lat="43.676940" lon="5.224163">
        <ele>251.891573</ele>
        <time>2017-06-12T22:54:29.113Z</time>
      </trkpt>
      <trkpt lat="43.676698" lon="5.225872">
        <ele>247.210128</ele>
        <time>2017-06-12T22:54:49.047Z</time>
      </trkpt>
      <trkpt lat="43.676653" lon="5.226269">
        <ele>246.166721</ele>
        <time>2017-06-12T22:54:54.034Z</time>
      </trkpt>
      <trkpt lat="43.676543" lon="5.226943">
        <ele>244.964729</ele>
        <time>2017-06-12T22:55:03.014Z</time>
      </trkpt>
      <trkpt lat="43.676517" lon="5.227105">
        <ele>244.676053</ele>
        <time>2017-06-12T22:55:05.181Z</time>
      </trkpt>
      <trkpt lat="43.676353" lon="5.227938">
        <ele>243.174206</ele>
        <time>2017-06-12T22:55:16.013Z</time>
      </trkpt>
      <trkpt lat="43.676167" lon="5.228563">
        <ele>241.998484</ele>
        <time>2017-06-12T22:55:24.473Z</time>
      </trkpt>
      <trkpt lat="43.675666" lon="5.230026">
        <ele>237.626120</ele>
        <time>2017-06-12T22:55:43.318Z</time>
      </trkpt>
      <trkpt lat="43.675318" lon="5.231125">
        <ele>234.395217</ele>
        <time>2017-06-12T22:55:56.520Z</time>
      </trkpt>
      <trkpt lat="43.674689" lon="5.232897">
        <ele>229.339273</ele>
        <time>2017-06-12T22:56:19.361Z</time>
      </trkpt>
      <trkpt lat="43.674542" lon="5.233313">
        <ele>228.547074</ele>
        <time>2017-06-12T22:56:25.180Z</time>
      </trkpt>
      <trkpt lat="43.674345" lon="5.233908">
        <ele>227.992879</ele>
        <time>2017-06-12T22:56:33.720Z</time>
      </trkpt>
      <trkpt lat="43.674109" lon="5.234623">
        <ele>227.327269</ele>
        <time>2017-06-12T22:56:44.736Z</time>
      </trkpt>
      <trkpt lat="43.673990" lon="5.234983">
        <ele>226.992050</ele>
        <time>2017-06-12T22:56:50.568Z</time>
      </trkpt>
      <trkpt lat="43.672695" lon="5.238869">
        <ele>226.671081</ele>
        <time>2017-06-12T22:58:00.284Z</time>
      </trkpt>
      <trkpt lat="43.672631" lon="5.239096">
        <ele>226.671089</ele>
        <time>2017-06-12T22:58:04.135Z</time>
      </trkpt>
      <trkpt lat="43.672433" lon="5.239638">
        <ele>226.671108</ele>
        <time>2017-06-12T22:58:13.806Z</time>
      </trkpt>
      <trkpt lat="43.672312" lon="5.239902">
        <ele>226.676605</ele>
        <time>2017-06-12T22:58:18.765Z</time>
      </trkpt>
      <trkpt lat="43.672266" lon="5.240003">
        <ele>226.690400</ele>
        <time>2017-06-12T22:58:20.657Z</time>
      </trkpt>
      <trkpt lat="43.671914" lon="5.240632">
        <ele>226.782315</ele>
        <time>2017-06-12T22:58:33.334Z</time>
      </trkpt>
      <trkpt lat="43.671238" lon="5.241843">
        <ele>226.960073</ele>
        <time>2017-06-12T22:58:59.030Z</time>
      </trkpt>
      <trkpt lat="43.670462" lon="5.243226">
        <ele>227.490217</ele>
        <time>2017-06-12T22:59:30.123Z</time>
      </trkpt>
      <trkpt lat="43.670209" lon="5.243660">
        <ele>227.659046</ele>
        <time>2017-06-12T22:59:39.713Z</time>
      </trkpt>
      <trkpt lat="43.670167" lon="5.243733">
        <ele>227.687298</ele>
        <time>2017-06-12T22:59:41.323Z</time>
      </trkpt>
      <trkpt lat="43.670100" lon="5.243909">
        <ele>227.684557</ele>
        <time>2017-06-12T22:59:44.609Z</time>
      </trkpt>
      <trkpt lat="43.669405" lon="5.245137">
        <ele>227.327272</ele>
        <time>2017-06-12T23:00:09.646Z</time>
      </trkpt>
      <trkpt lat="43.668614" lon="5.246532">
        <ele>226.016624</ele>
        <time>2017-06-12T23:00:34.286Z</time>
      </trkpt>
      <trkpt lat="43.668485" lon="5.246755">
        <ele>225.683150</ele>
        <time>2017-06-12T23:00:38.200Z</time>
      </trkpt>
      <trkpt lat="43.668243" lon="5.247173">
        <ele>225.057873</ele>
        <time>2017-06-12T23:00:45.169Z</time>
      </trkpt>
      <trkpt lat="43.668226" lon="5.247202">
        <ele>225.014279</ele>
        <time>2017-06-12T23:00:45.564Z</time>
      </trkpt>
      <trkpt lat="43.667797" lon="5.247941">
        <ele>223.714965</ele>
        <time>2017-06-12T23:00:57.440Z</time>
      </trkpt>
      <trkpt lat="43.667716" lon="5.248081">
        <ele>223.383441</ele>
        <time>2017-06-12T23:00:59.600Z</time>
      </trkpt>
      <trkpt lat="43.667564" lon="5.248344">
        <ele>222.760911</ele>
        <time>2017-06-12T23:01:03.729Z</time>
      </trkpt>
      <trkpt lat="43.667509" lon="5.248443">
        <ele>222.530070</ele>
        <time>2017-06-12T23:01:05.226Z</time>
      </trkpt>
      <trkpt lat="43.667212" lon="5.248974">
        <ele>221.288796</ele>
        <time>2017-06-12T23:01:13.339Z</time>
      </trkpt>
      <trkpt lat="43.666899" lon="5.249478">
        <ele>220.060385</ele>
        <time>2017-06-12T23:01:21.446Z</time>
      </trkpt>
      <trkpt lat="43.666541" lon="5.249869">
        <ele>218.869533</ele>
        <time>2017-06-12T23:01:29.248Z</time>
      </trkpt>
      <trkpt lat="43.666179" lon="5.250144">
        <ele>217.778919</ele>
        <time>2017-06-12T23:01:36.385Z</time>
      </trkpt>
      <trkpt lat="43.665970" lon="5.250252">
        <ele>217.189793</ele>
        <time>2017-06-12T23:01:40.141Z</time>
      </trkpt>
      <trkpt lat="43.665744" lon="5.250367">
        <ele>216.553932</ele>
        <time>2017-06-12T23:01:44.223Z</time>
      </trkpt>
      <trkpt lat="43.665531" lon="5.250470">
        <ele>215.958123</ele>
        <time>2017-06-12T23:01:47.995Z</time>
      </trkpt>
      <trkpt lat="43.665029" lon="5.250715">
        <ele>214.451799</ele>
        <time>2017-06-12T23:01:56.764Z</time>
      </trkpt>
      <trkpt lat="43.664813" lon="5.250815">
        <ele>213.671259</ele>
        <time>2017-06-12T23:02:00.524Z</time>
      </trkpt>
      <trkpt lat="43.664287" lon="5.251070">
        <ele>211.761268</ele>
        <time>2017-06-12T23:02:09.509Z</time>
      </trkpt>
      <trkpt lat="43.663733" lon="5.251349">
        <ele>209.740903</ele>
        <time>2017-06-12T23:02:18.965Z</time>
      </trkpt>
      <trkpt lat="43.662198" lon="5.252214">
        <ele>204.004698</ele>
        <time>2017-06-12T23:02:45.089Z</time>
      </trkpt>
      <trkpt lat="43.661652" lon="5.252499">
        <ele>202.252372</ele>
        <time>2017-06-12T23:02:54.881Z</time>
      </trkpt>
      <trkpt lat="43.661465" lon="5.252598">
        <ele>201.928235</ele>
        <time>2017-06-12T23:02:58.298Z</time>
      </trkpt>
      <trkpt lat="43.660461" lon="5.253203">
        <ele>200.155351</ele>
        <time>2017-06-12T23:03:18.251Z</time>
      </trkpt>
      <trkpt lat="43.660233" lon="5.253383">
        <ele>199.730335</ele>
        <time>2017-06-12T23:03:23.439Z</time>
      </trkpt>
      <trkpt lat="43.660153" lon="5.253464">
        <ele>199.576458</ele>
        <time>2017-06-12T23:03:25.399Z</time>
      </trkpt>
      <trkpt lat="43.660027" lon="5.253393">
        <ele>199.521521</ele>
        <time>2017-06-12T23:03:28.238Z</time>
      </trkpt>
      <trkpt lat="43.659836" lon="5.253435">
        <ele>199.443437</ele>
        <time>2017-06-12T23:03:32.319Z</time>
      </trkpt>
      <trkpt lat="43.659678" lon="5.253512">
        <ele>199.375797</ele>
        <time>2017-06-12T23:03:35.822Z</time>
      </trkpt>
      <trkpt lat="43.658494" lon="5.254105">
        <ele>198.867354</ele>
        <time>2017-06-12T23:04:02.527Z</time>
      </trkpt>
      <trkpt lat="43.656276" lon="5.255226">
        <ele>197.751142</ele>
        <time>2017-06-12T23:04:52.117Z</time>
      </trkpt>
      <trkpt lat="43.655954" lon="5.255493">
        <ele>197.421796</ele>
        <time>2017-06-12T23:04:59.288Z</time>
      </trkpt>
      <trkpt lat="43.655692" lon="5.255885">
        <ele>197.083145</ele>
        <time>2017-06-12T23:05:06.424Z</time>
      </trkpt>
      <trkpt lat="43.655543" lon="5.256181">
        <ele>196.854320</ele>
        <time>2017-06-12T23:05:11.319Z</time>
      </trkpt>
      <trkpt lat="43.655389" lon="5.256777">
        <ele>196.746167</ele>
        <time>2017-06-12T23:05:20.174Z</time>
      </trkpt>
      <trkpt lat="43.655329" lon="5.257288">
        <ele>196.946390</ele>
        <time>2017-06-12T23:05:27.854Z</time>
      </trkpt>
      <trkpt lat="43.655276" lon="5.257875">
        <ele>197.175183</ele>
        <time>2017-06-12T23:05:37.903Z</time>
      </trkpt>
      <trkpt lat="43.655267" lon="5.258046">
        <ele>197.241495</ele>
        <time>2017-06-12T23:05:41.238Z</time>
      </trkpt>
      <trkpt lat="43.655260" lon="5.258171">
        <ele>197.289986</ele>
        <time>2017-06-12T23:05:43.828Z</time>
      </trkpt>
      <trkpt lat="43.655213" lon="5.259243">
        <ele>197.906964</ele>
        <time>2017-06-12T23:06:06.926Z</time>
      </trkpt>
      <trkpt lat="43.655194" lon="5.259520">
        <ele>198.213963</ele>
        <time>2017-06-12T23:06:13.056Z</time>
      </trkpt>
      <trkpt lat="43.655180" lon="5.260412">
        <ele>199.198385</ele>
        <time>2017-06-12T23:06:31.866Z</time>
      </trkpt>
      <trkpt lat="43.655106" lon="5.260483">
        <ele>199.335760</ele>
        <time>2017-06-12T23:06:34.347Z</time>
      </trkpt>
      <trkpt lat="43.655077" lon="5.260515">
        <ele>199.392351</ele>
        <time>2017-06-12T23:06:35.477Z</time>
      </trkpt>
      <trkpt lat="43.654401" lon="5.260278">
        <ele>200.463378</ele>
        <time>2017-06-12T23:06:53.747Z</time>
      </trkpt>
      <trkpt lat="43.654156" lon="5.260190">
        <ele>200.874203</ele>
        <time>2017-06-12T23:07:01.046Z</time>
      </trkpt>
      <trkpt lat="43.653910" lon="5.260118">
        <ele>201.282296</ele>
        <time>2017-06-12T23:07:07.941Z</time>
      </trkpt>
      <trkpt lat="43.653695" lon="5.260217">
        <ele>201.650081</ele>
        <time>2017-06-12T23:07:13.520Z</time>
      </trkpt>
      <trkpt lat="43.653518" lon="5.260328">
        <ele>201.965526</ele>
        <time>2017-06-12T23:07:19.131Z</time>
      </trkpt>
      <trkpt lat="43.653104" lon="5.260581">
        <ele>202.700167</ele>
        <time>2017-06-12T23:07:31.106Z</time>
      </trkpt>
      <trkpt lat="43.653032" lon="5.260595">
        <ele>202.818168</ele>
        <time>2017-06-12T23:07:32.991Z</time>
      </trkpt>
      <trkpt lat="43.652899" lon="5.260777">
        <ele>203.121918</ele>
        <time>2017-06-12T23:07:39.874Z</time>
      </trkpt>
      <trkpt lat="43.652868" lon="5.261060">
        <ele>203.767080</ele>
        <time>2017-06-12T23:07:46.390Z</time>
      </trkpt>
      <trkpt lat="43.653012" lon="5.261766">
        <ele>205.963047</ele>
        <time>2017-06-12T23:08:07.411Z</time>
      </trkpt>
      <trkpt lat="43.652799" lon="5.261758">
        <ele>206.844698</ele>
        <time>2017-06-12T23:08:15.608Z</time>
      </trkpt>
      <trkpt lat="43.652614" lon="5.262584">
        <ele>209.433313</ele>
        <time>2017-06-12T23:08:41.634Z</time>
      </trkpt>
      <trkpt lat="43.652386" lon="5.262494">
        <ele>210.414427</ele>
        <time>2017-06-12T23:08:51.600Z</time>
      </trkpt>
      <trkpt lat="43.652237" lon="5.262449">
        <ele>211.182962</ele>
        <time>2017-06-12T23:08:58.214Z</time>
      </trkpt>
      <trkpt lat="43.652239" lon="5.262506">
        <ele>211.421941</ele>
        <time>2017-06-12T23:09:00.163Z</time>
      </trkpt>
      <trkpt lat="43.652278" lon="5.262762">
        <ele>212.517495</ele>
        <time>2017-06-12T23:09:08.635Z</time>
      </trkpt>
      <trkpt lat="43.652281" lon="5.262849">
        <ele>212.882238</ele>
        <time>2017-06-12T23:09:11.582Z</time>
      </trkpt>
      <trkpt lat="43.652372" lon="5.263003">
        <ele>213.714884</ele>
        <time>2017-06-12T23:09:18.039Z</time>
      </trkpt>
      <trkpt lat="43.652553" lon="5.263214">
        <ele>215.085351</ele>
        <time>2017-06-12T23:09:29.357Z</time>
      </trkpt>
      <trkpt lat="43.652416" lon="5.263380">
        <ele>216.139849</ele>
        <time>2017-06-12T23:09:38.287Z</time>
      </trkpt>
      <trkpt lat="43.652142" lon="5.263684">
        <ele>218.173463</ele>
        <time>2017-06-12T23:09:54.791Z</time>
      </trkpt>
      <trkpt lat="43.652033" lon="5.263729">
        <ele>218.831873</ele>
        <time>2017-06-12T23:10:00.009Z</time>
      </trkpt>
      <trkpt lat="43.651877" lon="5.263791">
        <ele>219.771353</ele>
        <time>2017-06-12T23:10:07.524Z</time>
      </trkpt>
      <trkpt lat="43.651017" lon="5.264086">
        <ele>223.828888</ele>
        <time>2017-06-12T23:10:47.123Z</time>
      </trkpt>
      <trkpt lat="43.649364" lon="5.264664">
        <ele>228.923429</ele>
        <time>2017-06-12T23:11:47.706Z</time>
      </trkpt>
      <trkpt lat="43.649197" lon="5.264691">
        <ele>229.026772</ele>
        <time>2017-06-12T23:11:51.845Z</time>
      </trkpt>
      <trkpt lat="43.649080" lon="5.264670">
        <ele>229.099288</ele>
        <time>2017-06-12T23:11:54.185Z</time>
      </trkpt>
      <trkpt lat="43.649012" lon="5.264642">
        <ele>229.142899</ele>
        <time>2017-06-12T23:11:55.816Z</time>
      </trkpt>
      <trkpt lat="43.648996" lon="5.264613">
        <ele>229.159118</ele>
        <time>2017-06-12T23:11:56.398Z</time>
      </trkpt>
      <trkpt lat="43.648931" lon="5.264554">
        <ele>229.206915</ele>
        <time>2017-06-12T23:11:58.216Z</time>
      </trkpt>
      <trkpt lat="43.648854" lon="5.264547">
        <ele>229.254344</ele>
        <time>2017-06-12T23:11:59.884Z</time>
      </trkpt>
      <trkpt lat="43.648834" lon="5.264554">
        <ele>229.267025</ele>
        <time>2017-06-12T23:12:00.237Z</time>
      </trkpt>
      <trkpt lat="43.648644" lon="5.264434">
        <ele>229.395422</ele>
        <time>2017-06-12T23:12:04.500Z</time>
      </trkpt>
      <trkpt lat="43.648636" lon="5.264378">
        <ele>229.420808</ele>
        <time>2017-06-12T23:12:05.407Z</time>
      </trkpt>
      <trkpt lat="43.648621" lon="5.264278">
        <ele>229.466227</ele>
        <time>2017-06-12T23:12:07.011Z</time>
      </trkpt>
      <trkpt lat="43.648556" lon="5.264277">
        <ele>229.506181</ele>
        <time>2017-06-12T23:12:08.160Z</time>
      </trkpt>
      <trkpt lat="43.648359" lon="5.264158">
        <ele>229.638325</ele>
        <time>2017-06-12T23:12:12.585Z</time>
      </trkpt>
      <trkpt lat="43.648165" lon="5.264174">
        <ele>229.425283</ele>
        <time>2017-06-12T23:12:16.246Z</time>
      </trkpt>
      <trkpt lat="43.647174" lon="5.264476">
        <ele>227.235438</ele>
        <time>2017-06-12T23:12:34.724Z</time>
      </trkpt>
      <trkpt lat="43.646412" lon="5.264751">
        <ele>225.428515</ele>
        <time>2017-06-12T23:12:48.779Z</time>
      </trkpt>
      <trkpt lat="43.645375" lon="5.264271">
        <ele>222.118052</ele>
        <time>2017-06-12T23:13:07.654Z</time>
      </trkpt>
      <trkpt lat="43.644347" lon="5.263857">
        <ele>218.647410</ele>
        <time>2017-06-12T23:13:25.846Z</time>
      </trkpt>
      <trkpt lat="43.644286" lon="5.263712">
        <ele>218.223128</ele>
        <time>2017-06-12T23:13:27.844Z</time>
      </trkpt>
      <trkpt lat="43.644329" lon="5.262856">
        <ele>216.052521</ele>
        <time>2017-06-12T23:13:41.685Z</time>
      </trkpt>
      <trkpt lat="43.644225" lon="5.262889">
        <ele>215.679501</ele>
        <time>2017-06-12T23:13:43.329Z</time>
      </trkpt>
      <trkpt lat="43.643897" lon="5.262979">
        <ele>214.510506</ele>
        <time>2017-06-12T23:13:48.680Z</time>
      </trkpt>
      <trkpt lat="43.643749" lon="5.263009">
        <ele>213.970743</ele>
        <time>2017-06-12T23:13:51.121Z</time>
      </trkpt>
      <trkpt lat="43.643374" lon="5.263017">
        <ele>212.393337</ele>
        <time>2017-06-12T23:13:57.091Z</time>
      </trkpt>
      <trkpt lat="43.642788" lon="5.262995">
        <ele>209.927761</ele>
        <time>2017-06-12T23:14:06.385Z</time>
      </trkpt>
      <trkpt lat="43.642246" lon="5.263051">
        <ele>207.641792</ele>
        <time>2017-06-12T23:14:14.771Z</time>
      </trkpt>
      <trkpt lat="43.641671" lon="5.263219">
        <ele>204.834207</ele>
        <time>2017-06-12T23:14:23.564Z</time>
      </trkpt>
      <trkpt lat="43.640665" lon="5.263174">
        <ele>199.536814</ele>
        <time>2017-06-12T23:14:38.418Z</time>
      </trkpt>
      <trkpt lat="43.639543" lon="5.263124">
        <ele>195.388969</ele>
        <time>2017-06-12T23:14:55.509Z</time>
      </trkpt>
      <trkpt lat="43.639251" lon="5.263109">
        <ele>194.644843</ele>
        <time>2017-06-12T23:15:00.430Z</time>
      </trkpt>
      <trkpt lat="43.638316" lon="5.262937">
        <ele>192.418158</ele>
        <time>2017-06-12T23:15:18.553Z</time>
      </trkpt>
      <trkpt lat="43.638035" lon="5.262938">
        <ele>192.283471</ele>
        <time>2017-06-12T23:15:24.989Z</time>
      </trkpt>
      <trkpt lat="43.637775" lon="5.263008">
        <ele>192.156506</ele>
        <time>2017-06-12T23:15:31.443Z</time>
      </trkpt>
      <trkpt lat="43.637661" lon="5.263068">
        <ele>192.098034</ele>
        <time>2017-06-12T23:15:34.220Z</time>
      </trkpt>
      <trkpt lat="43.637613" lon="5.263093">
        <ele>192.073447</ele>
        <time>2017-06-12T23:15:35.179Z</time>
      </trkpt>
      <trkpt lat="43.637409" lon="5.263179">
        <ele>191.971218</ele>
        <time>2017-06-12T23:15:39.816Z</time>
      </trkpt>
      <trkpt lat="43.637058" lon="5.263261">
        <ele>191.800591</ele>
        <time>2017-06-12T23:15:47.233Z</time>
      </trkpt>
      <trkpt lat="43.636612" lon="5.263162">
        <ele>191.549119</ele>
        <time>2017-06-12T23:15:56.553Z</time>
      </trkpt>
      <trkpt lat="43.636282" lon="5.263039">
        <ele>190.932147</ele>
        <time>2017-06-12T23:16:02.982Z</time>
      </trkpt>
      <trkpt lat="43.636114" lon="5.262959">
        <ele>190.611387</ele>
        <time>2017-06-12T23:16:05.880Z</time>
      </trkpt>
      <trkpt lat="43.635730" lon="5.262778">
        <ele>189.879010</ele>
        <time>2017-06-12T23:16:12.653Z</time>
      </trkpt>
      <trkpt lat="43.635487" lon="5.262710">
        <ele>189.431468</ele>
        <time>2017-06-12T23:16:16.982Z</time>
      </trkpt>
      <trkpt lat="43.634735" lon="5.262668">
        <ele>188.447640</ele>
        <time>2017-06-12T23:16:30.290Z</time>
      </trkpt>
      <trkpt lat="43.634640" lon="5.262643">
        <ele>188.509154</ele>
        <time>2017-06-12T23:16:31.910Z</time>
      </trkpt>
      <trkpt lat="43.634450" lon="5.262593">
        <ele>188.632183</ele>
        <time>2017-06-12T23:16:36.428Z</time>
      </trkpt>
      <trkpt lat="43.634071" lon="5.262517">
        <ele>188.875786</ele>
        <time>2017-06-12T23:16:45.262Z</time>
      </trkpt>
      <trkpt lat="43.633538" lon="5.262376">
        <ele>189.220978</ele>
        <time>2017-06-12T23:16:59.119Z</time>
      </trkpt>
      <trkpt lat="43.632986" lon="5.262241">
        <ele>189.935923</ele>
        <time>2017-06-12T23:17:16.960Z</time>
      </trkpt>
      <trkpt lat="43.632279" lon="5.262067">
        <ele>192.354129</ele>
        <time>2017-06-12T23:17:43.585Z</time>
      </trkpt>
      <trkpt lat="43.631528" lon="5.261819">
        <ele>194.954255</ele>
        <time>2017-06-12T23:18:12.031Z</time>
      </trkpt>
      <trkpt lat="43.631173" lon="5.261729">
        <ele>196.082394</ele>
        <time>2017-06-12T23:18:24.995Z</time>
      </trkpt>
      <trkpt lat="43.631041" lon="5.261696">
        <ele>196.470429</ele>
        <time>2017-06-12T23:18:30.067Z</time>
      </trkpt>
      <trkpt lat="43.630575" lon="5.261503">
        <ele>197.877682</ele>
        <time>2017-06-12T23:18:46.965Z</time>
      </trkpt>
      <trkpt lat="43.630403" lon="5.261432">
        <ele>198.396955</ele>
        <time>2017-06-12T23:18:53.501Z</time>
      </trkpt>
      <trkpt lat="43.630108" lon="5.261311">
        <ele>199.287108</ele>
        <time>2017-06-12T23:19:03.711Z</time>
      </trkpt>
      <trkpt lat="43.629920" lon="5.261234">
        <ele>199.854326</ele>
        <time>2017-06-12T23:19:10.061Z</time>
      </trkpt>
      <trkpt lat="43.629376" lon="5.261010">
        <ele>200.770765</ele>
        <time>2017-06-12T23:19:27.653Z</time>
      </trkpt>
      <trkpt lat="43.628925" lon="5.260828">
        <ele>200.802011</ele>
        <time>2017-06-12T23:19:40.473Z</time>
      </trkpt>
      <trkpt lat="43.628435" lon="5.260630">
        <ele>200.835963</ele>
        <time>2017-06-12T23:19:51.614Z</time>
      </trkpt>
      <trkpt lat="43.628229" lon="5.260559">
        <ele>200.850083</ele>
        <time>2017-06-12T23:19:55.756Z</time>
      </trkpt>
      <trkpt lat="43.627727" lon="5.260455">
        <ele>200.276522</ele>
        <time>2017-06-12T23:20:04.705Z</time>
      </trkpt>
      <trkpt lat="43.627159" lon="5.260386">
        <ele>198.128216</ele>
        <time>2017-06-12T23:20:14.144Z</time>
      </trkpt>
      <trkpt lat="43.626681" lon="5.260326">
        <ele>196.319840</ele>
        <time>2017-06-12T23:20:21.623Z</time>
      </trkpt>
      <trkpt lat="43.626326" lon="5.260281">
        <ele>194.976691</ele>
        <time>2017-06-12T23:20:27.034Z</time>
      </trkpt>
      <trkpt lat="43.626101" lon="5.260267">
        <ele>194.128101</ele>
        <time>2017-06-12T23:20:30.435Z</time>
      </trkpt>
      <trkpt lat="43.625905" lon="5.260254">
        <ele>193.137197</ele>
        <time>2017-06-12T23:20:33.299Z</time>
      </trkpt>
      <trkpt lat="43.625608" lon="5.260263">
        <ele>191.620075</ele>
        <time>2017-06-12T23:20:37.734Z</time>
      </trkpt>
      <trkpt lat="43.625168" lon="5.260276">
        <ele>189.372514</ele>
        <time>2017-06-12T23:20:44.283Z</time>
      </trkpt>
      <trkpt lat="43.624677" lon="5.260323">
        <ele>186.859000</ele>
        <time>2017-06-12T23:20:51.785Z</time>
      </trkpt>
      <trkpt lat="43.624438" lon="5.260374">
        <ele>185.623970</ele>
        <time>2017-06-12T23:20:55.416Z</time>
      </trkpt>
      <trkpt lat="43.624330" lon="5.260397">
        <ele>185.065906</ele>
        <time>2017-06-12T23:20:57.139Z</time>
      </trkpt>
      <trkpt lat="43.623919" lon="5.260540">
        <ele>182.830148</ele>
        <time>2017-06-12T23:21:03.509Z</time>
      </trkpt>
      <trkpt lat="43.623519" lon="5.260736">
        <ele>180.585819</ele>
        <time>2017-06-12T23:21:09.907Z</time>
      </trkpt>
      <trkpt lat="43.623052" lon="5.261013">
        <ele>177.898295</ele>
        <time>2017-06-12T23:21:17.477Z</time>
      </trkpt>
      <trkpt lat="43.622415" lon="5.261460">
        <ele>174.081694</ele>
        <time>2017-06-12T23:21:28.092Z</time>
      </trkpt>
      <trkpt lat="43.621788" lon="5.261915">
        <ele>170.223940</ele>
        <time>2017-06-12T23:21:38.513Z</time>
      </trkpt>
      <trkpt lat="43.621648" lon="5.262017">
        <ele>169.361814</ele>
        <time>2017-06-12T23:21:40.826Z</time>
      </trkpt>
      <trkpt lat="43.621328" lon="5.262190">
        <ele>167.490081</ele>
        <time>2017-06-12T23:21:45.923Z</time>
      </trkpt>
      <trkpt lat="43.621224" lon="5.262278">
        <ele>166.825779</ele>
        <time>2017-06-12T23:21:47.743Z</time>
      </trkpt>
      <trkpt lat="43.621063" lon="5.262372">
        <ele>165.873718</ele>
        <time>2017-06-12T23:21:50.390Z</time>
      </trkpt>
      <trkpt lat="43.620719" lon="5.262572">
        <ele>164.700129</ele>
        <time>2017-06-12T23:21:56.163Z</time>
      </trkpt>
      <trkpt lat="43.620177" lon="5.262802">
        <ele>163.117980</ele>
        <time>2017-06-12T23:22:05.303Z</time>
      </trkpt>
      <trkpt lat="43.620081" lon="5.262843">
        <ele>162.837591</ele>
        <time>2017-06-12T23:22:06.997Z</time>
      </trkpt>
      <trkpt lat="43.619744" lon="5.262986">
        <ele>161.853860</ele>
        <time>2017-06-12T23:22:13.139Z</time>
      </trkpt>
      <trkpt lat="43.619424" lon="5.263160">
        <ele>160.894244</ele>
        <time>2017-06-12T23:22:19.541Z</time>
      </trkpt>
      <trkpt lat="43.618952" lon="5.263347">
        <ele>160.342139</ele>
        <time>2017-06-12T23:22:29.218Z</time>
      </trkpt>
      <trkpt lat="43.618381" lon="5.263450">
        <ele>159.975645</ele>
        <time>2017-06-12T23:22:41.049Z</time>
      </trkpt>
      <trkpt lat="43.618246" lon="5.263469">
        <ele>159.889281</ele>
        <time>2017-06-12T23:22:43.902Z</time>
      </trkpt>
      <trkpt lat="43.618190" lon="5.263463">
        <ele>159.853533</ele>
        <time>2017-06-12T23:22:45.058Z</time>
      </trkpt>
      <trkpt lat="43.618115" lon="5.263453">
        <ele>159.805578</ele>
        <time>2017-06-12T23:22:46.599Z</time>
      </trkpt>
      <trkpt lat="43.617884" lon="5.263403">
        <ele>159.656766</ele>
        <time>2017-06-12T23:22:51.446Z</time>
      </trkpt>
      <trkpt lat="43.617577" lon="5.263207">
        <ele>159.441518</ele>
        <time>2017-06-12T23:22:58.321Z</time>
      </trkpt>
      <trkpt lat="43.617415" lon="5.263182">
        <ele>159.414973</ele>
        <time>2017-06-12T23:23:01.578Z</time>
      </trkpt>
      <trkpt lat="43.617118" lon="5.261033">
        <ele>159.174745</ele>
        <time>2017-06-12T23:23:35.148Z</time>
      </trkpt>
      <trkpt lat="43.617003" lon="5.260264">
        <ele>160.179677</ele>
        <time>2017-06-12T23:23:50.091Z</time>
      </trkpt>
      <trkpt lat="43.616952" lon="5.260247">
        <ele>160.283315</ele>
        <time>2017-06-12T23:23:51.563Z</time>
      </trkpt>
      <trkpt lat="43.616454" lon="5.259736">
        <ele>161.508807</ele>
        <time>2017-06-12T23:24:10.207Z</time>
      </trkpt>
      <trkpt lat="43.616197" lon="5.259484">
        <ele>162.131400</ele>
        <time>2017-06-12T23:24:20.541Z</time>
      </trkpt>
      <trkpt lat="43.616059" lon="5.259397">
        <ele>162.431058</ele>
        <time>2017-06-12T23:24:25.692Z</time>
      </trkpt>
      <trkpt lat="43.615932" lon="5.259366">
        <ele>162.685822</ele>
        <time>2017-06-12T23:24:30.322Z</time>
      </trkpt>
      <trkpt lat="43.615778" lon="5.259397">
        <ele>163.388254</ele>
        <time>2017-06-12T23:24:35.917Z</time>
      </trkpt>
      <trkpt lat="43.615644" lon="5.259492">
        <ele>164.114922</ele>
        <time>2017-06-12T23:24:41.671Z</time>
      </trkpt>
      <trkpt lat="43.615009" lon="5.260308">
        <ele>168.299295</ele>
        <time>2017-06-12T23:25:16.870Z</time>
      </trkpt>
      <trkpt lat="43.614857" lon="5.260444">
        <ele>169.173036</ele>
        <time>2017-06-12T23:25:24.556Z</time>
      </trkpt>
      <trkpt lat="43.614535" lon="5.260531">
        <ele>170.755969</ele>
        <time>2017-06-12T23:25:39.003Z</time>
      </trkpt>
      <trkpt lat="43.612437" lon="5.260091">
        <ele>184.869429</ele>
        <time>2017-06-12T23:27:25.460Z</time>
      </trkpt>
      <trkpt lat="43.612151" lon="5.259945">
        <ele>186.705870</ele>
        <time>2017-06-12T23:27:41.552Z</time>
      </trkpt>
      <trkpt lat="43.611829" lon="5.259689">
        <ele>188.943594</ele>
        <time>2017-06-12T23:28:00.189Z</time>
      </trkpt>
      <trkpt lat="43.611143" lon="5.259002">
        <ele>194.047138</ele>
        <time>2017-06-12T23:28:38.232Z</time>
      </trkpt>
      <trkpt lat="43.610507" lon="5.258192">
        <ele>196.197246</ele>
        <time>2017-06-12T23:29:09.205Z</time>
      </trkpt>
      <trkpt lat="43.609892" lon="5.257652">
        <ele>197.730141</ele>
        <time>2017-06-12T23:29:28.282Z</time>
      </trkpt>
      <trkpt lat="43.608766" lon="5.256761">
        <ele>199.021595</ele>
        <time>2017-06-12T23:29:58.445Z</time>
      </trkpt>
      <trkpt lat="43.608477" lon="5.256579">
        <ele>199.236818</ele>
        <time>2017-06-12T23:30:06.530Z</time>
      </trkpt>
      <trkpt lat="43.607897" lon="5.256320">
        <ele>199.745190</ele>
        <time>2017-06-12T23:30:23.079Z</time>
      </trkpt>
      <trkpt lat="43.605680" lon="5.255386">
        <ele>202.362554</ele>
        <time>2017-06-12T23:31:27.814Z</time>
      </trkpt>
      <trkpt lat="43.605503" lon="5.255314">
        <ele>202.457389</ele>
        <time>2017-06-12T23:31:32.422Z</time>
      </trkpt>
      <trkpt lat="43.605184" lon="5.255196">
        <ele>202.627120</ele>
        <time>2017-06-12T23:31:40.047Z</time>
      </trkpt>
      <trkpt lat="43.604715" lon="5.255051">
        <ele>202.874133</ele>
        <time>2017-06-12T23:31:50.549Z</time>
      </trkpt>
      <trkpt lat="43.604269" lon="5.254971">
        <ele>202.752289</ele>
        <time>2017-06-12T23:31:59.779Z</time>
      </trkpt>
      <trkpt lat="43.603206" lon="5.254967">
        <ele>202.059895</ele>
        <time>2017-06-12T23:32:20.674Z</time>
      </trkpt>
      <trkpt lat="43.602401" lon="5.255003">
        <ele>201.674611</ele>
        <time>2017-06-12T23:32:36.931Z</time>
      </trkpt>
      <trkpt lat="43.601531" lon="5.255067">
        <ele>201.432834</ele>
        <time>2017-06-12T23:32:55.310Z</time>
      </trkpt>
      <trkpt lat="43.600690" lon="5.255215">
        <ele>201.278363</ele>
        <time>2017-06-12T23:33:14.239Z</time>
      </trkpt>
      <trkpt lat="43.599729" lon="5.255385">
        <ele>201.276598</ele>
        <time>2017-06-12T23:33:36.510Z</time>
      </trkpt>
      <trkpt lat="43.598802" lon="5.255666">
        <ele>200.801822</ele>
        <time>2017-06-12T23:33:56.804Z</time>
      </trkpt>
      <trkpt lat="43.598597" lon="5.255692">
        <ele>200.565296</ele>
        <time>2017-06-12T23:34:00.949Z</time>
      </trkpt>
      <trkpt lat="43.598423" lon="5.255666">
        <ele>200.364211</ele>
        <time>2017-06-12T23:34:04.461Z</time>
      </trkpt>
      <trkpt lat="43.595481" lon="5.254688">
        <ele>195.237598</ele>
        <time>2017-06-12T23:34:58.675Z</time>
      </trkpt>
      <trkpt lat="43.593591" lon="5.254651">
        <ele>190.033150</ele>
        <time>2017-06-12T23:35:29.541Z</time>
      </trkpt>
      <trkpt lat="43.592185" lon="5.254229">
        <ele>186.708641</ele>
        <time>2017-06-12T23:35:54.038Z</time>
      </trkpt>
      <trkpt lat="43.592161" lon="5.254223">
        <ele>186.652286</ele>
        <time>2017-06-12T23:35:54.373Z</time>
      </trkpt>
      <trkpt lat="43.592128" lon="5.254215">
        <ele>186.609659</ele>
        <time>2017-06-12T23:35:55.249Z</time>
      </trkpt>
      <trkpt lat="43.590993" lon="5.253890">
        <ele>187.390024</ele>
        <time>2017-06-12T23:36:21.703Z</time>
      </trkpt>
      <trkpt lat="43.590778" lon="5.253790">
        <ele>187.542758</ele>
        <time>2017-06-12T23:36:28.473Z</time>
      </trkpt>
      <trkpt lat="43.590596" lon="5.253688">
        <ele>187.674994</ele>
        <time>2017-06-12T23:36:34.307Z</time>
      </trkpt>
      <trkpt lat="43.589706" lon="5.252987">
        <ele>190.493672</ele>
        <time>2017-06-12T23:37:10.193Z</time>
      </trkpt>
      <trkpt lat="43.588322" lon="5.251897">
        <ele>195.665226</ele>
        <time>2017-06-12T23:38:08.328Z</time>
      </trkpt>
      <trkpt lat="43.587631" lon="5.251316">
        <ele>198.261123</ele>
        <time>2017-06-12T23:38:36.641Z</time>
      </trkpt>
      <trkpt lat="43.587239" lon="5.251076">
        <ele>199.599669</ele>
        <time>2017-06-12T23:38:51.113Z</time>
      </trkpt>
      <trkpt lat="43.586953" lon="5.251119">
        <ele>200.324004</ele>
        <time>2017-06-12T23:39:00.601Z</time>
      </trkpt>
      <trkpt lat="43.586748" lon="5.251256">
        <ele>200.897435</ele>
        <time>2017-06-12T23:39:07.946Z</time>
      </trkpt>
      <trkpt lat="43.586112" lon="5.252084">
        <ele>203.098413</ele>
        <time>2017-06-12T23:39:35.908Z</time>
      </trkpt>
      <trkpt lat="43.585261" lon="5.253492">
        <ele>206.234745</ele>
        <time>2017-06-12T23:40:17.950Z</time>
      </trkpt>
      <trkpt lat="43.585083" lon="5.253650">
        <ele>206.722330</ele>
        <time>2017-06-12T23:40:24.592Z</time>
      </trkpt>
      <trkpt lat="43.584482" lon="5.254117">
        <ele>208.317142</ele>
        <time>2017-06-12T23:40:46.180Z</time>
      </trkpt>
      <trkpt lat="43.584262" lon="5.254271">
        <ele>208.904255</ele>
        <time>2017-06-12T23:40:53.894Z</time>
      </trkpt>
      <trkpt lat="43.583777" lon="5.254596">
        <ele>210.187462</ele>
        <time>2017-06-12T23:41:10.343Z</time>
      </trkpt>
      <trkpt lat="43.583164" lon="5.255387">
        <ele>212.184666</ele>
        <time>2017-06-12T23:41:37.830Z</time>
      </trkpt>
      <trkpt lat="43.582994" lon="5.255521">
        <ele>212.698397</ele>
        <time>2017-06-12T23:41:43.991Z</time>
      </trkpt>
      <trkpt lat="43.582609" lon="5.255683">
        <ele>213.852776</ele>
        <time>2017-06-12T23:41:56.951Z</time>
      </trkpt>
      <trkpt lat="43.582582" lon="5.255686">
        <ele>213.930465</ele>
        <time>2017-06-12T23:41:58.216Z</time>
      </trkpt>
      <trkpt lat="43.582286" lon="5.255717">
        <ele>214.781867</ele>
        <time>2017-06-12T23:42:07.557Z</time>
      </trkpt>
      <trkpt lat="43.581704" lon="5.255801">
        <ele>216.460208</ele>
        <time>2017-06-12T23:42:27.507Z</time>
      </trkpt>
      <trkpt lat="43.581016" lon="5.255793">
        <ele>218.523852</ele>
        <time>2017-06-12T23:42:51.987Z</time>
      </trkpt>
      <trkpt lat="43.580773" lon="5.255630">
        <ele>219.380355</ele>
        <time>2017-06-12T23:43:01.540Z</time>
      </trkpt>
      <trkpt lat="43.580717" lon="5.255510">
        <ele>219.708174</ele>
        <time>2017-06-12T23:43:05.594Z</time>
      </trkpt>
      <trkpt lat="43.580660" lon="5.255202">
        <ele>220.438226</ele>
        <time>2017-06-12T23:43:13.646Z</time>
      </trkpt>
      <trkpt lat="43.580696" lon="5.254852">
        <ele>221.250078</ele>
        <time>2017-06-12T23:43:22.960Z</time>
      </trkpt>
      <trkpt lat="43.580832" lon="5.254125">
        <ele>222.974434</ele>
        <time>2017-06-12T23:43:41.696Z</time>
      </trkpt>
      <trkpt lat="43.580826" lon="5.253739">
        <ele>223.606204</ele>
        <time>2017-06-12T23:43:50.767Z</time>
      </trkpt>
      <trkpt lat="43.580792" lon="5.253612">
        <ele>223.781134</ele>
        <time>2017-06-12T23:43:54.197Z</time>
      </trkpt>
      <trkpt lat="43.580770" lon="5.253533">
        <ele>223.890483</ele>
        <time>2017-06-12T23:43:56.331Z</time>
      </trkpt>
      <trkpt lat="43.580633" lon="5.253138">
        <ele>224.456299</ele>
        <time>2017-06-12T23:44:06.175Z</time>
      </trkpt>
      <trkpt lat="43.580094" lon="5.251839">
        <ele>226.390428</ele>
        <time>2017-06-12T23:44:36.641Z</time>
      </trkpt>
      <trkpt lat="43.579921" lon="5.251522">
        <ele>226.752680</ele>
        <time>2017-06-12T23:44:43.752Z</time>
      </trkpt>
      <trkpt lat="43.579757" lon="5.251323">
        <ele>227.001507</ele>
        <time>2017-06-12T23:44:49.108Z</time>
      </trkpt>
      <trkpt lat="43.579505" lon="5.251042">
        <ele>227.370664</ele>
        <time>2017-06-12T23:44:57.162Z</time>
      </trkpt>
      <trkpt lat="43.578983" lon="5.250595">
        <ele>228.070678</ele>
        <time>2017-06-12T23:45:13.362Z</time>
      </trkpt>
      <trkpt lat="43.578810" lon="5.250551">
        <ele>228.271141</ele>
        <time>2017-06-12T23:45:18.257Z</time>
      </trkpt>
      <trkpt lat="43.578248" lon="5.250606">
        <ele>229.335342</ele>
        <time>2017-06-12T23:45:34.443Z</time>
      </trkpt>
      <trkpt lat="43.576511" lon="5.250898">
        <ele>233.657977</ele>
        <time>2017-06-12T23:46:32.020Z</time>
      </trkpt>
      <trkpt lat="43.575324" lon="5.251210">
        <ele>236.991142</ele>
        <time>2017-06-12T23:47:13.354Z</time>
      </trkpt>
      <trkpt lat="43.574966" lon="5.251233">
        <ele>237.919797</ele>
        <time>2017-06-12T23:47:24.852Z</time>
      </trkpt>
      <trkpt lat="43.574711" lon="5.251207">
        <ele>238.320253</ele>
        <time>2017-06-12T23:47:32.691Z</time>
      </trkpt>
      <trkpt lat="43.574594" lon="5.251180">
        <ele>238.506035</ele>
        <time>2017-06-12T23:47:36.452Z</time>
      </trkpt>
      <trkpt lat="43.574392" lon="5.251134">
        <ele>238.826674</ele>
        <time>2017-06-12T23:47:42.357Z</time>
      </trkpt>
      <trkpt lat="43.574334" lon="5.251121">
        <ele>238.918700</ele>
        <time>2017-06-12T23:47:44.346Z</time>
      </trkpt>
      <trkpt lat="43.573227" lon="5.250893">
        <ele>240.657095</ele>
        <time>2017-06-12T23:48:15.243Z</time>
      </trkpt>
      <trkpt lat="43.572188" lon="5.250234">
        <ele>240.539716</ele>
        <time>2017-06-12T23:48:41.281Z</time>
      </trkpt>
      <trkpt lat="43.571894" lon="5.250033">
        <ele>240.506037</ele>
        <time>2017-06-12T23:48:47.891Z</time>
      </trkpt>
      <trkpt lat="43.571790" lon="5.249961">
        <ele>240.494094</ele>
        <time>2017-06-12T23:48:50.071Z</time>
      </trkpt>
      <trkpt lat="43.571417" lon="5.249702">
        <ele>240.198215</ele>
        <time>2017-06-12T23:48:58.195Z</time>
      </trkpt>
      <trkpt lat="43.570996" lon="5.249227">
        <ele>239.503943</ele>
        <time>2017-06-12T23:49:08.409Z</time>
      </trkpt>
      <trkpt lat="43.570842" lon="5.249034">
        <ele>239.238354</ele>
        <time>2017-06-12T23:49:12.231Z</time>
      </trkpt>
      <trkpt lat="43.570681" lon="5.248861">
        <ele>238.977839</ele>
        <time>2017-06-12T23:49:15.875Z</time>
      </trkpt>
      <trkpt lat="43.570564" lon="5.248772">
        <ele>238.807269</ele>
        <time>2017-06-12T23:49:18.412Z</time>
      </trkpt>
      <trkpt lat="43.569872" lon="5.248458">
        <ele>237.831285</ele>
        <time>2017-06-12T23:49:32.066Z</time>
      </trkpt>
      <trkpt lat="43.569655" lon="5.248359">
        <ele>237.494759</ele>
        <time>2017-06-12T23:49:36.219Z</time>
      </trkpt>
      <trkpt lat="43.568883" lon="5.248004">
        <ele>236.296593</ele>
        <time>2017-06-12T23:49:51.371Z</time>
      </trkpt>
      <trkpt lat="43.568392" lon="5.247776">
        <ele>235.533796</ele>
        <time>2017-06-12T23:50:01.016Z</time>
      </trkpt>
      <trkpt lat="43.568341" lon="5.247723">
        <ele>235.311543</ele>
        <time>2017-06-12T23:50:02.201Z</time>
      </trkpt>
      <trkpt lat="43.568139" lon="5.247520">
        <ele>234.411307</ele>
        <time>2017-06-12T23:50:06.828Z</time>
      </trkpt>
      <trkpt lat="43.566974" lon="5.246402">
        <ele>229.299205</ele>
        <time>2017-06-12T23:50:29.572Z</time>
      </trkpt>
      <trkpt lat="43.566694" lon="5.246077">
        <ele>226.530263</ele>
        <time>2017-06-12T23:50:34.816Z</time>
      </trkpt>
      <trkpt lat="43.566634" lon="5.246029">
        <ele>225.940766</ele>
        <time>2017-06-12T23:50:35.800Z</time>
      </trkpt>
      <trkpt lat="43.566572" lon="5.245999">
        <ele>225.382305</ele>
        <time>2017-06-12T23:50:36.762Z</time>
      </trkpt>
      <trkpt lat="43.566503" lon="5.245995">
        <ele>224.795278</ele>
        <time>2017-06-12T23:50:37.696Z</time>
      </trkpt>
      <trkpt lat="43.566098" lon="5.246199">
        <ele>221.130600</ele>
        <time>2017-06-12T23:50:43.734Z</time>
      </trkpt>
      <trkpt lat="43.565934" lon="5.246205">
        <ele>219.736086</ele>
        <time>2017-06-12T23:50:45.991Z</time>
      </trkpt>
      <trkpt lat="43.565729" lon="5.246190">
        <ele>217.991108</ele>
        <time>2017-06-12T23:50:48.796Z</time>
      </trkpt>
      <trkpt lat="43.565599" lon="5.246175">
        <ele>216.882233</ele>
        <time>2017-06-12T23:50:50.547Z</time>
      </trkpt>
      <trkpt lat="43.564935" lon="5.246087">
        <ele>211.152491</ele>
        <time>2017-06-12T23:50:59.531Z</time>
      </trkpt>
      <trkpt lat="43.564511" lon="5.246320">
        <ele>207.182343</ele>
        <time>2017-06-12T23:51:05.721Z</time>
      </trkpt>
      <trkpt lat="43.564321" lon="5.246273">
        <ele>205.503140</ele>
        <time>2017-06-12T23:51:08.350Z</time>
      </trkpt>
      <trkpt lat="43.564068" lon="5.246043">
        <ele>202.867617</ele>
        <time>2017-06-12T23:51:12.490Z</time>
      </trkpt>
      <trkpt lat="43.563615" lon="5.245846">
        <ele>198.735821</ele>
        <time>2017-06-12T23:51:19.326Z</time>
      </trkpt>
      <trkpt lat="43.563211" lon="5.244817">
        <ele>195.885730</ele>
        <time>2017-06-12T23:51:32.472Z</time>
      </trkpt>
      <trkpt lat="43.563212" lon="5.244613">
        <ele>195.461716</ele>
        <time>2017-06-12T23:51:35.005Z</time>
      </trkpt>
      <trkpt lat="43.563349" lon="5.244378">
        <ele>194.834827</ele>
        <time>2017-06-12T23:51:38.954Z</time>
      </trkpt>
      <trkpt lat="43.563481" lon="5.243975">
        <ele>193.915615</ele>
        <time>2017-06-12T23:51:45.273Z</time>
      </trkpt>
      <trkpt lat="43.563619" lon="5.243764">
        <ele>193.324844</ele>
        <time>2017-06-12T23:51:49.790Z</time>
      </trkpt>
      <trkpt lat="43.563920" lon="5.243467">
        <ele>192.185002</ele>
        <time>2017-06-12T23:51:58.165Z</time>
      </trkpt>
      <trkpt lat="43.564283" lon="5.243299">
        <ele>190.961903</ele>
        <time>2017-06-12T23:52:04.710Z</time>
      </trkpt>
      <trkpt lat="43.564453" lon="5.243341">
        <ele>190.410192</ele>
        <time>2017-06-12T23:52:07.440Z</time>
      </trkpt>
      <trkpt lat="43.564685" lon="5.243465">
        <ele>189.615411</ele>
        <time>2017-06-12T23:52:11.362Z</time>
      </trkpt>
      <trkpt lat="43.564764" lon="5.243410">
        <ele>189.332746</ele>
        <time>2017-06-12T23:52:13.087Z</time>
      </trkpt>
      <trkpt lat="43.564799" lon="5.243150">
        <ele>188.720608</ele>
        <time>2017-06-12T23:52:16.508Z</time>
      </trkpt>
      <trkpt lat="43.564775" lon="5.243026">
        <ele>188.423513</ele>
        <time>2017-06-12T23:52:17.772Z</time>
      </trkpt>
      <trkpt lat="43.564720" lon="5.242910">
        <ele>188.102622</ele>
        <time>2017-06-12T23:52:19.536Z</time>
      </trkpt>
      <trkpt lat="43.564592" lon="5.242805">
        <ele>187.626936</ele>
        <time>2017-06-12T23:52:22.119Z</time>
      </trkpt>
      <trkpt lat="43.564548" lon="5.242802">
        <ele>187.486204</ele>
        <time>2017-06-12T23:52:22.727Z</time>
      </trkpt>
      <trkpt lat="43.564513" lon="5.242823">
        <ele>187.364284</ele>
        <time>2017-06-12T23:52:23.214Z</time>
      </trkpt>
      <trkpt lat="43.564392" lon="5.242955">
        <ele>186.187217</ele>
        <time>2017-06-12T23:52:25.788Z</time>
      </trkpt>
      <trkpt lat="43.564308" lon="5.242980">
        <ele>185.353902</ele>
        <time>2017-06-12T23:52:27.198Z</time>
      </trkpt>
      <trkpt lat="43.563929" lon="5.242903">
        <ele>181.638944</ele>
        <time>2017-06-12T23:52:32.619Z</time>
      </trkpt>
      <trkpt lat="43.563532" lon="5.243060">
        <ele>177.634094</ele>
        <time>2017-06-12T23:52:38.141Z</time>
      </trkpt>
      <trkpt lat="43.562819" lon="5.243741">
        <ele>169.168364</ele>
        <time>2017-06-12T23:52:49.676Z</time>
      </trkpt>
      <trkpt lat="43.562761" lon="5.243738">
        <ele>168.546139</ele>
        <time>2017-06-12T23:52:50.437Z</time>
      </trkpt>
      <trkpt lat="43.562629" lon="5.243642">
        <ele>166.946554</ele>
        <time>2017-06-12T23:52:52.491Z</time>
      </trkpt>
      <trkpt lat="43.562535" lon="5.243636">
        <ele>165.937750</ele>
        <time>2017-06-12T23:52:53.712Z</time>
      </trkpt>
      <trkpt lat="43.562149" lon="5.243773">
        <ele>161.664976</ele>
        <time>2017-06-12T23:52:59.076Z</time>
      </trkpt>
      <trkpt lat="43.561942" lon="5.243955">
        <ele>159.033714</ele>
        <time>2017-06-12T23:53:02.391Z</time>
      </trkpt>
      <trkpt lat="43.561849" lon="5.244123">
        <ele>157.391374</ele>
        <time>2017-06-12T23:53:04.440Z</time>
      </trkpt>
      <trkpt lat="43.561757" lon="5.244591">
        <ele>153.624354</ele>
        <time>2017-06-12T23:53:09.160Z</time>
      </trkpt>
      <trkpt lat="43.561597" lon="5.244959">
        <ele>150.362592</ele>
        <time>2017-06-12T23:53:13.317Z</time>
      </trkpt>
      <trkpt lat="43.561577" lon="5.245084">
        <ele>149.740483</ele>
        <time>2017-06-12T23:53:14.672Z</time>
      </trkpt>
      <trkpt lat="43.561589" lon="5.245211">
        <ele>149.118062</ele>
        <time>2017-06-12T23:53:16.022Z</time>
      </trkpt>
      <trkpt lat="43.561641" lon="5.245296">
        <ele>148.577451</ele>
        <time>2017-06-12T23:53:17.188Z</time>
      </trkpt>
      <trkpt lat="43.561848" lon="5.245390">
        <ele>147.115960</ele>
        <time>2017-06-12T23:53:20.345Z</time>
      </trkpt>
      <trkpt lat="43.561902" lon="5.245458">
        <ele>146.625691</ele>
        <time>2017-06-12T23:53:21.418Z</time>
      </trkpt>
      <trkpt lat="43.561922" lon="5.245550">
        <ele>146.158904</ele>
        <time>2017-06-12T23:53:22.434Z</time>
      </trkpt>
      <trkpt lat="43.561872" lon="5.245702">
        <ele>145.347667</ele>
        <time>2017-06-12T23:53:24.191Z</time>
      </trkpt>
      <trkpt lat="43.561463" lon="5.246239">
        <ele>141.561558</ele>
        <time>2017-06-12T23:53:32.419Z</time>
      </trkpt>
      <trkpt lat="43.561427" lon="5.246432">
        <ele>140.593036</ele>
        <time>2017-06-12T23:53:34.542Z</time>
      </trkpt>
      <trkpt lat="43.561490" lon="5.246589">
        <ele>139.720869</ele>
        <time>2017-06-12T23:53:36.473Z</time>
      </trkpt>
      <trkpt lat="43.561484" lon="5.246788">
        <ele>138.752927</ele>
        <time>2017-06-12T23:53:38.636Z</time>
      </trkpt>
      <trkpt lat="43.561202" lon="5.247132">
        <ele>136.761002</ele>
        <time>2017-06-12T23:53:44.296Z</time>
      </trkpt>
      <trkpt lat="43.561116" lon="5.247910">
        <ele>133.865226</ele>
        <time>2017-06-12T23:53:53.058Z</time>
      </trkpt>
      <trkpt lat="43.561142" lon="5.248031">
        <ele>133.400843</ele>
        <time>2017-06-12T23:53:54.492Z</time>
      </trkpt>
      <trkpt lat="43.561226" lon="5.248140">
        <ele>132.815368</ele>
        <time>2017-06-12T23:53:56.283Z</time>
      </trkpt>
      <trkpt lat="43.561437" lon="5.248270">
        <ele>131.642040</ele>
        <time>2017-06-12T23:53:59.914Z</time>
      </trkpt>
      <trkpt lat="43.561490" lon="5.248428">
        <ele>131.001412</ele>
        <time>2017-06-12T23:54:01.907Z</time>
      </trkpt>
      <trkpt lat="43.561420" lon="5.248515">
        <ele>130.523069</ele>
        <time>2017-06-12T23:54:03.186Z</time>
      </trkpt>
      <trkpt lat="43.561129" lon="5.248655">
        <ele>128.840572</ele>
        <time>2017-06-12T23:54:07.831Z</time>
      </trkpt>
      <trkpt lat="43.560957" lon="5.248843">
        <ele>127.328134</ele>
        <time>2017-06-12T23:54:11.080Z</time>
      </trkpt>
      <trkpt lat="43.560860" lon="5.249234">
        <ele>125.263817</ele>
        <time>2017-06-12T23:54:15.400Z</time>
      </trkpt>
      <trkpt lat="43.560569" lon="5.249823">
        <ele>121.703034</ele>
        <time>2017-06-12T23:54:22.950Z</time>
      </trkpt>
      <trkpt lat="43.560554" lon="5.249846">
        <ele>121.548473</ele>
        <time>2017-06-12T23:54:23.230Z</time>
      </trkpt>
      <trkpt lat="43.560536" lon="5.249862">
        <ele>121.400886</ele>
        <time>2017-06-12T23:54:23.535Z</time>
      </trkpt>
      <trkpt lat="43.560502" lon="5.249889">
        <ele>121.130489</ele>
        <time>2017-06-12T23:54:24.056Z</time>
      </trkpt>
      <trkpt lat="43.560239" lon="5.249922">
        <ele>119.310146</ele>
        <time>2017-06-12T23:54:27.967Z</time>
      </trkpt>
      <trkpt lat="43.560006" lon="5.249919">
        <ele>117.704001</ele>
        <time>2017-06-12T23:54:31.180Z</time>
      </trkpt>
      <trkpt lat="43.559662" lon="5.249923">
        <ele>115.328519</ele>
        <time>2017-06-12T23:54:35.981Z</time>
      </trkpt>
      <trkpt lat="43.559424" lon="5.249911">
        <ele>113.682457</ele>
        <time>2017-06-12T23:54:39.279Z</time>
      </trkpt>
      <trkpt lat="43.559041" lon="5.249895">
        <ele>111.034096</ele>
        <time>2017-06-12T23:54:44.689Z</time>
      </trkpt>
      <trkpt lat="43.558396" lon="5.249917">
        <ele>106.574743</ele>
        <time>2017-06-12T23:54:54.090Z</time>
      </trkpt>
      <trkpt lat="43.558237" lon="5.249925">
        <ele>105.475066</ele>
        <time>2017-06-12T23:54:56.413Z</time>
      </trkpt>
      <trkpt lat="43.558250" lon="5.250064">
        <ele>104.773087</ele>
        <time>2017-06-12T23:54:57.919Z</time>
      </trkpt>
      <trkpt lat="43.558280" lon="5.250373">
        <ele>103.724940</ele>
        <time>2017-06-12T23:55:01.300Z</time>
      </trkpt>
      <trkpt lat="43.558287" lon="5.250436">
        <ele>103.537216</ele>
        <time>2017-06-12T23:55:01.965Z</time>
      </trkpt>
      <trkpt lat="43.558291" lon="5.250480">
        <ele>103.406606</ele>
        <time>2017-06-12T23:55:02.434Z</time>
      </trkpt>
      <trkpt lat="43.558303" lon="5.250558">
        <ele>103.171750</ele>
        <time>2017-06-12T23:55:03.305Z</time>
      </trkpt>
      <trkpt lat="43.558322" lon="5.250687">
        <ele>102.784035</ele>
        <time>2017-06-12T23:55:04.769Z</time>
      </trkpt>
      <trkpt lat="43.558380" lon="5.250992">
        <ele>101.855295</ele>
        <time>2017-06-12T23:55:08.198Z</time>
      </trkpt>
      <trkpt lat="43.558398" lon="5.251102">
        <ele>101.523153</ele>
        <time>2017-06-12T23:55:09.488Z</time>
      </trkpt>
      <trkpt lat="43.558415" lon="5.251236">
        <ele>101.122477</ele>
        <time>2017-06-12T23:55:11.048Z</time>
      </trkpt>
      <trkpt lat="43.558426" lon="5.251336">
        <ele>100.824571</ele>
        <time>2017-06-12T23:55:12.191Z</time>
      </trkpt>
      <trkpt lat="43.558330" lon="5.251355">
        <ele>100.430400</ele>
        <time>2017-06-12T23:55:13.752Z</time>
      </trkpt>
      <trkpt lat="43.558182" lon="5.251382">
        <ele>99.823643</ele>
        <time>2017-06-12T23:55:16.373Z</time>
      </trkpt>
      <trkpt lat="43.558011" lon="5.251419">
        <ele>99.120146</ele>
        <time>2017-06-12T23:55:19.280Z</time>
      </trkpt>
      <trkpt lat="43.557916" lon="5.251428">
        <ele>98.733124</ele>
        <time>2017-06-12T23:55:20.992Z</time>
      </trkpt>
      <trkpt lat="43.557663" lon="5.251446">
        <ele>97.703477</ele>
        <time>2017-06-12T23:55:25.560Z</time>
      </trkpt>
      <trkpt lat="43.557508" lon="5.251492">
        <ele>97.087676</ele>
        <time>2017-06-12T23:55:28.372Z</time>
      </trkpt>
      <trkpt lat="43.557290" lon="5.251483">
        <ele>96.488064</ele>
        <time>2017-06-12T23:55:32.107Z</time>
      </trkpt>
      <trkpt lat="43.557205" lon="5.253131">
        <ele>93.196336</ele>
        <time>2017-06-12T23:55:53.213Z</time>
      </trkpt>
      <trkpt lat="43.557121" lon="5.253140">
        <ele>92.964701</ele>
        <time>2017-06-12T23:55:54.621Z</time>
      </trkpt>
      <trkpt lat="43.556925" lon="5.253158">
        <ele>92.424649</ele>
        <time>2017-06-12T23:55:58.289Z</time>
      </trkpt>
      <trkpt lat="43.556739" lon="5.253157">
        <ele>91.859245</ele>
        <time>2017-06-12T23:56:01.506Z</time>
      </trkpt>
      <trkpt lat="43.556670" lon="5.254555">
        <ele>88.545754</ele>
        <time>2017-06-12T23:56:19.046Z</time>
      </trkpt>
      <trkpt lat="43.556560" lon="5.254531">
        <ele>88.182363</ele>
        <time>2017-06-12T23:56:20.782Z</time>
      </trkpt>
      <trkpt lat="43.556126" lon="5.254437">
        <ele>86.748873</ele>
        <time>2017-06-12T23:56:27.684Z</time>
      </trkpt>
      <trkpt lat="43.555832" lon="5.254373">
        <ele>85.733769</ele>
        <time>2017-06-12T23:56:32.512Z</time>
      </trkpt>
      <trkpt lat="43.555491" lon="5.254312">
        <ele>84.523114</ele>
        <time>2017-06-12T23:56:38.032Z</time>
      </trkpt>
      <trkpt lat="43.555432" lon="5.254308">
        <ele>84.315134</ele>
        <time>2017-06-12T23:56:38.925Z</time>
      </trkpt>
      <trkpt lat="43.555366" lon="5.254304">
        <ele>84.082534</ele>
        <time>2017-06-12T23:56:39.999Z</time>
      </trkpt>
      <trkpt lat="43.555250" lon="5.254304">
        <ele>83.674117</ele>
        <time>2017-06-12T23:56:41.928Z</time>
      </trkpt>
      <trkpt lat="43.555189" lon="5.254304">
        <ele>83.459345</ele>
        <time>2017-06-12T23:56:42.906Z</time>
      </trkpt>
      <trkpt lat="43.554798" lon="5.254354">
        <ele>82.076796</ele>
        <time>2017-06-12T23:56:49.143Z</time>
      </trkpt>
      <trkpt lat="43.553732" lon="5.254712">
        <ele>78.296848</ele>
        <time>2017-06-12T23:57:06.812Z</time>
      </trkpt>
      <trkpt lat="43.553644" lon="5.254742">
        <ele>77.992495</ele>
        <time>2017-06-12T23:57:08.283Z</time>
      </trkpt>
      <trkpt lat="43.553045" lon="5.254957">
        <ele>75.914357</ele>
        <time>2017-06-12T23:57:18.325Z</time>
      </trkpt>
      <trkpt lat="43.551210" lon="5.255739">
        <ele>70.052734</ele>
        <time>2017-06-12T23:57:49.331Z</time>
      </trkpt>
      <trkpt lat="43.550098" lon="5.256253">
        <ele>67.615172</ele>
        <time>2017-06-12T23:58:10.240Z</time>
      </trkpt>
      <trkpt lat="43.549603" lon="5.256498">
        <ele>66.807214</ele>
        <time>2017-06-12T23:58:20.128Z</time>
      </trkpt>
      <trkpt lat="43.549509" lon="5.256545">
        <ele>66.653605</ele>
        <time>2017-06-12T23:58:22.036Z</time>
      </trkpt>
      <trkpt lat="43.549293" lon="5.256622">
        <ele>66.310850</ele>
        <time>2017-06-12T23:58:26.208Z</time>
      </trkpt>
      <trkpt lat="43.549051" lon="5.256681">
        <ele>65.932183</ele>
        <time>2017-06-12T23:58:30.834Z</time>
      </trkpt>
      <trkpt lat="43.548065" lon="5.256699">
        <ele>64.297329</ele>
        <time>2017-06-12T23:58:49.082Z</time>
      </trkpt>
      <trkpt lat="43.547109" lon="5.256766">
        <ele>62.757471</ele>
        <time>2017-06-12T23:59:05.791Z</time>
      </trkpt>
      <trkpt lat="43.546820" lon="5.256779">
        <ele>62.366759</ele>
        <time>2017-06-12T23:59:10.903Z</time>
      </trkpt>
      <trkpt lat="43.545956" lon="5.256883">
        <ele>61.194865</ele>
        <time>2017-06-12T23:59:26.792Z</time>
      </trkpt>
      <trkpt lat="43.545628" lon="5.256914">
        <ele>60.750623</ele>
        <time>2017-06-12T23:59:33.178Z</time>
      </trkpt>
      <trkpt lat="43.545429" lon="5.256956">
        <ele>60.545184</ele>
        <time>2017-06-12T23:59:37.183Z</time>
      </trkpt>
      <trkpt lat="43.545335" lon="5.256905">
        <ele>60.570207</ele>
        <time>2017-06-12T23:59:39.298Z</time>
      </trkpt>
      <trkpt lat="43.545200" lon="5.256812">
        <ele>60.607588</ele>
        <time>2017-06-12T23:59:42.678Z</time>
      </trkpt>
      <trkpt lat="43.545157" lon="5.256873">
        <ele>60.622867</ele>
        <time>2017-06-12T23:59:44.135Z</time>
      </trkpt>
      <trkpt lat="43.544670" lon="5.257394">
        <ele>60.775535</ele>
        <time>2017-06-12T23:59:58.533Z</time>
      </trkpt>
      <trkpt lat="43.544163" lon="5.257933">
        <ele>60.934100</ele>
        <time>2017-06-13T00:00:14.372Z</time>
      </trkpt>
      <trkpt lat="43.543970" lon="5.258130">
        <ele>60.989193</ele>
        <time>2017-06-13T00:00:20.617Z</time>
      </trkpt>
      <trkpt lat="43.543669" lon="5.258393">
        <ele>61.047983</ele>
        <time>2017-06-13T00:00:29.582Z</time>
      </trkpt>
      <trkpt lat="43.543059" lon="5.258866">
        <ele>61.163447</ele>
        <time>2017-06-13T00:00:45.522Z</time>
      </trkpt>
      <trkpt lat="43.542725" lon="5.259186">
        <ele>61.230546</ele>
        <time>2017-06-13T00:00:54.344Z</time>
      </trkpt>
      <trkpt lat="43.542665" lon="5.259229">
        <ele>61.241703</ele>
        <time>2017-06-13T00:00:55.720Z</time>
      </trkpt>
      <trkpt lat="43.542579" lon="5.259270">
        <ele>61.256717</ele>
        <time>2017-06-13T00:00:57.591Z</time>
      </trkpt>
      <trkpt lat="43.542518" lon="5.259243">
        <ele>61.267288</ele>
        <time>2017-06-13T00:00:58.866Z</time>
      </trkpt>
      <trkpt lat="43.542408" lon="5.259257">
        <ele>61.275677</ele>
        <time>2017-06-13T00:01:01.362Z</time>
      </trkpt>
      <trkpt lat="43.542358" lon="5.259293">
        <ele>61.273922</ele>
        <time>2017-06-13T00:01:02.543Z</time>
      </trkpt>
      <trkpt lat="43.542273" lon="5.259278">
        <ele>61.271255</ele>
        <time>2017-06-13T00:01:04.476Z</time>
      </trkpt>
      <trkpt lat="43.542190" lon="5.259257">
        <ele>61.268629</ele>
        <time>2017-06-13T00:01:06.262Z</time>
      </trkpt>
      <trkpt lat="43.542131" lon="5.259224">
        <ele>61.266648</ele>
        <time>2017-06-13T00:01:07.587Z</time>
      </trkpt>
      <trkpt lat="43.542017" lon="5.259106">
        <ele>61.262213</ele>
        <time>2017-06-13T00:01:10.785Z</time>
      </trkpt>
      <trkpt lat="43.541968" lon="5.259049">
        <ele>61.260218</ele>
        <time>2017-06-13T00:01:12.228Z</time>
      </trkpt>
      <trkpt lat="43.541763" lon="5.258623">
        <ele>61.248684</ele>
        <time>2017-06-13T00:01:20.378Z</time>
      </trkpt>
      <trkpt lat="43.541424" lon="5.257901">
        <ele>61.229278</ele>
        <time>2017-06-13T00:01:33.886Z</time>
      </trkpt>
      <trkpt lat="43.541352" lon="5.257792">
        <ele>61.225952</ele>
        <time>2017-06-13T00:01:36.409Z</time>
      </trkpt>
      <trkpt lat="43.541021" lon="5.257537">
        <ele>61.372443</ele>
        <time>2017-06-13T00:01:45.291Z</time>
      </trkpt>
      <trkpt lat="43.540746" lon="5.257491">
        <ele>61.555724</ele>
        <time>2017-06-13T00:01:51.952Z</time>
      </trkpt>
      <trkpt lat="43.540528" lon="5.257579">
        <ele>61.706008</ele>
        <time>2017-06-13T00:01:57.620Z</time>
      </trkpt>
      <trkpt lat="43.540081" lon="5.257954">
        <ele>62.052150</ele>
        <time>2017-06-13T00:02:10.968Z</time>
      </trkpt>
      <trkpt lat="43.539799" lon="5.258137">
        <ele>62.258343</ele>
        <time>2017-06-13T00:02:19.020Z</time>
      </trkpt>
      <trkpt lat="43.539345" lon="5.258317">
        <ele>62.679474</ele>
        <time>2017-06-13T00:02:31.121Z</time>
      </trkpt>
      <trkpt lat="43.539121" lon="5.258356">
        <ele>62.930505</ele>
        <time>2017-06-13T00:02:37.114Z</time>
      </trkpt>
      <trkpt lat="43.538937" lon="5.258369">
        <ele>63.135355</ele>
        <time>2017-06-13T00:02:41.838Z</time>
      </trkpt>
      <trkpt lat="43.538456" lon="5.258369">
        <ele>63.670157</ele>
        <time>2017-06-13T00:02:54.763Z</time>
      </trkpt>
      <trkpt lat="43.537581" lon="5.258258">
        <ele>64.671672</ele>
        <time>2017-06-13T00:03:18.646Z</time>
      </trkpt>
      <trkpt lat="43.537080" lon="5.258069">
        <ele>65.309206</ele>
        <time>2017-06-13T00:03:33.223Z</time>
      </trkpt>
      <trkpt lat="43.536461" lon="5.257710">
        <ele>66.133420</ele>
        <time>2017-06-13T00:03:51.249Z</time>
      </trkpt>
      <trkpt lat="43.536268" lon="5.257557">
        <ele>66.406652</ele>
        <time>2017-06-13T00:03:57.190Z</time>
      </trkpt>
      <trkpt lat="43.536051" lon="5.257345">
        <ele>66.732182</ele>
        <time>2017-06-13T00:04:04.346Z</time>
      </trkpt>
      <trkpt lat="43.535823" lon="5.257107">
        <ele>67.080487</ele>
        <time>2017-06-13T00:04:11.895Z</time>
      </trkpt>
      <trkpt lat="43.535045" lon="5.256313">
        <ele>68.259418</ele>
        <time>2017-06-13T00:04:37.982Z</time>
      </trkpt>
      <trkpt lat="43.534897" lon="5.256055">
        <ele>68.549965</ele>
        <time>2017-06-13T00:04:44.683Z</time>
      </trkpt>
      <trkpt lat="43.534698" lon="5.255669">
        <ele>68.947403</ele>
        <time>2017-06-13T00:04:54.212Z</time>
      </trkpt>
      <trkpt lat="43.534661" lon="5.255531">
        <ele>69.060227</ele>
        <time>2017-06-13T00:04:57.144Z</time>
      </trkpt>
      <trkpt lat="43.534636" lon="5.255377">
        <ele>69.181238</ele>
        <time>2017-06-13T00:05:00.418Z</time>
      </trkpt>
      <trkpt lat="43.534661" lon="5.255248">
        <ele>69.283629</ele>
        <time>2017-06-13T00:05:03.114Z</time>
      </trkpt>
      <trkpt lat="43.534648" lon="5.255102">
        <ele>69.396423</ele>
        <time>2017-06-13T00:05:06.009Z</time>
      </trkpt>
      <trkpt lat="43.534561" lon="5.254793">
        <ele>69.650606</ele>
        <time>2017-06-13T00:05:12.542Z</time>
      </trkpt>
      <trkpt lat="43.534512" lon="5.254679">
        <ele>69.752231</ele>
        <time>2017-06-13T00:05:15.100Z</time>
      </trkpt>
      <trkpt lat="43.534449" lon="5.254535">
        <ele>69.881200</ele>
        <time>2017-06-13T00:05:18.358Z</time>
      </trkpt>
      <trkpt lat="43.534331" lon="5.254312">
        <ele>70.092901</ele>
        <time>2017-06-13T00:05:23.544Z</time>
      </trkpt>
      <trkpt lat="43.534250" lon="5.254226">
        <ele>70.201017</ele>
        <time>2017-06-13T00:05:26.199Z</time>
      </trkpt>
      <trkpt lat="43.534169" lon="5.254209">
        <ele>70.287678</ele>
        <time>2017-06-13T00:05:28.259Z</time>
      </trkpt>
      <trkpt lat="43.534001" lon="5.254270">
        <ele>70.471428</ele>
        <time>2017-06-13T00:05:32.560Z</time>
      </trkpt>
      <trkpt lat="43.533945" lon="5.254355">
        <ele>70.559500</ele>
        <time>2017-06-13T00:05:34.716Z</time>
      </trkpt>
      <trkpt lat="43.533914" lon="5.254484">
        <ele>70.663711</ele>
        <time>2017-06-13T00:05:37.262Z</time>
      </trkpt>
      <trkpt lat="43.533932" lon="5.254614">
        <ele>70.720090</ele>
        <time>2017-06-13T00:05:39.660Z</time>
      </trkpt>
      <trkpt lat="43.533901" lon="5.254682">
        <ele>70.729071</ele>
        <time>2017-06-13T00:05:41.204Z</time>
      </trkpt>
      <trkpt lat="43.533808" lon="5.254741">
        <ele>70.744858</ele>
        <time>2017-06-13T00:05:43.846Z</time>
      </trkpt>
      <trkpt lat="43.533766" lon="5.254715">
        <ele>70.751957</ele>
        <time>2017-06-13T00:05:45.105Z</time>
      </trkpt>
      <trkpt lat="43.533701" lon="5.254668">
        <ele>70.763275</ele>
        <time>2017-06-13T00:05:46.774Z</time>
      </trkpt>
      <trkpt lat="43.533369" lon="5.254283">
        <ele>70.830165</ele>
        <time>2017-06-13T00:05:57.202Z</time>
      </trkpt>
      <trkpt lat="43.533098" lon="5.254013">
        <ele>70.881720</ele>
        <time>2017-06-13T00:06:04.792Z</time>
      </trkpt>
      <trkpt lat="43.532951" lon="5.253857">
        <ele>70.910323</ele>
        <time>2017-06-13T00:06:08.869Z</time>
      </trkpt>
      <trkpt lat="43.532853" lon="5.253788">
        <ele>70.927291</ele>
        <time>2017-06-13T00:06:11.226Z</time>
      </trkpt>
      <trkpt lat="43.532858" lon="5.253723">
        <ele>70.934599</ele>
        <time>2017-06-13T00:06:12.168Z</time>
      </trkpt>
      <trkpt lat="43.532852" lon="5.253679">
        <ele>70.939605</ele>
        <time>2017-06-13T00:06:12.826Z</time>
      </trkpt>
      <trkpt lat="43.532830" lon="5.253621">
        <ele>70.946923</ele>
        <time>2017-06-13T00:06:13.840Z</time>
      </trkpt>
      <trkpt lat="43.532796" lon="5.253579">
        <ele>70.953962</ele>
        <time>2017-06-13T00:06:14.830Z</time>
      </trkpt>
      <trkpt lat="43.532674" lon="5.253395">
        <ele>70.981840</ele>
        <time>2017-06-13T00:06:18.623Z</time>
      </trkpt>
      <trkpt lat="43.532276" lon="5.252564">
        <ele>70.752696</ele>
        <time>2017-06-13T00:06:33.449Z</time>
      </trkpt>
      <trkpt lat="43.532221" lon="5.252443">
        <ele>70.716092</ele>
        <time>2017-06-13T00:06:35.585Z</time>
      </trkpt>
      <trkpt lat="43.531855" lon="5.251606">
        <ele>70.465571</ele>
        <time>2017-06-13T00:06:50.847Z</time>
      </trkpt>
      <trkpt lat="43.531774" lon="5.251468">
        <ele>70.420063</ele>
        <time>2017-06-13T00:06:53.465Z</time>
      </trkpt>
      <trkpt lat="43.531636" lon="5.251251">
        <ele>70.344127</ele>
        <time>2017-06-13T00:06:57.959Z</time>
      </trkpt>
      <trkpt lat="43.531548" lon="5.251123">
        <ele>70.287634</ele>
        <time>2017-06-13T00:07:00.564Z</time>
      </trkpt>
      <trkpt lat="43.531426" lon="5.250936">
        <ele>70.207068</ele>
        <time>2017-06-13T00:07:04.517Z</time>
      </trkpt>
      <trkpt lat="43.530743" lon="5.250124">
        <ele>69.808759</ele>
        <time>2017-06-13T00:07:23.004Z</time>
      </trkpt>
      <trkpt lat="43.530251" lon="5.249536">
        <ele>69.444495</ele>
        <time>2017-06-13T00:07:36.717Z</time>
      </trkpt>
      <trkpt lat="43.530096" lon="5.249200">
        <ele>69.060907</ele>
        <time>2017-06-13T00:07:42.694Z</time>
      </trkpt>
      <trkpt lat="43.530077" lon="5.249090">
        <ele>68.951991</ele>
        <time>2017-06-13T00:07:44.273Z</time>
      </trkpt>
      <trkpt lat="43.530104" lon="5.249033">
        <ele>68.886410</ele>
        <time>2017-06-13T00:07:45.214Z</time>
      </trkpt>
      <trkpt lat="43.530110" lon="5.248989">
        <ele>68.843287</ele>
        <time>2017-06-13T00:07:45.834Z</time>
      </trkpt>
      <trkpt lat="43.530102" lon="5.248930">
        <ele>68.785473</ele>
        <time>2017-06-13T00:07:46.669Z</time>
      </trkpt>
      <trkpt lat="43.530072" lon="5.248874">
        <ele>68.718408</ele>
        <time>2017-06-13T00:07:47.656Z</time>
      </trkpt>
      <trkpt lat="43.530026" lon="5.248846">
        <ele>68.651610</ele>
        <time>2017-06-13T00:07:48.701Z</time>
      </trkpt>
      <trkpt lat="43.530015" lon="5.248847">
        <ele>68.636964</ele>
        <time>2017-06-13T00:07:48.945Z</time>
      </trkpt>
      <trkpt lat="43.529967" lon="5.248768">
        <ele>68.537685</ele>
        <time>2017-06-13T00:07:50.401Z</time>
      </trkpt>
      <trkpt lat="43.529536" lon="5.247454">
        <ele>67.117831</ele>
        <time>2017-06-13T00:08:09.437Z</time>
      </trkpt>
      <trkpt lat="43.529483" lon="5.247256">
        <ele>66.621703</ele>
        <time>2017-06-13T00:08:11.977Z</time>
      </trkpt>
      <trkpt lat="43.529496" lon="5.247207">
        <ele>66.499054</ele>
        <time>2017-06-13T00:08:12.599Z</time>
      </trkpt>
      <trkpt lat="43.529496" lon="5.247158">
        <ele>66.383874</ele>
        <time>2017-06-13T00:08:13.209Z</time>
      </trkpt>
      <trkpt lat="43.529484" lon="5.247108">
        <ele>66.260072</ele>
        <time>2017-06-13T00:08:13.852Z</time>
      </trkpt>
      <trkpt lat="43.529449" lon="5.247056">
        <ele>66.093287</ele>
        <time>2017-06-13T00:08:14.723Z</time>
      </trkpt>
      <trkpt lat="43.529414" lon="5.247035">
        <ele>65.969541</ele>
        <time>2017-06-13T00:08:15.357Z</time>
      </trkpt>
      <trkpt lat="43.529374" lon="5.247031">
        <ele>65.839515</ele>
        <time>2017-06-13T00:08:16.017Z</time>
      </trkpt>
      <trkpt lat="43.529338" lon="5.247047">
        <ele>65.716888</ele>
        <time>2017-06-13T00:08:16.681Z</time>
      </trkpt>
      <trkpt lat="43.529320" lon="5.247062">
        <ele>65.648705</ele>
        <time>2017-06-13T00:08:17.059Z</time>
      </trkpt>
      <trkpt lat="43.529220" lon="5.247046">
        <ele>65.322318</ele>
        <time>2017-06-13T00:08:18.684Z</time>
      </trkpt>
      <trkpt lat="43.529087" lon="5.246967">
        <ele>64.852828</ele>
        <time>2017-06-13T00:08:21.094Z</time>
      </trkpt>
      <trkpt lat="43.528853" lon="5.246818">
        <ele>64.017224</ele>
        <time>2017-06-13T00:08:25.296Z</time>
      </trkpt>
      <trkpt lat="43.528577" lon="5.246647">
        <ele>63.036261</ele>
        <time>2017-06-13T00:08:30.101Z</time>
      </trkpt>
      <trkpt lat="43.528324" lon="5.246548">
        <ele>62.183629</ele>
        <time>2017-06-13T00:08:34.255Z</time>
      </trkpt>
      <trkpt lat="43.526771" lon="5.246063">
        <ele>56.243571</ele>
        <time>2017-06-13T00:08:59.031Z</time>
      </trkpt>
      <trkpt lat="43.526650" lon="5.246026">
        <ele>55.769377</ele>
        <time>2017-06-13T00:09:01.035Z</time>
      </trkpt>
      <trkpt lat="43.526517" lon="5.245984">
        <ele>55.247343</ele>
        <time>2017-06-13T00:09:03.225Z</time>
      </trkpt>
      <trkpt lat="43.526257" lon="5.245929">
        <ele>54.326164</ele>
        <time>2017-06-13T00:09:07.536Z</time>
      </trkpt>
      <trkpt lat="43.525778" lon="5.245859">
        <ele>53.211090</ele>
        <time>2017-06-13T00:09:15.526Z</time>
      </trkpt>
      <trkpt lat="43.524225" lon="5.245829">
        <ele>49.970097</ele>
        <time>2017-06-13T00:09:42.817Z</time>
      </trkpt>
      <trkpt lat="43.523897" lon="5.245776">
        <ele>49.605708</ele>
        <time>2017-06-13T00:09:48.910Z</time>
      </trkpt>
      <trkpt lat="43.523230" lon="5.245599">
        <ele>48.856244</ele>
        <time>2017-06-13T00:10:01.848Z</time>
      </trkpt>
      <trkpt lat="43.522172" lon="5.245414">
        <ele>48.576484</ele>
        <time>2017-06-13T00:10:24.254Z</time>
      </trkpt>
      <trkpt lat="43.521275" lon="5.245103">
        <ele>49.011687</ele>
        <time>2017-06-13T00:10:47.173Z</time>
      </trkpt>
      <trkpt lat="43.520867" lon="5.245008">
        <ele>49.341774</ele>
        <time>2017-06-13T00:10:58.269Z</time>
      </trkpt>
      <trkpt lat="43.519311" lon="5.245018">
        <ele>51.990144</ele>
        <time>2017-06-13T00:11:44.185Z</time>
      </trkpt>
      <trkpt lat="43.519056" lon="5.244957">
        <ele>52.438104</ele>
        <time>2017-06-13T00:11:52.003Z</time>
      </trkpt>
      <trkpt lat="43.518045" lon="5.244671">
        <ele>54.255755</ele>
        <time>2017-06-13T00:12:22.549Z</time>
      </trkpt>
      <trkpt lat="43.517581" lon="5.244624">
        <ele>55.075153</ele>
        <time>2017-06-13T00:12:36.605Z</time>
      </trkpt>
      <trkpt lat="43.516953" lon="5.244742">
        <ele>55.790542</ele>
        <time>2017-06-13T00:12:53.759Z</time>
      </trkpt>
      <trkpt lat="43.516240" lon="5.244946">
        <ele>56.436493</ele>
        <time>2017-06-13T00:13:12.754Z</time>
      </trkpt>
      <trkpt lat="43.515920" lon="5.245048">
        <ele>56.727840</ele>
        <time>2017-06-13T00:13:20.909Z</time>
      </trkpt>
      <trkpt lat="43.515671" lon="5.245080">
        <ele>56.949677</ele>
        <time>2017-06-13T00:13:26.809Z</time>
      </trkpt>
      <trkpt lat="43.515359" lon="5.245103">
        <ele>56.916259</ele>
        <time>2017-06-13T00:13:34.088Z</time>
      </trkpt>
      <trkpt lat="43.514874" lon="5.245033">
        <ele>56.806172</ele>
        <time>2017-06-13T00:13:44.759Z</time>
      </trkpt>
      <trkpt lat="43.514772" lon="5.244942">
        <ele>56.778746</ele>
        <time>2017-06-13T00:13:47.258Z</time>
      </trkpt>
      <trkpt lat="43.514733" lon="5.244854">
        <ele>56.761862</ele>
        <time>2017-06-13T00:13:48.755Z</time>
      </trkpt>
      <trkpt lat="43.514696" lon="5.244807">
        <ele>56.750505</ele>
        <time>2017-06-13T00:13:49.747Z</time>
      </trkpt>
      <trkpt lat="43.514602" lon="5.244752">
        <ele>56.727453</ele>
        <time>2017-06-13T00:13:51.800Z</time>
      </trkpt>
      <trkpt lat="43.514511" lon="5.244757">
        <ele>56.706893</ele>
        <time>2017-06-13T00:13:53.645Z</time>
      </trkpt>
      <trkpt lat="43.514366" lon="5.244853">
        <ele>56.670581</ele>
        <time>2017-06-13T00:13:56.933Z</time>
      </trkpt>
      <trkpt lat="43.514056" lon="5.244746">
        <ele>56.598439</ele>
        <time>2017-06-13T00:14:03.570Z</time>
      </trkpt>
      <trkpt lat="43.513661" lon="5.244545">
        <ele>56.433011</ele>
        <time>2017-06-13T00:14:12.312Z</time>
      </trkpt>
      <trkpt lat="43.513537" lon="5.244476">
        <ele>56.372400</ele>
        <time>2017-06-13T00:14:15.057Z</time>
      </trkpt>
      <trkpt lat="43.512925" lon="5.244007">
        <ele>56.055029</ele>
        <time>2017-06-13T00:14:29.599Z</time>
      </trkpt>
      <trkpt lat="43.512780" lon="5.243897">
        <ele>55.980013</ele>
        <time>2017-06-13T00:14:33.096Z</time>
      </trkpt>
      <trkpt lat="43.512553" lon="5.243717">
        <ele>55.861318</ele>
        <time>2017-06-13T00:14:38.527Z</time>
      </trkpt>
      <trkpt lat="43.512128" lon="5.243214">
        <ele>55.408982</ele>
        <time>2017-06-13T00:14:50.034Z</time>
      </trkpt>
      <trkpt lat="43.511898" lon="5.242871">
        <ele>55.052892</ele>
        <time>2017-06-13T00:14:56.778Z</time>
      </trkpt>
      <trkpt lat="43.511884" lon="5.242850">
        <ele>55.031149</ele>
        <time>2017-06-13T00:14:57.223Z</time>
      </trkpt>
      <trkpt lat="43.511432" lon="5.242135">
        <ele>54.308133</ele>
        <time>2017-06-13T00:15:10.418Z</time>
      </trkpt>
      <trkpt lat="43.511098" lon="5.241678">
        <ele>53.750512</ele>
        <time>2017-06-13T00:15:19.076Z</time>
      </trkpt>
      <trkpt lat="43.510275" lon="5.240814">
        <ele>51.390607</ele>
        <time>2017-06-13T00:15:37.163Z</time>
      </trkpt>
      <trkpt lat="43.509801" lon="5.240404">
        <ele>50.114032</ele>
        <time>2017-06-13T00:15:46.593Z</time>
      </trkpt>
      <trkpt lat="43.508583" lon="5.239706">
        <ele>46.220910</ele>
        <time>2017-06-13T00:16:08.209Z</time>
      </trkpt>
      <trkpt lat="43.507868" lon="5.239180">
        <ele>43.876732</ele>
        <time>2017-06-13T00:16:21.440Z</time>
      </trkpt>
      <trkpt lat="43.507349" lon="5.238751">
        <ele>42.444308</ele>
        <time>2017-06-13T00:16:31.532Z</time>
      </trkpt>
      <trkpt lat="43.507178" lon="5.238638">
        <ele>41.995432</ele>
        <time>2017-06-13T00:16:34.787Z</time>
      </trkpt>
      <trkpt lat="43.506796" lon="5.238490">
        <ele>41.056153</ele>
        <time>2017-06-13T00:16:41.623Z</time>
      </trkpt>
      <trkpt lat="43.506366" lon="5.238440">
        <ele>40.037676</ele>
        <time>2017-06-13T00:16:49.237Z</time>
      </trkpt>
      <trkpt lat="43.505941" lon="5.238452">
        <ele>39.761215</ele>
        <time>2017-06-13T00:16:57.188Z</time>
      </trkpt>
      <trkpt lat="43.505581" lon="5.238471">
        <ele>39.526913</ele>
        <time>2017-06-13T00:17:04.708Z</time>
      </trkpt>
      <trkpt lat="43.505411" lon="5.238445">
        <ele>39.415674</ele>
        <time>2017-06-13T00:17:08.409Z</time>
      </trkpt>
      <trkpt lat="43.504899" lon="5.238349">
        <ele>39.079624</ele>
        <time>2017-06-13T00:17:19.318Z</time>
      </trkpt>
      <trkpt lat="43.504496" lon="5.238224">
        <ele>38.805653</ele>
        <time>2017-06-13T00:17:28.189Z</time>
      </trkpt>
      <trkpt lat="43.504019" lon="5.237998">
        <ele>38.447549</ele>
        <time>2017-06-13T00:17:38.939Z</time>
      </trkpt>
      <trkpt lat="43.503340" lon="5.237552">
        <ele>37.913550</ele>
        <time>2017-06-13T00:17:54.303Z</time>
      </trkpt>
      <trkpt lat="43.502613" lon="5.236996">
        <ele>37.158137</ele>
        <time>2017-06-13T00:18:09.558Z</time>
      </trkpt>
      <trkpt lat="43.502087" lon="5.236398">
        <ele>36.376619</ele>
        <time>2017-06-13T00:18:22.064Z</time>
      </trkpt>
      <trkpt lat="43.501891" lon="5.236087">
        <ele>36.034063</ele>
        <time>2017-06-13T00:18:27.566Z</time>
      </trkpt>
      <trkpt lat="43.501644" lon="5.235694">
        <ele>35.601695</ele>
        <time>2017-06-13T00:18:34.801Z</time>
      </trkpt>
      <trkpt lat="43.500148" lon="5.233131">
        <ele>36.827547</ele>
        <time>2017-06-13T00:19:31.429Z</time>
      </trkpt>
      <trkpt lat="43.499777" lon="5.232639">
        <ele>37.686739</ele>
        <time>2017-06-13T00:19:47.083Z</time>
      </trkpt>
      <trkpt lat="43.499611" lon="5.232438">
        <ele>38.055490</ele>
        <time>2017-06-13T00:19:53.682Z</time>
      </trkpt>
      <trkpt lat="43.499477" lon="5.232305">
        <ele>38.331073</ele>
        <time>2017-06-13T00:19:59.429Z</time>
      </trkpt>
      <trkpt lat="43.499269" lon="5.232109">
        <ele>38.751578</ele>
        <time>2017-06-13T00:20:07.937Z</time>
      </trkpt>
      <trkpt lat="43.498673" lon="5.231682">
        <ele>39.326552</ele>
        <time>2017-06-13T00:20:28.941Z</time>
      </trkpt>
      <trkpt lat="43.498263" lon="5.231488">
        <ele>39.620544</ele>
        <time>2017-06-13T00:20:41.096Z</time>
      </trkpt>
      <trkpt lat="43.497851" lon="5.231324">
        <ele>39.911384</ele>
        <time>2017-06-13T00:20:51.121Z</time>
      </trkpt>
      <trkpt lat="43.497530" lon="5.231164">
        <ele>40.142885</ele>
        <time>2017-06-13T00:20:57.625Z</time>
      </trkpt>
      <trkpt lat="43.496851" lon="5.230922">
        <ele>37.634513</ele>
        <time>2017-06-13T00:21:09.567Z</time>
      </trkpt>
      <trkpt lat="43.496514" lon="5.230885">
        <ele>36.329439</ele>
        <time>2017-06-13T00:21:14.915Z</time>
      </trkpt>
      <trkpt lat="43.495831" lon="5.230912">
        <ele>33.691703</ele>
        <time>2017-06-13T00:21:24.955Z</time>
      </trkpt>
      <trkpt lat="43.495232" lon="5.231030">
        <ele>31.607747</ele>
        <time>2017-06-13T00:21:34.054Z</time>
      </trkpt>
      <trkpt lat="43.495073" lon="5.231112">
        <ele>31.040523</ele>
        <time>2017-06-13T00:21:36.798Z</time>
      </trkpt>
      <trkpt lat="43.494888" lon="5.231251">
        <ele>30.336532</ele>
        <time>2017-06-13T00:21:40.029Z</time>
      </trkpt>
      <trkpt lat="43.494506" lon="5.231672">
        <ele>28.702386</ele>
        <time>2017-06-13T00:21:48.210Z</time>
      </trkpt>
      <trkpt lat="43.494463" lon="5.231660">
        <ele>28.555796</ele>
        <time>2017-06-13T00:21:48.951Z</time>
      </trkpt>
      <trkpt lat="43.494405" lon="5.231674">
        <ele>28.359054</ele>
        <time>2017-06-13T00:21:49.956Z</time>
      </trkpt>
      <trkpt lat="43.494384" lon="5.231688">
        <ele>28.281112</ele>
        <time>2017-06-13T00:21:50.326Z</time>
      </trkpt>
      <trkpt lat="43.494354" lon="5.231720">
        <ele>28.154369</ele>
        <time>2017-06-13T00:21:50.972Z</time>
      </trkpt>
      <trkpt lat="43.494336" lon="5.231752">
        <ele>28.056219</ele>
        <time>2017-06-13T00:21:51.464Z</time>
      </trkpt>
      <trkpt lat="43.494317" lon="5.231813">
        <ele>27.895308</ele>
        <time>2017-06-13T00:21:52.299Z</time>
      </trkpt>
      <trkpt lat="43.494314" lon="5.231853">
        <ele>27.797836</ele>
        <time>2017-06-13T00:21:52.965Z</time>
      </trkpt>
      <trkpt lat="43.494326" lon="5.231937">
        <ele>27.590318</ele>
        <time>2017-06-13T00:21:54.179Z</time>
      </trkpt>
      <trkpt lat="43.494341" lon="5.231976">
        <ele>27.483322</ele>
        <time>2017-06-13T00:21:54.905Z</time>
      </trkpt>
      <trkpt lat="43.494286" lon="5.232129">
        <ele>27.259268</ele>
        <time>2017-06-13T00:21:57.084Z</time>
      </trkpt>
      <trkpt lat="43.493908" lon="5.232900">
        <ele>27.858934</ele>
        <time>2017-06-13T00:22:11.516Z</time>
      </trkpt>
      <trkpt lat="43.493707" lon="5.233210">
        <ele>28.126865</ele>
        <time>2017-06-13T00:22:20.538Z</time>
      </trkpt>
      <trkpt lat="43.493553" lon="5.233370">
        <ele>28.298168</ele>
        <time>2017-06-13T00:22:26.072Z</time>
      </trkpt>
      <trkpt lat="43.493426" lon="5.233474">
        <ele>28.429388</ele>
        <time>2017-06-13T00:22:30.922Z</time>
      </trkpt>
      <trkpt lat="43.493227" lon="5.233605">
        <ele>28.625283</ele>
        <time>2017-06-13T00:22:36.489Z</time>
      </trkpt>
      <trkpt lat="43.493036" lon="5.233688">
        <ele>28.803180</ele>
        <time>2017-06-13T00:22:42.714Z</time>
      </trkpt>
      <trkpt lat="43.492884" lon="5.233730">
        <ele>29.125882</ele>
        <time>2017-06-13T00:22:47.490Z</time>
      </trkpt>
      <trkpt lat="43.492651" lon="5.233789">
        <ele>29.650893</ele>
        <time>2017-06-13T00:22:56.361Z</time>
      </trkpt>
      <trkpt lat="43.492486" lon="5.233799">
        <ele>30.016916</ele>
        <time>2017-06-13T00:23:02.048Z</time>
      </trkpt>
      <trkpt lat="43.492347" lon="5.233804">
        <ele>30.325070</ele>
        <time>2017-06-13T00:23:07.135Z</time>
      </trkpt>
      <trkpt lat="43.492212" lon="5.233762">
        <ele>30.631780</ele>
        <time>2017-06-13T00:23:12.264Z</time>
      </trkpt>
      <trkpt lat="43.492155" lon="5.233730">
        <ele>30.768177</ele>
        <time>2017-06-13T00:23:13.947Z</time>
      </trkpt>
      <trkpt lat="43.492126" lon="5.233689">
        <ele>30.860242</ele>
        <time>2017-06-13T00:23:15.427Z</time>
      </trkpt>
      <trkpt lat="43.492087" lon="5.233619">
        <ele>31.002145</ele>
        <time>2017-06-13T00:23:17.769Z</time>
      </trkpt>
      <trkpt lat="43.492109" lon="5.233546">
        <ele>31.129236</ele>
        <time>2017-06-13T00:23:19.589Z</time>
      </trkpt>
      <trkpt lat="43.492094" lon="5.233383">
        <ele>31.393403</ele>
        <time>2017-06-13T00:23:23.710Z</time>
      </trkpt>
      <trkpt lat="43.492054" lon="5.233313">
        <ele>31.536666</ele>
        <time>2017-06-13T00:23:25.310Z</time>
      </trkpt>
      <trkpt lat="43.491999" lon="5.233269">
        <ele>31.677597</ele>
        <time>2017-06-13T00:23:27.278Z</time>
      </trkpt>
      <trkpt lat="43.491937" lon="5.233255">
        <ele>31.816832</ele>
        <time>2017-06-13T00:23:29.305Z</time>
      </trkpt>
      <trkpt lat="43.491888" lon="5.233266">
        <ele>31.926856</ele>
        <time>2017-06-13T00:23:30.742Z</time>
      </trkpt>
      <trkpt lat="43.491842" lon="5.233297">
        <ele>32.040332</ele>
        <time>2017-06-13T00:23:32.467Z</time>
      </trkpt>
      <trkpt lat="43.491799" lon="5.233355">
        <ele>32.173662</ele>
        <time>2017-06-13T00:23:34.197Z</time>
      </trkpt>
      <trkpt lat="43.491792" lon="5.233377">
        <ele>32.212286</ele>
        <time>2017-06-13T00:23:34.775Z</time>
      </trkpt>
      <trkpt lat="43.491773" lon="5.233432">
        <ele>32.310227</ele>
        <time>2017-06-13T00:23:35.739Z</time>
      </trkpt>
      <trkpt lat="43.491769" lon="5.233525">
        <ele>32.460013</ele>
        <time>2017-06-13T00:23:37.534Z</time>
      </trkpt>
      <trkpt lat="43.491569" lon="5.233641">
        <ele>32.765110</ele>
        <time>2017-06-13T00:23:43.912Z</time>
      </trkpt>
      <trkpt lat="43.491496" lon="5.233656">
        <ele>32.719782</ele>
        <time>2017-06-13T00:23:45.651Z</time>
      </trkpt>
      <trkpt lat="43.491142" lon="5.233667">
        <ele>32.502319</ele>
        <time>2017-06-13T00:23:53.861Z</time>
      </trkpt>
      <trkpt lat="43.490923" lon="5.233606">
        <ele>32.365103</ele>
        <time>2017-06-13T00:23:58.223Z</time>
      </trkpt>
      <trkpt lat="43.490686" lon="5.233493">
        <ele>32.211089</ele>
        <time>2017-06-13T00:24:03.665Z</time>
      </trkpt>
      <trkpt lat="43.490131" lon="5.233226">
        <ele>31.850075</ele>
        <time>2017-06-13T00:24:16.439Z</time>
      </trkpt>
      <trkpt lat="43.490285" lon="5.232957">
        <ele>31.694834</ele>
        <time>2017-06-13T00:24:20.777Z</time>
      </trkpt>
      <trkpt lat="43.489606" lon="5.232392">
        <ele>30.189369</ele>
        <time>2017-06-13T00:24:34.704Z</time>
      </trkpt>
      <trkpt lat="43.489590" lon="5.232379">
        <ele>30.154115</ele>
        <time>2017-06-13T00:24:35.037Z</time>
      </trkpt>
      <trkpt lat="43.489249" lon="5.232148">
        <ele>29.432911</ele>
        <time>2017-06-13T00:24:41.999Z</time>
      </trkpt>
      <trkpt lat="43.489218" lon="5.232095">
        <ele>29.339159</ele>
        <time>2017-06-13T00:24:42.839Z</time>
      </trkpt>
      <trkpt lat="43.489220" lon="5.231692">
        <ele>28.784178</ele>
        <time>2017-06-13T00:24:48.749Z</time>
      </trkpt>
      <trkpt lat="43.488895" lon="5.231507">
        <ele>28.231143</ele>
        <time>2017-06-13T00:24:55.908Z</time>
      </trkpt>
      <trkpt lat="43.488860" lon="5.231461">
        <ele>28.201914</ele>
        <time>2017-06-13T00:24:56.754Z</time>
      </trkpt>
      <trkpt lat="43.488864" lon="5.231405">
        <ele>28.177239</ele>
        <time>2017-06-13T00:24:57.506Z</time>
      </trkpt>
      <trkpt lat="43.488858" lon="5.231325">
        <ele>28.141972</ele>
        <time>2017-06-13T00:24:58.724Z</time>
      </trkpt>
      <trkpt lat="43.488764" lon="5.231343">
        <ele>28.084613</ele>
        <time>2017-06-13T00:25:00.761Z</time>
      </trkpt>
      <trkpt lat="43.488104" lon="5.231346">
        <ele>27.685705</ele>
        <time>2017-06-13T00:25:13.688Z</time>
      </trkpt>
      <trkpt lat="43.488056" lon="5.231349">
        <ele>27.656664</ele>
        <time>2017-06-13T00:25:14.819Z</time>
      </trkpt>
      <trkpt lat="43.487998" lon="5.231392">
        <ele>27.616859</ele>
        <time>2017-06-13T00:25:16.345Z</time>
      </trkpt>
      <trkpt lat="43.487905" lon="5.231389">
        <ele>27.560634</ele>
        <time>2017-06-13T00:25:18.176Z</time>
      </trkpt>
      <trkpt lat="43.487449" lon="5.231378">
        <ele>27.284984</ele>
        <time>2017-06-13T00:25:28.546Z</time>
      </trkpt>
      <trkpt lat="43.487091" lon="5.231368">
        <ele>27.020228</ele>
        <time>2017-06-13T00:25:36.518Z</time>
      </trkpt>
      <trkpt lat="43.486392" lon="5.231384">
        <ele>26.439266</ele>
        <time>2017-06-13T00:25:50.008Z</time>
      </trkpt>
      <trkpt lat="43.485943" lon="5.231399">
        <ele>26.066030</ele>
        <time>2017-06-13T00:25:58.614Z</time>
      </trkpt>
      <trkpt lat="43.486111" lon="5.230767">
        <ele>25.644885</ele>
        <time>2017-06-13T00:26:07.946Z</time>
      </trkpt>
      <trkpt lat="43.486170" lon="5.230595">
        <ele>25.488902</ele>
        <time>2017-06-13T00:26:10.632Z</time>
      </trkpt>
      <trkpt lat="43.486190" lon="5.230544">
        <ele>25.441372</ele>
        <time>2017-06-13T00:26:11.586Z</time>
      </trkpt>
      <trkpt lat="43.486221" lon="5.230492">
        <ele>25.386193</ele>
        <time>2017-06-13T00:26:12.514Z</time>
      </trkpt>
      <trkpt lat="43.486248" lon="5.230489">
        <ele>25.355584</ele>
        <time>2017-06-13T00:26:13.010Z</time>
      </trkpt>
      <trkpt lat="43.486310" lon="5.230437">
        <ele>25.273571</ele>
        <time>2017-06-13T00:26:14.400Z</time>
      </trkpt>
      <trkpt lat="43.486325" lon="5.230401">
        <ele>25.239535</ele>
        <time>2017-06-13T00:26:14.939Z</time>
      </trkpt>
      <trkpt lat="43.486333" lon="5.230358">
        <ele>25.203140</ele>
        <time>2017-06-13T00:26:15.544Z</time>
      </trkpt>
      <trkpt lat="43.486329" lon="5.230306">
        <ele>25.160268</ele>
        <time>2017-06-13T00:26:16.263Z</time>
      </trkpt>
      <trkpt lat="43.486321" lon="5.230277">
        <ele>25.134832</ele>
        <time>2017-06-13T00:26:16.694Z</time>
      </trkpt>
      <trkpt lat="43.486294" lon="5.230232">
        <ele>25.086956</ele>
        <time>2017-06-13T00:26:17.521Z</time>
      </trkpt>
      <trkpt lat="43.486276" lon="5.230216">
        <ele>25.062753</ele>
        <time>2017-06-13T00:26:17.960Z</time>
      </trkpt>
      <trkpt lat="43.486245" lon="5.230201">
        <ele>25.025627</ele>
        <time>2017-06-13T00:26:18.666Z</time>
      </trkpt>
      <trkpt lat="43.486220" lon="5.230199">
        <ele>24.997329</ele>
        <time>2017-06-13T00:26:19.126Z</time>
      </trkpt>
      <trkpt lat="43.486175" lon="5.230216">
        <ele>24.944603</ele>
        <time>2017-06-13T00:26:19.987Z</time>
      </trkpt>
      <trkpt lat="43.486144" lon="5.230252">
        <ele>24.898796</ele>
        <time>2017-06-13T00:26:20.766Z</time>
      </trkpt>
      <trkpt lat="43.485959" lon="5.230216">
        <ele>24.687671</ele>
        <time>2017-06-13T00:26:24.228Z</time>
      </trkpt>
      <trkpt lat="43.485926" lon="5.230213">
        <ele>24.650300</ele>
        <time>2017-06-13T00:26:24.874Z</time>
      </trkpt>
      <trkpt lat="43.485803" lon="5.230199">
        <ele>24.510835</ele>
        <time>2017-06-13T00:26:27.105Z</time>
      </trkpt>
      <trkpt lat="43.485695" lon="5.230187">
        <ele>24.388398</ele>
        <time>2017-06-13T00:26:29.007Z</time>
      </trkpt>
      <trkpt lat="43.485602" lon="5.230185">
        <ele>24.283295</ele>
        <time>2017-06-13T00:26:30.674Z</time>
      </trkpt>
      <trkpt lat="43.485500" lon="5.230183">
        <ele>24.168022</ele>
        <time>2017-06-13T00:26:32.500Z</time>
      </trkpt>
      <trkpt lat="43.485045" lon="5.230184">
        <ele>23.665495</ele>
        <time>2017-06-13T00:26:41.362Z</time>
      </trkpt>
      <trkpt lat="43.484504" lon="5.230185">
        <ele>23.486973</ele>
        <time>2017-06-13T00:26:52.675Z</time>
      </trkpt>
      <trkpt lat="43.483974" lon="5.230151">
        <ele>23.311891</ele>
        <time>2017-06-13T00:27:03.903Z</time>
      </trkpt>
      <trkpt lat="43.483940" lon="5.230149">
        <ele>23.300661</ele>
        <time>2017-06-13T00:27:04.648Z</time>
      </trkpt>
      <trkpt lat="43.483898" lon="5.230150">
        <ele>23.286799</ele>
        <time>2017-06-13T00:27:05.572Z</time>
      </trkpt>
      <trkpt lat="43.483297" lon="5.230170">
        <ele>23.088420</ele>
        <time>2017-06-13T00:27:18.626Z</time>
      </trkpt>
      <trkpt lat="43.483265" lon="5.230172">
        <ele>23.077850</ele>
        <time>2017-06-13T00:27:19.343Z</time>
      </trkpt>
      <trkpt lat="43.482928" lon="5.230193">
        <ele>23.129316</ele>
        <time>2017-06-13T00:27:26.807Z</time>
      </trkpt>
      <trkpt lat="43.482617" lon="5.230212">
        <ele>23.178289</ele>
        <time>2017-06-13T00:27:33.787Z</time>
      </trkpt>
      <trkpt lat="43.482164" lon="5.230239">
        <ele>23.249619</ele>
        <time>2017-06-13T00:27:44.080Z</time>
      </trkpt>
      <trkpt lat="43.481245" lon="5.230318">
        <ele>23.421072</ele>
        <time>2017-06-13T00:28:05.778Z</time>
      </trkpt>
      <trkpt lat="43.480820" lon="5.230394">
        <ele>23.540090</ele>
        <time>2017-06-13T00:28:16.101Z</time>
      </trkpt>
      <trkpt lat="43.479325" lon="5.230766">
        <ele>23.846234</ele>
        <time>2017-06-13T00:28:51.252Z</time>
      </trkpt>
      <trkpt lat="43.478442" lon="5.230910">
        <ele>23.815013</ele>
        <time>2017-06-13T00:29:10.862Z</time>
      </trkpt>
      <trkpt lat="43.472921" lon="5.231717">
        <ele>22.275562</ele>
        <time>2017-06-13T00:31:09.535Z</time>
      </trkpt>
      <trkpt lat="43.472417" lon="5.231749">
        <ele>21.852225</ele>
        <time>2017-06-13T00:31:19.613Z</time>
      </trkpt>
      <trkpt lat="43.472360" lon="5.231752">
        <ele>21.742634</ele>
        <time>2017-06-13T00:31:20.728Z</time>
      </trkpt>
      <trkpt lat="43.471251" lon="5.231757">
        <ele>19.611964</ele>
        <time>2017-06-13T00:31:39.521Z</time>
      </trkpt>
      <trkpt lat="43.471138" lon="5.231738">
        <ele>19.393254</ele>
        <time>2017-06-13T00:31:41.320Z</time>
      </trkpt>
      <trkpt lat="43.470941" lon="5.231676">
        <ele>19.005022</ele>
        <time>2017-06-13T00:31:45.150Z</time>
      </trkpt>
      <trkpt lat="43.470871" lon="5.231580">
        <ele>18.815277</ele>
        <time>2017-06-13T00:31:47.169Z</time>
      </trkpt>
      <trkpt lat="43.470849" lon="5.231501">
        <ele>18.697297</ele>
        <time>2017-06-13T00:31:48.082Z</time>
      </trkpt>
      <trkpt lat="43.470859" lon="5.231395">
        <ele>18.614362</ele>
        <time>2017-06-13T00:31:49.688Z</time>
      </trkpt>
      <trkpt lat="43.470852" lon="5.231318">
        <ele>18.594436</ele>
        <time>2017-06-13T00:31:50.875Z</time>
      </trkpt>
      <trkpt lat="43.470834" lon="5.231246">
        <ele>18.574883</ele>
        <time>2017-06-13T00:31:51.868Z</time>
      </trkpt>
      <trkpt lat="43.470790" lon="5.231155">
        <ele>18.546806</ele>
        <time>2017-06-13T00:31:53.837Z</time>
      </trkpt>
      <trkpt lat="43.470753" lon="5.231109">
        <ele>18.529175</ele>
        <time>2017-06-13T00:31:54.632Z</time>
      </trkpt>
      <trkpt lat="43.470672" lon="5.231052">
        <ele>18.496995</ele>
        <time>2017-06-13T00:31:56.179Z</time>
      </trkpt>
      <trkpt lat="43.470595" lon="5.231035">
        <ele>18.469405</ele>
        <time>2017-06-13T00:31:57.988Z</time>
      </trkpt>
      <trkpt lat="43.470523" lon="5.231048">
        <ele>18.443713</ele>
        <time>2017-06-13T00:31:59.358Z</time>
      </trkpt>
      <trkpt lat="43.470461" lon="5.231083">
        <ele>18.420008</ele>
        <time>2017-06-13T00:32:01.133Z</time>
      </trkpt>
      <trkpt lat="43.470399" lon="5.231150">
        <ele>18.392130</ele>
        <time>2017-06-13T00:32:02.378Z</time>
      </trkpt>
      <trkpt lat="43.470350" lon="5.231251">
        <ele>18.360936</ele>
        <time>2017-06-13T00:32:04.170Z</time>
      </trkpt>
      <trkpt lat="43.470327" lon="5.231369">
        <ele>18.329563</ele>
        <time>2017-06-13T00:32:06.067Z</time>
      </trkpt>
      <trkpt lat="43.470183" lon="5.231505">
        <ele>18.267796</ele>
        <time>2017-06-13T00:32:09.441Z</time>
      </trkpt>
      <trkpt lat="43.469983" lon="5.231634">
        <ele>18.189667</ele>
        <time>2017-06-13T00:32:14.039Z</time>
      </trkpt>
      <trkpt lat="43.469577" lon="5.231802">
        <ele>18.039684</ele>
        <time>2017-06-13T00:32:24.359Z</time>
      </trkpt>
      <trkpt lat="43.468963" lon="5.231928">
        <ele>18.535986</ele>
        <time>2017-06-13T00:32:43.206Z</time>
      </trkpt>
      <trkpt lat="43.467769" lon="5.231941">
        <ele>19.863212</ele>
        <time>2017-06-13T00:33:15.206Z</time>
      </trkpt>
      <trkpt lat="43.467532" lon="5.231897">
        <ele>19.999186</ele>
        <time>2017-06-13T00:33:21.056Z</time>
      </trkpt>
      <trkpt lat="43.467185" lon="5.231702">
        <ele>20.020497</ele>
        <time>2017-06-13T00:33:30.102Z</time>
      </trkpt>
      <trkpt lat="43.466873" lon="5.231595">
        <ele>20.038781</ele>
        <time>2017-06-13T00:33:37.617Z</time>
      </trkpt>
      <trkpt lat="43.466065" lon="5.231597">
        <ele>20.084729</ele>
        <time>2017-06-13T00:33:55.694Z</time>
      </trkpt>
      <trkpt lat="43.465275" lon="5.231745">
        <ele>19.995419</ele>
        <time>2017-06-13T00:34:13.451Z</time>
      </trkpt>
      <trkpt lat="43.464666" lon="5.231886">
        <ele>19.897710</ele>
        <time>2017-06-13T00:34:27.258Z</time>
      </trkpt>
      <trkpt lat="43.464383" lon="5.231956">
        <ele>19.852218</ele>
        <time>2017-06-13T00:34:33.849Z</time>
      </trkpt>
      <trkpt lat="43.463717" lon="5.232004">
        <ele>19.876743</ele>
        <time>2017-06-13T00:34:49.239Z</time>
      </trkpt>
      <trkpt lat="43.463345" lon="5.232007">
        <ele>19.939028</ele>
        <time>2017-06-13T00:34:57.941Z</time>
      </trkpt>
      <trkpt lat="43.463298" lon="5.231979">
        <ele>19.947602</ele>
        <time>2017-06-13T00:34:59.126Z</time>
      </trkpt>
      <trkpt lat="43.463284" lon="5.231972">
        <ele>19.950095</ele>
        <time>2017-06-13T00:34:59.411Z</time>
      </trkpt>
      <trkpt lat="43.463247" lon="5.231956">
        <ele>19.956588</ele>
        <time>2017-06-13T00:35:00.328Z</time>
      </trkpt>
      <trkpt lat="43.463139" lon="5.231937">
        <ele>19.974818</ele>
        <time>2017-06-13T00:35:02.837Z</time>
      </trkpt>
      <trkpt lat="43.463118" lon="5.231949">
        <ele>19.978624</ele>
        <time>2017-06-13T00:35:03.373Z</time>
      </trkpt>
      <trkpt lat="43.463079" lon="5.231972">
        <ele>19.985727</ele>
        <time>2017-06-13T00:35:04.548Z</time>
      </trkpt>
      <trkpt lat="43.462917" lon="5.232050">
        <ele>20.014459</ele>
        <time>2017-06-13T00:35:08.461Z</time>
      </trkpt>
      <trkpt lat="43.461498" lon="5.232211">
        <ele>20.470248</ele>
        <time>2017-06-13T00:35:44.105Z</time>
      </trkpt>
      <trkpt lat="43.460741" lon="5.232458">
        <ele>20.800168</ele>
        <time>2017-06-13T00:36:03.297Z</time>
      </trkpt>
      <trkpt lat="43.460395" lon="5.232648">
        <ele>20.967789</ele>
        <time>2017-06-13T00:36:12.393Z</time>
      </trkpt>
      <trkpt lat="43.459930" lon="5.232868">
        <ele>21.200182</ele>
        <time>2017-06-13T00:36:24.445Z</time>
      </trkpt>
      <trkpt lat="43.459757" lon="5.232925">
        <ele>21.284261</ele>
        <time>2017-06-13T00:36:28.870Z</time>
      </trkpt>
      <trkpt lat="43.459659" lon="5.232865">
        <ele>21.334951</ele>
        <time>2017-06-13T00:36:31.509Z</time>
      </trkpt>
      <trkpt lat="43.459585" lon="5.232832">
        <ele>21.371716</ele>
        <time>2017-06-13T00:36:33.392Z</time>
      </trkpt>
      <trkpt lat="43.459524" lon="5.232833">
        <ele>21.400551</ele>
        <time>2017-06-13T00:36:34.878Z</time>
      </trkpt>
      <trkpt lat="43.459361" lon="5.232762">
        <ele>21.481357</ele>
        <time>2017-06-13T00:36:39.280Z</time>
      </trkpt>
      <trkpt lat="43.459182" lon="5.232695">
        <ele>21.569033</ele>
        <time>2017-06-13T00:36:43.848Z</time>
      </trkpt>
      <trkpt lat="43.459026" lon="5.232742">
        <ele>21.644512</ele>
        <time>2017-06-13T00:36:47.719Z</time>
      </trkpt>
      <trkpt lat="43.458951" lon="5.232812">
        <ele>21.687333</ele>
        <time>2017-06-13T00:36:49.882Z</time>
      </trkpt>
      <trkpt lat="43.458666" lon="5.232992">
        <ele>21.573723</ele>
        <time>2017-06-13T00:36:57.041Z</time>
      </trkpt>
      <trkpt lat="43.458442" lon="5.233060">
        <ele>21.427640</ele>
        <time>2017-06-13T00:37:02.096Z</time>
      </trkpt>
      <trkpt lat="43.458117" lon="5.233066">
        <ele>21.220637</ele>
        <time>2017-06-13T00:37:09.107Z</time>
      </trkpt>
      <trkpt lat="43.457834" lon="5.233004">
        <ele>21.038136</ele>
        <time>2017-06-13T00:37:15.042Z</time>
      </trkpt>
      <trkpt lat="43.457730" lon="5.232965">
        <ele>20.969491</ele>
        <time>2017-06-13T00:37:17.101Z</time>
      </trkpt>
      <trkpt lat="43.457364" lon="5.232863">
        <ele>20.731672</ele>
        <time>2017-06-13T00:37:24.291Z</time>
      </trkpt>
      <trkpt lat="43.456707" lon="5.232660">
        <ele>19.386409</ele>
        <time>2017-06-13T00:37:36.256Z</time>
      </trkpt>
      <trkpt lat="43.456363" lon="5.232531">
        <ele>18.404421</ele>
        <time>2017-06-13T00:37:42.262Z</time>
      </trkpt>
      <trkpt lat="43.455579" lon="5.232295">
        <ele>16.194026</ele>
        <time>2017-06-13T00:37:55.290Z</time>
      </trkpt>
      <trkpt lat="43.454031" lon="5.231830">
        <ele>11.099917</ele>
        <time>2017-06-13T00:38:20.686Z</time>
      </trkpt>
      <trkpt lat="43.451915" lon="5.231203">
        <ele>5.357434</ele>
        <time>2017-06-13T00:38:56.859Z</time>
      </trkpt>
      <trkpt lat="43.450815" lon="5.230907">
        <ele>4.485079</ele>
        <time>2017-06-13T00:39:18.842Z</time>
      </trkpt>
      <trkpt lat="43.448903" lon="5.230486">
        <ele>3.789254</ele>
        <time>2017-06-13T00:40:02.253Z</time>
      </trkpt>
      <trkpt lat="43.448797" lon="5.230346">
        <ele>3.765970</ele>
        <time>2017-06-13T00:40:05.321Z</time>
      </trkpt>
      <trkpt lat="43.448714" lon="5.230185">
        <ele>3.743241</ele>
        <time>2017-06-13T00:40:08.410Z</time>
      </trkpt>
      <trkpt lat="43.448662" lon="5.230121">
        <ele>3.732184</ele>
        <time>2017-06-13T00:40:09.760Z</time>
      </trkpt>
      <trkpt lat="43.448572" lon="5.230083">
        <ele>3.717259</ele>
        <time>2017-06-13T00:40:11.752Z</time>
      </trkpt>
      <trkpt lat="43.448492" lon="5.230099">
        <ele>3.704442</ele>
        <time>2017-06-13T00:40:13.321Z</time>
      </trkpt>
      <trkpt lat="43.448342" lon="5.230197">
        <ele>3.630222</ele>
        <time>2017-06-13T00:40:16.672Z</time>
      </trkpt>
      <trkpt lat="43.448261" lon="5.230171">
        <ele>3.579229</ele>
        <time>2017-06-13T00:40:18.388Z</time>
      </trkpt>
      <trkpt lat="43.447744" lon="5.229716">
        <ele>3.203064</ele>
        <time>2017-06-13T00:40:30.654Z</time>
      </trkpt>
      <trkpt lat="43.447651" lon="5.229644">
        <ele>3.137654</ele>
        <time>2017-06-13T00:40:32.742Z</time>
      </trkpt>
      <trkpt lat="43.447557" lon="5.229570">
        <ele>3.071271</ele>
        <time>2017-06-13T00:40:34.848Z</time>
      </trkpt>
      <trkpt lat="43.447314" lon="5.229424">
        <ele>2.908724</ele>
        <time>2017-06-13T00:40:40.100Z</time>
      </trkpt>
      <trkpt lat="43.447058" lon="5.229278">
        <ele>2.738842</ele>
        <time>2017-06-13T00:40:45.528Z</time>
      </trkpt>
      <trkpt lat="43.446753" lon="5.229115">
        <ele>2.589330</ele>
        <time>2017-06-13T00:40:52.316Z</time>
      </trkpt>
      <trkpt lat="43.444933" lon="5.227742">
        <ele>2.698446</ele>
        <time>2017-06-13T00:41:38.801Z</time>
      </trkpt>
      <trkpt lat="43.444509" lon="5.227244">
        <ele>2.946095</ele>
        <time>2017-06-13T00:41:52.613Z</time>
      </trkpt>
      <trkpt lat="43.444372" lon="5.227047">
        <ele>3.034117</ele>
        <time>2017-06-13T00:41:57.707Z</time>
      </trkpt>
      <trkpt lat="43.444298" lon="5.226703">
        <ele>3.149886</ele>
        <time>2017-06-13T00:42:04.143Z</time>
      </trkpt>
      <trkpt lat="43.444273" lon="5.226369">
        <ele>3.258230</ele>
        <time>2017-06-13T00:42:09.984Z</time>
      </trkpt>
      <trkpt lat="43.444313" lon="5.226041">
        <ele>3.355683</ele>
        <time>2017-06-13T00:42:15.903Z</time>
      </trkpt>
      <trkpt lat="43.444320" lon="5.225861">
        <ele>3.394452</ele>
        <time>2017-06-13T00:42:18.941Z</time>
      </trkpt>
      <trkpt lat="43.444301" lon="5.225646">
        <ele>3.441034</ele>
        <time>2017-06-13T00:42:22.704Z</time>
      </trkpt>
      <trkpt lat="43.444226" lon="5.225397">
        <ele>3.499013</ele>
        <time>2017-06-13T00:42:27.199Z</time>
      </trkpt>
      <trkpt lat="43.444114" lon="5.225243">
        <ele>3.545893</ele>
        <time>2017-06-13T00:42:30.974Z</time>
      </trkpt>
      <trkpt lat="43.444086" lon="5.225234">
        <ele>3.554410</ele>
        <time>2017-06-13T00:42:31.648Z</time>
      </trkpt>
      <trkpt lat="43.444014" lon="5.225226">
        <ele>3.575808</ele>
        <time>2017-06-13T00:42:33.254Z</time>
      </trkpt>
      <trkpt lat="43.443821" lon="5.225260">
        <ele>3.633446</ele>
        <time>2017-06-13T00:42:37.708Z</time>
      </trkpt>
      <trkpt lat="43.443759" lon="5.225337">
        <ele>3.658176</ele>
        <time>2017-06-13T00:42:39.633Z</time>
      </trkpt>
      <trkpt lat="43.443690" lon="5.225526">
        <ele>3.703675</ele>
        <time>2017-06-13T00:42:43.208Z</time>
      </trkpt>
      <trkpt lat="43.443665" lon="5.225741">
        <ele>3.750505</ele>
        <time>2017-06-13T00:42:46.940Z</time>
      </trkpt>
      <trkpt lat="43.443703" lon="5.226110">
        <ele>3.830663</ele>
        <time>2017-06-13T00:42:53.410Z</time>
      </trkpt>
      <trkpt lat="43.443759" lon="5.226281">
        <ele>3.868770</ele>
        <time>2017-06-13T00:42:56.585Z</time>
      </trkpt>
      <trkpt lat="43.443787" lon="5.226557">
        <ele>3.868770</ele>
        <time>2017-06-13T00:43:01.448Z</time>
      </trkpt>
      <trkpt lat="43.443787" lon="5.226678">
        <ele>3.868770</ele>
        <time>2017-06-13T00:43:03.479Z</time>
      </trkpt>
      <trkpt lat="43.443737" lon="5.226884">
        <ele>3.868770</ele>
        <time>2017-06-13T00:43:07.298Z</time>
      </trkpt>
      <trkpt lat="43.443694" lon="5.227052">
        <ele>3.868770</ele>
        <time>2017-06-13T00:43:10.357Z</time>
      </trkpt>
      <trkpt lat="43.443477" lon="5.227831">
        <ele>3.868770</ele>
        <time>2017-06-13T00:43:25.108Z</time>
      </trkpt>
    </trkseg>
  </trk>
</gpx>